
Distance (Route):
Temperature : 0°C
Humidity : 0%
Pressure : 0hPa| Receiver | Frames | First received | Last received |
|---|---|---|---|
| SQ6EMJ | 497 | 2026-09-03 11:28:11 | 2026-09-03 13:26:18 |
| POL1PZ | 186 | 2026-09-03 11:31:36 | 2026-09-03 13:41:39 |
| PETON7-10 | 147 | 2026-09-03 11:57:03 | 2026-09-03 12:38:23 |
| AA1-15 | 57 | 2026-09-03 12:49:49 | 2026-09-03 13:03:26 |
| SP3BTT-10 | 42 | 2026-09-03 11:43:09 | 2026-09-03 12:37:26 |
| OM5KV | 39 | 2026-09-03 12:20:34 | 2026-09-03 12:25:31 |
| PG1ADW-2 | 38 | 2026-09-03 12:19:03 | 2026-09-03 12:38:29 |
| SP6BVK | 30 | 2026-09-03 13:14:59 | 2026-09-03 13:32:41 |
| OE5DRO-10 | 3 | 2026-09-03 12:22:46 | 2026-09-03 12:35:55 |
| OK1SLM-15 | 2 | 2026-09-03 12:29:06 | 2026-09-03 12:29:11 |
| KRY50SP | 2 | 2026-09-03 13:14:27 | 2026-09-03 13:14:35 |
| OE3JTB-15 | 1 | 2026-09-03 11:46:11 | 2026-09-03 11:46:11 |
| SP4MAZ | 1 | 2026-09-03 12:20:26 | 2026-09-03 12:20:26 |
| Receiver | Date | Latitude | Longitude | Direction | Speed | Altitude | Climb | Temperature | Humidity | Pressure | Voltage | Killtimer | Uptime | BKT | XDATA |
|---|---|---|---|---|---|---|---|---|---|---|---|---|---|---|---|
| POL1PZ | 2026-09-03 13:41:39 | 50.76930 | 18.13799 | 64° | 31km/h | 1658m | -10.0m/s | 0°C | 0% | 0hPa | 2.3V | 00:00:00 | 00:00:00 | 00:00:00 | |
| POL1PZ | 2026-09-03 13:41:15 | 50.76853 | 18.13520 | 77° | 31km/h | 1874m | -9.8m/s | 0°C | 0% | 0hPa | 2.3V | 00:00:00 | 00:00:00 | 00:00:00 | |
| POL1PZ | 2026-09-03 13:40:54 | 50.76812 | 18.13272 | 82° | 29km/h | 2076m | -8.8m/s | 0°C | 0% | 0hPa | 2.3V | 00:00:00 | 00:00:00 | 00:00:00 | |
| POL1PZ | 2026-09-03 13:40:34 | 50.76806 | 18.13016 | 94° | 31km/h | 2243m | -9.1m/s | 0°C | 0% | 0hPa | 2.3V | 00:00:00 | 00:00:00 | 00:00:00 | |
| POL1PZ | 2026-09-03 13:40:13 | 50.76863 | 18.12737 | 118° | 38km/h | 2429m | -6.6m/s | 0°C | 0% | 0hPa | 2.3V | 00:00:00 | 00:00:00 | 00:00:00 | |
| POL1PZ | 2026-09-03 13:39:52 | 50.76958 | 18.12458 | 119° | 37km/h | 2612m | -9.6m/s | 0°C | 0% | 0hPa | 2.3V | 00:00:00 | 00:00:00 | 00:00:00 | |
| POL1PZ | 2026-09-03 13:39:19 | 50.77118 | 18.12072 | 123° | 35km/h | 2901m | -8.2m/s | 0°C | 0% | 0hPa | 2.3V | 00:00:00 | 00:00:00 | 00:00:00 | |
| POL1PZ | 2026-09-03 13:38:58 | 50.77214 | 18.11798 | 111° | 38km/h | 3100m | -7.6m/s | 0°C | 0% | 0hPa | 2.3V | 00:00:00 | 00:00:00 | 00:00:00 | |
| POL1PZ | 2026-09-03 13:38:38 | 50.77301 | 18.11510 | 119° | 40km/h | 3285m | -7.2m/s | 0°C | 0% | 0hPa | 2.3V | 00:00:00 | 00:00:00 | 00:00:00 | |
| POL1PZ | 2026-09-03 13:38:18 | 50.77392 | 18.11240 | 121° | 38km/h | 3464m | -9.8m/s | 0°C | 0% | 0hPa | 2.3V | 00:00:00 | 00:00:00 | 00:00:00 | |
| POL1PZ | 2026-09-03 13:37:57 | 50.77506 | 18.10953 | 123° | 47km/h | 3662m | -10.8m/s | 0°C | 0% | 0hPa | 2.3V | 00:00:00 | 00:00:00 | 00:00:00 | |
| POL1PZ | 2026-09-03 13:37:36 | 50.77641 | 18.10596 | 123° | 51km/h | 3852m | -11.1m/s | 0°C | 0% | 0hPa | 2.3V | 00:00:00 | 00:00:00 | 00:00:00 | |
| POL1PZ | 2026-09-03 13:37:15 | 50.77755 | 18.10247 | 116° | 46km/h | 4059m | -12.1m/s | 0°C | 0% | 0hPa | 2.3V | 00:00:00 | 00:00:00 | 00:00:00 | |
| POL1PZ | 2026-09-03 13:36:54 | 50.77874 | 18.09925 | 121° | 44km/h | 4268m | -9.2m/s | 0°C | 0% | 0hPa | 2.3V | 00:00:00 | 00:00:00 | 00:00:00 | |
| POL1PZ | 2026-09-03 13:36:33 | 50.77985 | 18.09599 | 120° | 44km/h | 4454m | -6.6m/s | 0°C | 0% | 0hPa | 2.3V | 00:00:00 | 00:00:00 | 00:00:00 | |
| POL1PZ | 2026-09-03 13:36:12 | 50.78094 | 18.09275 | 123° | 42km/h | 4648m | -8.8m/s | 0°C | 0% | 0hPa | 2.3V | 00:00:00 | 00:00:00 | 00:00:00 | |
| POL1PZ | 2026-09-03 13:35:52 | 50.78178 | 18.08953 | 104° | 46km/h | 4839m | -9.1m/s | 0°C | 0% | 0hPa | 2.3V | 00:00:00 | 00:00:00 | 00:00:00 | |
| POL1PZ | 2026-09-03 13:35:32 | 50.78237 | 18.08595 | 107° | 44km/h | 5029m | -7.9m/s | 0°C | 0% | 0hPa | 2.3V | 00:00:00 | 00:00:00 | 00:00:00 | |
| POL1PZ | 2026-09-03 13:35:11 | 50.78289 | 18.08220 | 102° | 47km/h | 5216m | -8.4m/s | 0°C | 0% | 0hPa | 2.3V | 00:00:00 | 00:00:00 | 00:00:00 | |
| POL1PZ | 2026-09-03 13:34:50 | 50.78362 | 18.07871 | 117° | 44km/h | 5402m | -7.5m/s | 0°C | 0% | 0hPa | 2.3V | 00:00:00 | 00:00:00 | 00:00:00 | |
| POL1PZ | 2026-09-03 13:34:30 | 50.78461 | 18.07553 | 114° | 46km/h | 5597m | -7.4m/s | 0°C | 0% | 0hPa | 2.3V | 00:00:00 | 00:00:00 | 00:00:00 | |
| POL1PZ | 2026-09-03 13:34:10 | 50.78575 | 18.07216 | 122° | 51km/h | 5801m | -10.4m/s | 0°C | 0% | 0hPa | 2.3V | 00:00:00 | 00:00:00 | 00:00:00 | |
| POL1PZ | 2026-09-03 13:33:49 | 50.78741 | 18.06855 | 128° | 60km/h | 6011m | -12.3m/s | 0°C | 0% | 0hPa | 2.3V | 00:00:00 | 00:00:00 | 00:00:00 | |
| POL1PZ | 2026-09-03 13:33:28 | 50.78898 | 18.06491 | 125° | 51km/h | 6210m | -9.8m/s | 0°C | 0% | 0hPa | 2.3V | 00:00:00 | 00:00:00 | 00:00:00 | |
| POL1PZ | 2026-09-03 13:33:07 | 50.79027 | 18.06132 | 118° | 47km/h | 6403m | -9.8m/s | 0°C | 0% | 0hPa | 2.3V | 00:00:00 | 00:00:00 | 00:00:00 | |
| POL1PZ | 2026-09-03 13:32:46 | 50.79153 | 18.05770 | 122° | 49km/h | 6597m | -10.0m/s | 0°C | 0% | 0hPa | 2.3V | 00:00:00 | 00:00:00 | 00:00:00 | |
| SP6BVK | 2026-09-03 13:32:41 | 50.79185 | 18.05684 | 123° | 51km/h | 6644m | -9.4m/s | 0°C | 0% | 0hPa | 2.3V | 00:00:00 | 00:00:00 | 00:00:00 | |
| POL1PZ | 2026-09-03 13:32:25 | 50.79286 | 18.05416 | 120° | 51km/h | 6785m | -10.8m/s | 0°C | 0% | 0hPa | 2.3V | 00:00:00 | 00:00:00 | 00:00:00 | |
| POL1PZ | 2026-09-03 13:32:04 | 50.79421 | 18.05066 | 125° | 51km/h | 6977m | -9.5m/s | 0°C | 0% | 0hPa | 2.3V | 00:00:00 | 00:00:00 | 00:00:00 | |
| SP6BVK | 2026-09-03 13:31:54 | 50.79497 | 18.04891 | 127° | 57km/h | 7072m | -10.5m/s | 0°C | 0% | 0hPa | 2.3V | 00:00:00 | 00:00:00 | 00:00:00 | |
| POL1PZ | 2026-09-03 13:31:44 | 50.79577 | 18.04709 | 126° | 57km/h | 7171m | -6.3m/s | 0°C | 0% | 0hPa | 2.3V | 00:00:00 | 00:00:00 | 00:00:00 | |
| SP6BVK | 2026-09-03 13:31:31 | 50.79676 | 18.04465 | 124° | 57km/h | 7297m | -10.9m/s | 0°C | 0% | 0hPa | 2.3V | 00:00:00 | 00:00:00 | 00:00:00 | |
| POL1PZ | 2026-09-03 13:31:23 | 50.79733 | 18.04319 | 125° | 57km/h | 7371m | -10.2m/s | 0°C | 0% | 0hPa | 2.3V | 00:00:00 | 00:00:00 | 00:00:00 | |
| SP6BVK | 2026-09-03 13:31:04 | 50.79882 | 18.03983 | 129° | 58km/h | 7551m | -10.0m/s | 0°C | 0% | 0hPa | 2.3V | 00:00:00 | 00:00:00 | 00:00:00 | |
| POL1PZ | 2026-09-03 13:31:03 | 50.79890 | 18.03964 | 128° | 57km/h | 7561m | -8.2m/s | 0°C | 0% | 0hPa | 2.3V | 00:00:00 | 00:00:00 | 00:00:00 | |
| POL1PZ | 2026-09-03 13:30:42 | 50.80091 | 18.03562 | 126° | 64km/h | 7742m | -9.8m/s | 0°C | 0% | 0hPa | 2.3V | 00:00:00 | 00:00:00 | 00:00:00 | |
| POL1PZ | 2026-09-03 13:30:22 | 50.80296 | 18.03147 | 131° | 68km/h | 7920m | -10.8m/s | 0°C | 0% | 0hPa | 2.3V | 00:00:00 | 00:00:00 | 00:00:00 | |
| POL1PZ | 2026-09-03 13:30:01 | 50.80517 | 18.02682 | 125° | 71km/h | 8117m | -9.8m/s | 0°C | 0% | 0hPa | 2.3V | 00:00:00 | 00:00:00 | 00:00:00 | |
| POL1PZ | 2026-09-03 13:29:40 | 50.80741 | 18.02175 | 124° | 78km/h | 8308m | -9.2m/s | 0°C | 0% | 0hPa | 2.3V | 00:00:00 | 00:00:00 | 00:00:00 | |
| POL1PZ | 2026-09-03 13:29:20 | 50.80952 | 18.01649 | 123° | 78km/h | 8494m | -8.4m/s | 0°C | 0% | 0hPa | 2.3V | 00:00:00 | 00:00:00 | 00:00:00 | |
| POL1PZ | 2026-09-03 13:29:00 | 50.81168 | 18.01089 | 122° | 86km/h | 8674m | -9.6m/s | 0°C | 0% | 0hPa | 2.3V | 00:00:00 | 00:00:00 | 00:00:00 | |
| POL1PZ | 2026-09-03 13:28:39 | 50.81403 | 18.00458 | 118° | 93km/h | 8874m | -7.0m/s | 0°C | 0% | 0hPa | 2.3V | 00:00:00 | 00:00:00 | 00:00:00 | |
| SP6BVK | 2026-09-03 13:28:25 | 50.81563 | 18.00009 | 121° | 95km/h | 9005m | -8.9m/s | 0°C | 0% | 0hPa | 2.3V | 00:00:00 | 00:00:00 | 00:00:00 | |
| POL1PZ | 2026-09-03 13:28:18 | 50.81647 | 17.99780 | 120° | 93km/h | 9068m | -6.7m/s | 0°C | 0% | 0hPa | 2.3V | 00:00:00 | 00:00:00 | 00:00:00 | |
| POL1PZ | 2026-09-03 13:27:58 | 50.81868 | 17.99115 | 118° | 97km/h | 9257m | -9.3m/s | 0°C | 0% | 0hPa | 2.3V | 00:00:00 | 00:00:00 | 00:00:00 | |
| POL1PZ | 2026-09-03 13:27:38 | 50.82076 | 17.98424 | 119° | 97km/h | 9434m | -7.3m/s | 0°C | 0% | 0hPa | 2.3V | 00:00:00 | 00:00:00 | 00:00:00 | |
| SP6BVK | 2026-09-03 13:27:34 | 50.82120 | 17.98288 | 119° | 99km/h | 9467m | -9.1m/s | 0°C | 0% | 0hPa | 2.3V | 00:00:00 | 00:00:00 | 00:00:00 | |
| POL1PZ | 2026-09-03 13:27:17 | 50.82299 | 17.97717 | 118° | 93km/h | 9626m | -8.8m/s | 0°C | 0% | 0hPa | 2.3V | 00:00:00 | 00:00:00 | 00:00:00 | |
| SP6BVK | 2026-09-03 13:27:07 | 50.82399 | 17.97390 | 117° | 89km/h | 9710m | -7.9m/s | 0°C | 0% | 0hPa | 2.3V | 00:00:00 | 00:00:00 | 00:00:00 | |
| POL1PZ | 2026-09-03 13:26:56 | 50.82503 | 17.97047 | 118° | 86km/h | 9803m | -9.0m/s | 0°C | 0% | 0hPa | 2.3V | 00:00:00 | 00:00:00 | 00:00:00 | |
| SP6BVK | 2026-09-03 13:26:44 | 50.82620 | 17.96692 | 118° | 84km/h | 9914m | -7.1m/s | 0°C | 0% | 0hPa | 2.3V | 00:00:00 | 00:00:00 | 00:00:00 | |
| POL1PZ | 2026-09-03 13:26:36 | 50.82698 | 17.96458 | 119° | 86km/h | 9984m | -7.8m/s | 0°C | 0% | 0hPa | 2.3V | 00:00:00 | 00:00:00 | 00:00:00 | |
| SQ6EMJ | 2026-09-03 13:26:18 | 50.82879 | 17.95919 | 119° | 88km/h | 10149m | -8.1m/s | 0°C | 0% | 0hPa | 2.3V | 00:00:00 | 00:00:00 | 00:00:00 | |
| POL1PZ | 2026-09-03 13:26:15 | 50.82910 | 17.95829 | 118° | 84km/h | 10179m | -10.0m/s | 0°C | 0% | 0hPa | 2.3V | 00:00:00 | 00:00:00 | 00:00:00 | |
| POL1PZ | 2026-09-03 13:25:55 | 50.83103 | 17.95238 | 115° | 80km/h | 10383m | -9.9m/s | 0°C | 0% | 0hPa | 2.3V | 00:00:00 | 00:00:00 | 00:00:00 | |
| POL1PZ | 2026-09-03 13:25:32 | 50.83273 | 17.94576 | 110° | 77km/h | 10616m | -10.3m/s | 0°C | 0% | 0hPa | 2.3V | 00:00:00 | 00:00:00 | 00:00:00 | |
| POL1PZ | 2026-09-03 13:25:11 | 50.83408 | 17.93964 | 110° | 82km/h | 10857m | -11.4m/s | 0°C | 0% | 0hPa | 2.3V | 00:00:00 | 00:00:00 | 00:00:00 | |
| POL1PZ | 2026-09-03 13:24:50 | 50.83552 | 17.93325 | 119° | 86km/h | 11087m | -8.3m/s | 0°C | 0% | 0hPa | 2.3V | 00:00:00 | 00:00:00 | 00:00:00 | |
| POL1PZ | 2026-09-03 13:24:29 | 50.83801 | 17.92734 | 127° | 88km/h | 11318m | -11.8m/s | 0°C | 0% | 0hPa | 2.3V | 00:00:00 | 00:00:00 | 00:00:00 | |
| POL1PZ | 2026-09-03 13:24:07 | 50.84079 | 17.92139 | 129° | 88km/h | 11565m | -9.1m/s | 0°C | 0% | 0hPa | 2.3V | 00:00:00 | 00:00:00 | 00:00:00 | |
| POL1PZ | 2026-09-03 13:23:26 | 50.84573 | 17.90947 | 119° | 91km/h | 12019m | -10.1m/s | 0°C | 0% | 0hPa | 2.3V | 00:00:00 | 00:00:00 | 00:00:00 | |
| POL1PZ | 2026-09-03 13:23:06 | 50.84813 | 17.90326 | 123° | 91km/h | 12237m | -9.5m/s | 0°C | 0% | 0hPa | 2.3V | 00:00:00 | 00:00:00 | 00:00:00 | |
| POL1PZ | 2026-09-03 13:22:44 | 50.85065 | 17.89676 | 120° | 84km/h | 12473m | -11.4m/s | 0°C | 0% | 0hPa | 2.3V | 00:00:00 | 00:00:00 | 00:00:00 | |
| SP6BVK | 2026-09-03 13:22:42 | 50.85086 | 17.89616 | 118° | 88km/h | 12496m | -11.1m/s | 0°C | 0% | 0hPa | 2.3V | 00:00:00 | 00:00:00 | 00:00:00 | |
| POL1PZ | 2026-09-03 13:22:23 | 50.85269 | 17.88970 | 121° | 95km/h | 12711m | -9.6m/s | 0°C | 0% | 0hPa | 2.3V | 00:00:00 | 00:00:00 | 00:00:00 | |
| SP6BVK | 2026-09-03 13:22:22 | 50.85280 | 17.88936 | 121° | 97km/h | 12722m | -10.5m/s | 0°C | 0% | 0hPa | 2.3V | 00:00:00 | 00:00:00 | 00:00:00 | |
| POL1PZ | 2026-09-03 13:22:02 | 50.85549 | 17.88262 | 126° | 104km/h | 12941m | -10.8m/s | 0°C | 0% | 0hPa | 2.3V | 00:00:00 | 00:00:00 | 00:00:00 | |
| SP6BVK | 2026-09-03 13:22:00 | 50.85580 | 17.88193 | 126° | 104km/h | 12964m | -11.0m/s | 0°C | 0% | 0hPa | 2.3V | 00:00:00 | 00:00:00 | 00:00:00 | |
| POL1PZ | 2026-09-03 13:21:42 | 50.85864 | 17.87647 | 135° | 89km/h | 13149m | -11.6m/s | 0°C | 0% | 0hPa | 2.3V | 00:00:00 | 00:00:00 | 00:00:00 | |
| SP6BVK | 2026-09-03 13:21:39 | 50.85910 | 17.87571 | 136° | 86km/h | 13184m | -10.6m/s | 0°C | 0% | 0hPa | 2.3V | 00:00:00 | 00:00:00 | 00:00:00 | |
| POL1PZ | 2026-09-03 13:21:22 | 50.86152 | 17.87205 | 136° | 69km/h | 13373m | -9.5m/s | 0°C | 0% | 0hPa | 2.3V | 00:00:00 | 00:00:00 | 00:00:00 | |
| SP6BVK | 2026-09-03 13:21:18 | 50.86201 | 17.87126 | 135° | 71km/h | 13418m | -10.5m/s | 0°C | 0% | 0hPa | 2.3V | 00:00:00 | 00:00:00 | 00:00:00 | |
| POL1PZ | 2026-09-03 13:21:02 | 50.86415 | 17.86767 | 136° | 71km/h | 13610m | -11.5m/s | 0°C | 0% | 0hPa | 2.3V | 00:00:00 | 00:00:00 | 00:00:00 | |
| SP6BVK | 2026-09-03 13:20:58 | 50.86465 | 17.86689 | 135° | 69km/h | 13661m | -13.4m/s | 0°C | 0% | 0hPa | 2.3V | 00:00:00 | 00:00:00 | 00:00:00 | |
| POL1PZ | 2026-09-03 13:20:41 | 50.86630 | 17.86356 | 122° | 60km/h | 13860m | -9.9m/s | 0°C | 0% | 0hPa | 2.3V | 00:00:00 | 00:00:00 | 00:00:00 | |
| SP6BVK | 2026-09-03 13:20:35 | 50.86668 | 17.86250 | 116° | 58km/h | 13923m | -11.2m/s | 0°C | 0% | 0hPa | 2.3V | 00:00:00 | 00:00:00 | 00:00:00 | |
| POL1PZ | 2026-09-03 13:20:21 | 50.86741 | 17.85882 | 110° | 71km/h | 14090m | -10.2m/s | 0°C | 0% | 0hPa | 2.3V | 00:00:00 | 00:00:00 | 00:00:00 | |
| SP6BVK | 2026-09-03 13:20:13 | 50.86798 | 17.85657 | 115° | 80km/h | 14185m | -11.5m/s | 0°C | 0% | 0hPa | 2.3V | 00:00:00 | 00:00:00 | 00:00:00 | |
| POL1PZ | 2026-09-03 13:20:01 | 50.86924 | 17.85330 | 126° | 78km/h | 14332m | -12.9m/s | 0°C | 0% | 0hPa | 2.3V | 00:00:00 | 00:00:00 | 00:00:00 | |
| SP6BVK | 2026-09-03 13:19:52 | 50.87026 | 17.85112 | 130° | 75km/h | 14444m | -11.0m/s | 0°C | 0% | 0hPa | 2.3V | 00:00:00 | 00:00:00 | 00:00:00 | |
| SQ6EMJ | 2026-09-03 13:19:51 | 50.87038 | 17.85089 | 129° | 75km/h | 14455m | -10.0m/s | 0°C | 0% | 0hPa | 2.3V | 00:00:00 | 00:00:00 | 00:00:00 | |
| POL1PZ | 2026-09-03 13:19:40 | 50.87152 | 17.84864 | 126° | 62km/h | 14593m | -11.1m/s | 0°C | 0% | 0hPa | 2.3V | 00:00:00 | 00:00:00 | 00:00:00 | |
| SP6BVK | 2026-09-03 13:19:29 | 50.87246 | 17.84644 | 125° | 62km/h | 14735m | -11.9m/s | 0°C | 0% | 0hPa | 2.3V | 00:00:00 | 00:00:00 | 00:00:00 | |
| SQ6EMJ | 2026-09-03 13:19:26 | 50.87272 | 17.84584 | 125° | 62km/h | 14771m | -11.2m/s | 0°C | 0% | 0hPa | 2.3V | 00:00:00 | 00:00:00 | 00:00:00 | |
| SQ6EMJ | 2026-09-03 13:19:21 | 50.87312 | 17.84485 | 124° | 58km/h | 14832m | -13.0m/s | 0°C | 0% | 0hPa | 2.3V | 00:00:00 | 00:00:00 | 00:00:00 | |
| POL1PZ | 2026-09-03 13:19:16 | 50.87352 | 17.84384 | 120° | 60km/h | 14893m | -13.2m/s | 0°C | 0% | 0hPa | 2.3V | 00:00:00 | 00:00:00 | 00:00:00 | |
| SQ6EMJ | 2026-09-03 13:19:13 | 50.87372 | 17.84323 | 119° | 58km/h | 14931m | -11.9m/s | 0°C | 0% | 0hPa | 2.3V | 00:00:00 | 00:00:00 | 00:00:00 | |
| SP6BVK | 2026-09-03 13:19:09 | 50.87399 | 17.84241 | 116° | 60km/h | 14979m | -11.4m/s | 0°C | 0% | 0hPa | 2.3V | 00:00:00 | 00:00:00 | 00:00:00 | |
| SQ6EMJ | 2026-09-03 13:19:07 | 50.87411 | 17.84196 | 115° | 62km/h | 15006m | -11.8m/s | 0°C | 0% | 0hPa | 2.3V | 00:00:00 | 00:00:00 | 00:00:00 | |
| POL1PZ | 2026-09-03 13:18:56 | 50.87489 | 17.83939 | 125° | 71km/h | 15144m | -12.4m/s | 0°C | 0% | 0hPa | 2.3V | 00:00:00 | 00:00:00 | 00:00:00 | |
| SQ6EMJ | 2026-09-03 13:18:51 | 50.87539 | 17.83826 | 124° | 69km/h | 15206m | -12.9m/s | 0°C | 0% | 0hPa | 2.3V | 00:00:00 | 00:00:00 | 00:00:00 | |
| SP6BVK | 2026-09-03 13:18:48 | 50.87568 | 17.83755 | 122° | 68km/h | 15244m | -12.6m/s | 0°C | 0% | 0hPa | 2.3V | 00:00:00 | 00:00:00 | 00:00:00 | |
| SQ6EMJ | 2026-09-03 13:18:46 | 50.87585 | 17.83708 | 121° | 68km/h | 15270m | -11.2m/s | 0°C | 0% | 0hPa | 2.3V | 00:00:00 | 00:00:00 | 00:00:00 | |
| SQ6EMJ | 2026-09-03 13:18:35 | 50.87678 | 17.83460 | 127° | 66km/h | 15408m | -15.8m/s | 0°C | 0% | 0hPa | 2.3V | 00:00:00 | 00:00:00 | 00:00:00 | |
| POL1PZ | 2026-09-03 13:18:33 | 50.87699 | 17.83417 | 130° | 64km/h | 15439m | -12.5m/s | 0°C | 0% | 0hPa | 2.3V | 00:00:00 | 00:00:00 | 00:00:00 | |
| SP6BVK | 2026-09-03 13:18:27 | 50.87757 | 17.83299 | 127° | 60km/h | 15515m | -9.9m/s | 0°C | 0% | 0hPa | 2.3V | 00:00:00 | 00:00:00 | 00:00:00 | |
| SQ6EMJ | 2026-09-03 13:18:21 | 50.87810 | 17.83182 | 126° | 58km/h | 15594m | -10.4m/s | 0°C | 0% | 0hPa | 2.3V | 00:00:00 | 00:00:00 | 00:00:00 | |
| SQ6EMJ | 2026-09-03 13:18:15 | 50.87859 | 17.83061 | 122° | 64km/h | 15664m | -12.0m/s | 0°C | 0% | 0hPa | 2.3V | 00:00:00 | 00:00:00 | 00:00:00 | |
| SQ6EMJ | 2026-09-03 13:18:10 | 50.87897 | 17.82947 | 120° | 69km/h | 15720m | -11.6m/s | 0°C | 0% | 0hPa | 2.3V | 00:00:00 | 00:00:00 | 00:00:00 | |
| POL1PZ | 2026-09-03 13:18:06 | 50.87930 | 17.82851 | 122° | 69km/h | 15770m | -14.5m/s | 0°C | 0% | 0hPa | 2.3V | 00:00:00 | 00:00:00 | 00:00:00 | |
| SQ6EMJ | 2026-09-03 13:18:00 | 50.87988 | 17.82720 | 132° | 64km/h | 15848m | -13.9m/s | 0°C | 0% | 0hPa | 2.3V | 00:00:00 | 00:00:00 | 00:00:00 | |
| SQ6EMJ | 2026-09-03 13:17:54 | 50.88046 | 17.82613 | 132° | 55km/h | 15925m | -11.4m/s | 0°C | 0% | 0hPa | 2.3V | 00:00:00 | 00:00:00 | 00:00:00 | |
| SQ6EMJ | 2026-09-03 13:17:47 | 50.88111 | 17.82508 | 133° | 49km/h | 16017m | -14.9m/s | 0°C | 0% | 0hPa | 2.3V | 00:00:00 | 00:00:00 | 00:00:00 | |
| POL1PZ | 2026-09-03 13:17:46 | 50.88119 | 17.82493 | 133° | 47km/h | 16032m | -12.7m/s | 0°C | 0% | 0hPa | 2.3V | 00:00:00 | 00:00:00 | 00:00:00 | |
| SP6BVK | 2026-09-03 13:17:45 | 50.88127 | 17.82479 | 133° | 46km/h | 16045m | -12.1m/s | 0°C | 0% | 0hPa | 2.3V | 00:00:00 | 00:00:00 | 00:00:00 | |
| SQ6EMJ | 2026-09-03 13:17:37 | 50.88188 | 17.82374 | 137° | 38km/h | 16156m | -12.1m/s | 0°C | 0% | 0hPa | 2.3V | 00:00:00 | 00:00:00 | 00:00:00 | |
| SP6BVK | 2026-09-03 13:17:25 | 50.88244 | 17.82234 | 114° | 40km/h | 16328m | -12.7m/s | 0°C | 0% | 0hPa | 2.3V | 00:00:00 | 00:00:00 | 00:00:00 | |
| SQ6EMJ | 2026-09-03 13:17:15 | 50.88265 | 17.82073 | 106° | 49km/h | 16483m | -13.0m/s | 0°C | 0% | 0hPa | 2.3V | 00:00:00 | 00:00:00 | 00:00:00 | |
| SQ6EMJ | 2026-09-03 13:17:09 | 50.88289 | 17.81960 | 117° | 53km/h | 16568m | -14.6m/s | 0°C | 0% | 0hPa | 2.3V | 00:00:00 | 00:00:00 | 00:00:00 | |
| POL1PZ | 2026-09-03 13:17:08 | 50.88295 | 17.81941 | 116° | 51km/h | 16581m | -11.6m/s | 0°C | 0% | 0hPa | 2.3V | 00:00:00 | 00:00:00 | 00:00:00 | |
| SP6BVK | 2026-09-03 13:17:04 | 50.88321 | 17.81867 | 122° | 55km/h | 16639m | -13.3m/s | 0°C | 0% | 0hPa | 2.3V | 00:00:00 | 00:00:00 | 00:00:00 | |
| SQ6EMJ | 2026-09-03 13:17:03 | 50.88329 | 17.81848 | 123° | 57km/h | 16653m | -14.3m/s | 0°C | 0% | 0hPa | 2.3V | 00:00:00 | 00:00:00 | 00:00:00 | |
| SQ6EMJ | 2026-09-03 13:16:58 | 50.88365 | 17.81753 | 122° | 55km/h | 16719m | -12.4m/s | 0°C | 0% | 0hPa | 2.3V | 00:00:00 | 00:00:00 | 00:00:00 | |
| SQ6EMJ | 2026-09-03 13:16:53 | 50.88397 | 17.81651 | 115° | 46km/h | 16789m | -9.8m/s | 0°C | 0% | 0hPa | 2.3V | 00:00:00 | 00:00:00 | 00:00:00 | |
| SQ6EMJ | 2026-09-03 13:16:48 | 50.88421 | 17.81566 | 117° | 49km/h | 16850m | -12.1m/s | 0°C | 0% | 0hPa | 2.3V | 00:00:00 | 00:00:00 | 00:00:00 | |
| POL1PZ | 2026-09-03 13:16:45 | 50.88432 | 17.81532 | 114° | 47km/h | 16874m | -12.8m/s | 0°C | 0% | 0hPa | 2.3V | 00:00:00 | 00:00:00 | 00:00:00 | |
| SP6BVK | 2026-09-03 13:16:44 | 50.88436 | 17.81514 | 113° | 47km/h | 16889m | -14.9m/s | 0°C | 0% | 0hPa | 2.3V | 00:00:00 | 00:00:00 | 00:00:00 | |
| SQ6EMJ | 2026-09-03 13:16:42 | 50.88449 | 17.81462 | 108° | 46km/h | 16931m | -12.8m/s | 0°C | 0% | 0hPa | 2.3V | 00:00:00 | 00:00:00 | 00:00:00 | |
| SQ6EMJ | 2026-09-03 13:16:35 | 50.88469 | 17.81363 | 106° | 40km/h | 17016m | -12.9m/s | 0°C | 0% | 0hPa | 2.3V | 00:00:00 | 00:00:00 | 00:00:00 | |
| SQ6EMJ | 2026-09-03 13:16:30 | 50.88481 | 17.81283 | 105° | 42km/h | 17088m | -13.0m/s | 0°C | 0% | 0hPa | 2.3V | 00:00:00 | 00:00:00 | 00:00:00 | |
| POL1PZ | 2026-09-03 13:16:25 | 50.88499 | 17.81197 | 112° | 46km/h | 17155m | -12.2m/s | 0°C | 0% | 0hPa | 2.3V | 00:00:00 | 00:00:00 | 00:00:00 | |
| SP6BVK | 2026-09-03 13:16:23 | 50.88506 | 17.81165 | 110° | 42km/h | 17180m | -10.9m/s | 0°C | 0% | 0hPa | 2.3V | 00:00:00 | 00:00:00 | 00:00:00 | |
| SQ6EMJ | 2026-09-03 13:16:17 | 50.88520 | 17.81076 | 107° | 40km/h | 17260m | -16.0m/s | 0°C | 0% | 0hPa | 2.3V | 00:00:00 | 00:00:00 | 00:00:00 | |
| SQ6EMJ | 2026-09-03 13:16:10 | 50.88541 | 17.80966 | 108° | 49km/h | 17366m | -12.7m/s | 0°C | 0% | 0hPa | 2.3V | 00:00:00 | 00:00:00 | 00:00:00 | |
| POL1PZ | 2026-09-03 13:16:04 | 50.88557 | 17.80849 | 103° | 49km/h | 17454m | -17.1m/s | 0°C | 0% | 0hPa | 2.3V | 00:00:00 | 00:00:00 | 00:00:00 | |
| SP6BVK | 2026-09-03 13:16:02 | 50.88561 | 17.80810 | 104° | 47km/h | 17486m | -15.6m/s | 0°C | 0% | 0hPa | 2.3V | 00:00:00 | 00:00:00 | 00:00:00 | |
| SQ6EMJ | 2026-09-03 13:15:59 | 50.88570 | 17.80756 | 111° | 49km/h | 17528m | -15.3m/s | 0°C | 0% | 0hPa | 2.3V | 00:00:00 | 00:00:00 | 00:00:00 | |
| SQ6EMJ | 2026-09-03 13:15:52 | 50.88608 | 17.80643 | 126° | 44km/h | 17636m | -13.5m/s | 0°C | 0% | 0hPa | 2.3V | 00:00:00 | 00:00:00 | 00:00:00 | |
| SQ6EMJ | 2026-09-03 13:15:47 | 50.88637 | 17.80577 | 124° | 38km/h | 17711m | -13.5m/s | 0°C | 0% | 0hPa | 2.3V | 00:00:00 | 00:00:00 | 00:00:00 | |
| SQ6EMJ | 2026-09-03 13:15:42 | 50.88663 | 17.80516 | 126° | 38km/h | 17776m | -13.0m/s | 0°C | 0% | 0hPa | 2.3V | 00:00:00 | 00:00:00 | 00:00:00 | |
| SP6BVK | 2026-09-03 13:15:41 | 50.88669 | 17.80504 | 125° | 37km/h | 17789m | -12.4m/s | 0°C | 0% | 0hPa | 2.3V | 00:00:00 | 00:00:00 | 00:00:00 | |
| SQ6EMJ | 2026-09-03 13:15:36 | 50.88689 | 17.80441 | 109° | 37km/h | 17853m | -13.6m/s | 0°C | 0% | 0hPa | 2.3V | 00:00:00 | 00:00:00 | 00:00:00 | |
| SQ6EMJ | 2026-09-03 13:15:30 | 50.88705 | 17.80352 | 107° | 42km/h | 17942m | -16.2m/s | 0°C | 0% | 0hPa | 2.3V | 00:00:00 | 00:00:00 | 00:00:00 | |
| SQ6EMJ | 2026-09-03 13:15:26 | 50.88727 | 17.80269 | 118° | 49km/h | 18028m | -15.2m/s | 0°C | 0% | 0hPa | 2.3V | 00:00:00 | 00:00:00 | 00:00:00 | |
| SP6BVK | 2026-09-03 13:15:21 | 50.88757 | 17.80192 | 122° | 44km/h | 18100m | -13.8m/s | 0°C | 0% | 0hPa | 2.3V | 00:00:00 | 00:00:00 | 00:00:00 | |
| SQ6EMJ | 2026-09-03 13:15:20 | 50.88763 | 17.80178 | 122° | 44km/h | 18116m | -14.1m/s | 0°C | 0% | 0hPa | 2.3V | 00:00:00 | 00:00:00 | 00:00:00 | |
| SQ6EMJ | 2026-09-03 13:15:13 | 50.88787 | 17.80096 | 108° | 35km/h | 18213m | -13.8m/s | 0°C | 0% | 0hPa | 2.3V | 00:00:00 | 00:00:00 | 00:00:00 | |
| SQ6EMJ | 2026-09-03 13:15:08 | 50.88800 | 17.80029 | 113° | 35km/h | 18288m | -16.4m/s | 0°C | 0% | 0hPa | 2.3V | 00:00:00 | 00:00:00 | 00:00:00 | |
| SP6BVK | 2026-09-03 13:14:59 | 50.88834 | 17.79894 | 115° | 42km/h | 18435m | -16.1m/s | 0°C | 0% | 0hPa | 2.3V | 00:00:00 | 00:00:00 | 00:00:00 | |
| SQ6EMJ | 2026-09-03 13:14:57 | 50.88841 | 17.79866 | 117° | 38km/h | 18467m | -17.1m/s | 0°C | 0% | 0hPa | 2.3V | 00:00:00 | 00:00:00 | 00:00:00 | |
| SQ6EMJ | 2026-09-03 13:14:51 | 50.88868 | 17.79780 | 118° | 40km/h | 18561m | -12.4m/s | 0°C | 0% | 0hPa | 2.3V | 00:00:00 | 00:00:00 | 00:00:00 | |
| SQ6EMJ | 2026-09-03 13:14:45 | 50.88902 | 17.79692 | 128° | 47km/h | 18651m | -14.9m/s | 0°C | 0% | 0hPa | 2.3V | 00:00:00 | 00:00:00 | 00:00:00 | |
| SQ6EMJ | 2026-09-03 13:14:39 | 50.88943 | 17.79627 | 143° | 33km/h | 18743m | -14.5m/s | 0°C | 0% | 0hPa | 2.3V | 00:00:00 | 00:00:00 | 00:00:00 | |
| KRY50SP | 2026-09-03 13:14:35 | 50.88968 | 17.79596 | 143° | 33km/h | 18804m | -13.8m/s | 0°C | 0% | 0hPa | 2.3V | 00:00:00 | 00:00:00 | 00:00:00 | |
| SQ6EMJ | 2026-09-03 13:14:34 | 50.88975 | 17.79587 | 139° | 35km/h | 18819m | -13.2m/s | 0°C | 0% | 0hPa | 2.3V | 00:00:00 | 00:00:00 | 00:00:00 | |
| SQ6EMJ | 2026-09-03 13:14:29 | 50.89006 | 17.79544 | 137° | 29km/h | 18890m | -15.0m/s | 0°C | 0% | 0hPa | 2.3V | 00:00:00 | 00:00:00 | 00:00:00 | |
| KRY50SP | 2026-09-03 13:14:27 | 50.89015 | 17.79529 | 137° | 29km/h | 18920m | -15.8m/s | 0°C | 0% | 0hPa | 2.3V | 00:00:00 | 00:00:00 | 00:00:00 | |
| SQ6EMJ | 2026-09-03 13:14:23 | 50.89034 | 17.79501 | 133° | 26km/h | 18982m | -13.8m/s | 0°C | 0% | 0hPa | 2.3V | 00:00:00 | 00:00:00 | 00:00:00 | |
| SQ6EMJ | 2026-09-03 13:14:18 | 50.89045 | 17.79462 | 95° | 20km/h | 19060m | -15.0m/s | 0°C | 0% | 0hPa | 2.3V | 00:00:00 | 00:00:00 | 00:00:00 | |
| SQ6EMJ | 2026-09-03 13:14:13 | 50.89043 | 17.79421 | 78° | 24km/h | 19137m | -16.3m/s | 0°C | 0% | 0hPa | 2.3V | 00:00:00 | 00:00:00 | 00:00:00 | |
| SQ6EMJ | 2026-09-03 13:14:05 | 50.89025 | 17.79323 | 76° | 40km/h | 19261m | -14.8m/s | 0°C | 0% | 0hPa | 2.3V | 00:00:00 | 00:00:00 | 00:00:00 | |
| SQ6EMJ | 2026-09-03 13:13:59 | 50.89019 | 17.79238 | 92° | 37km/h | 19357m | -15.5m/s | 0°C | 0% | 0hPa | 2.3V | 00:00:00 | 00:00:00 | 00:00:00 | |
| SQ6EMJ | 2026-09-03 13:13:52 | 50.89032 | 17.79137 | 115° | 35km/h | 19460m | -16.4m/s | 0°C | 0% | 0hPa | 2.3V | 00:00:00 | 00:00:00 | 00:00:00 | |
| AA1-15 | 2026-09-03 13:03:26 | 50.90814 | 18.99658 | 0° | 0km/h | 159087m | 0m/s | -32.6°C | 0% | 2.7hPa | 2.3V | 00:00:00 | 00:00:00 | 00:00:00 | |
| AA1-15 | 2026-09-03 13:03:14 | 50.90814 | 18.99658 | 0° | 0km/h | 159087m | 0m/s | -31.5°C | 0% | 2.4hPa | 2.3V | 00:00:00 | 00:00:00 | 00:00:00 | |
| AA1-15 | 2026-09-03 13:02:58 | 50.90814 | 18.99658 | 0° | 0km/h | 159087m | 0m/s | -31.4°C | 0% | 1.8hPa | 2.3V | 00:00:00 | 00:00:00 | 00:00:00 | |
| AA1-15 | 2026-09-03 13:02:48 | 50.90814 | 18.99658 | 0° | 0km/h | 159087m | 0m/s | -31.5°C | 0% | 1.5hPa | 2.3V | 00:00:00 | 00:00:00 | 00:00:00 | |
| AA1-15 | 2026-09-03 13:02:36 | 50.90814 | 18.99658 | 0° | 0km/h | 159087m | 0m/s | -30.6°C | 0% | 1.1hPa | 2.3V | 00:00:00 | 00:00:00 | 00:00:00 | |
| AA1-15 | 2026-09-03 13:02:24 | 50.90814 | 18.99658 | 0° | 0km/h | 159087m | 0m/s | -30.7°C | 0% | 1.1hPa | 2.3V | 00:00:00 | 00:00:00 | 00:00:00 | |
| AA1-15 | 2026-09-03 13:01:56 | 50.90814 | 18.99658 | 0° | 0km/h | 159087m | 0m/s | -30.8°C | 0% | 1.3hPa | 2.3V | 00:00:00 | 00:00:00 | 00:00:00 | |
| AA1-15 | 2026-09-03 13:01:41 | 50.90814 | 18.99658 | 0° | 0km/h | 159087m | 0m/s | -31.3°C | 0% | 1.4hPa | 2.3V | 00:00:00 | 00:00:00 | 00:00:00 | |
| AA1-15 | 2026-09-03 13:01:30 | 50.90814 | 18.99658 | 0° | 0km/h | 159087m | 0m/s | -31.5°C | 0.1% | 1.4hPa | 2.3V | 00:00:00 | 00:00:00 | 00:00:00 | |
| AA1-15 | 2026-09-03 13:01:13 | 50.90814 | 18.99658 | 0° | 0km/h | 159087m | 0m/s | -31.5°C | 0.1% | 1.5hPa | 2.3V | 00:00:00 | 00:00:00 | 00:00:00 | |
| AA1-15 | 2026-09-03 13:01:00 | 50.90814 | 18.99658 | 0° | 0km/h | 159087m | 0m/s | -31.6°C | 0.2% | 1.6hPa | 2.3V | 00:00:00 | 00:00:00 | 00:00:00 | |
| AA1-15 | 2026-09-03 12:59:53 | 50.90814 | 18.99658 | 0° | 0km/h | 159087m | 0m/s | -31.3°C | 0.4% | 2hPa | 2.3V | 00:00:00 | 00:00:00 | 00:00:00 | |
| AA1-15 | 2026-09-03 12:59:42 | 50.90814 | 18.99658 | 0° | 0km/h | 159087m | 0m/s | -31.3°C | 0.4% | 2.1hPa | 2.3V | 00:00:00 | 00:00:00 | 00:00:00 | |
| AA1-15 | 2026-09-03 12:59:29 | 50.90814 | 18.99658 | 0° | 0km/h | 159087m | 0m/s | -31.5°C | 0.5% | 2.1hPa | 2.3V | 00:00:00 | 00:00:00 | 00:00:00 | |
| AA1-15 | 2026-09-03 12:59:18 | 50.90814 | 18.99658 | 0° | 0km/h | 159087m | 0m/s | -31.6°C | 0.5% | 2.2hPa | 2.3V | 00:00:00 | 00:00:00 | 00:00:00 | |
| AA1-15 | 2026-09-03 12:58:53 | 50.90814 | 18.99658 | 0° | 0km/h | 159087m | 0m/s | -31.8°C | 0.5% | 2.3hPa | 2.3V | 00:00:00 | 00:00:00 | 00:00:00 | |
| AA1-15 | 2026-09-03 12:58:43 | 50.90814 | 18.99658 | 0° | 0km/h | 159087m | 0m/s | -32°C | 0.5% | 2.4hPa | 2.3V | 00:00:00 | 00:00:00 | 00:00:00 | |
| AA1-15 | 2026-09-03 12:58:31 | 50.90814 | 18.99658 | 0° | 0km/h | 159087m | 0m/s | -32.4°C | 0.5% | 2.5hPa | 2.3V | 00:00:00 | 00:00:00 | 00:00:00 | |
| AA1-15 | 2026-09-03 12:58:19 | 50.90814 | 18.99658 | 0° | 0km/h | 159087m | 0m/s | -32.5°C | 0.5% | 2.6hPa | 2.3V | 00:00:00 | 00:00:00 | 00:00:00 | |
| AA1-15 | 2026-09-03 12:58:08 | 50.90814 | 18.99658 | 0° | 0km/h | 159087m | 0m/s | -32.7°C | 0.4% | 2.6hPa | 2.3V | 00:00:00 | 00:00:00 | 00:00:00 | |
| AA1-15 | 2026-09-03 12:57:54 | 50.90814 | 18.99658 | 0° | 0km/h | 159087m | 0m/s | -33.1°C | 0.4% | 2.7hPa | 2.3V | 00:00:00 | 00:00:00 | 00:00:00 | |
| AA1-15 | 2026-09-03 12:57:43 | 50.90814 | 18.99658 | 0° | 0km/h | 159087m | 0m/s | -32.9°C | 0.4% | 2.8hPa | 2.3V | 00:00:00 | 00:00:00 | 00:00:00 | |
| AA1-15 | 2026-09-03 12:57:30 | 50.90814 | 18.99658 | 0° | 0km/h | 159087m | 0m/s | -32.9°C | 0.4% | 2.9hPa | 2.3V | 00:00:00 | 00:00:00 | 00:00:00 | |
| AA1-15 | 2026-09-03 12:57:20 | 50.90814 | 18.99658 | 0° | 0km/h | 159087m | 0m/s | -33.2°C | 0.4% | 3hPa | 2.3V | 00:00:00 | 00:00:00 | 00:00:00 | |
| AA1-15 | 2026-09-03 12:57:00 | 50.90814 | 18.99658 | 0° | 0km/h | 159087m | 0m/s | -33.5°C | 0.3% | 3.1hPa | 2.3V | 00:00:00 | 00:00:00 | 00:00:00 | |
| AA1-15 | 2026-09-03 12:56:50 | 50.90814 | 18.99658 | 0° | 0km/h | 159087m | 0m/s | -33.5°C | 0.4% | 3.2hPa | 2.3V | 00:00:00 | 00:00:00 | 00:00:00 | |
| AA1-15 | 2026-09-03 12:56:32 | 50.90814 | 18.99658 | 0° | 0km/h | 159087m | 0m/s | -33.7°C | 0.4% | 3.3hPa | 2.3V | 00:00:00 | 00:00:00 | 00:00:00 | |
| AA1-15 | 2026-09-03 12:56:22 | 50.90814 | 18.99658 | 0° | 0km/h | 159087m | 0m/s | -34.3°C | 0.3% | 3.4hPa | 2.3V | 00:00:00 | 00:00:00 | 00:00:00 | |
| AA1-15 | 2026-09-03 12:56:11 | 50.90814 | 18.99658 | 0° | 0km/h | 159087m | 0m/s | -34.6°C | 0.3% | 3.5hPa | 2.3V | 00:00:00 | 00:00:00 | 00:00:00 | |
| AA1-15 | 2026-09-03 12:56:01 | 50.90814 | 18.99658 | 0° | 0km/h | 159087m | 0m/s | -34.9°C | 0.3% | 3.5hPa | 2.3V | 00:00:00 | 00:00:00 | 00:00:00 | |
| AA1-15 | 2026-09-03 12:55:51 | 50.90814 | 18.99658 | 0° | 0km/h | 159087m | 0m/s | -35.2°C | 0.3% | 3.6hPa | 2.3V | 00:00:00 | 00:00:00 | 00:00:00 | |
| AA1-15 | 2026-09-03 12:55:40 | 50.90814 | 18.99658 | 0° | 0km/h | 159087m | 0m/s | -35.1°C | 0.3% | 3.7hPa | 2.3V | 00:00:00 | 00:00:00 | 00:00:00 | |
| AA1-15 | 2026-09-03 12:55:25 | 50.90814 | 18.99658 | 0° | 0km/h | 159087m | 0m/s | -35°C | 0.3% | 3.8hPa | 2.3V | 00:00:00 | 00:00:00 | 00:00:00 | |
| AA1-15 | 2026-09-03 12:55:13 | 50.90814 | 18.99658 | 0° | 0km/h | 159087m | 0m/s | -35.3°C | 0.3% | 3.9hPa | 2.3V | 00:00:00 | 00:00:00 | 00:00:00 | |
| AA1-15 | 2026-09-03 12:55:04 | 50.90814 | 18.99658 | 0° | 0km/h | 159087m | 0m/s | -35.7°C | 0.3% | 4hPa | 2.3V | 00:00:00 | 00:00:00 | 00:00:00 | |
| AA1-15 | 2026-09-03 12:54:52 | 50.90814 | 18.99658 | 0° | 0km/h | 159087m | 0m/s | -35.9°C | 0.3% | 4.1hPa | 2.3V | 00:00:00 | 00:00:00 | 00:00:00 | |
| AA1-15 | 2026-09-03 12:54:34 | 50.90814 | 18.99658 | 0° | 0km/h | 159087m | 0m/s | -36.8°C | 0.3% | 4.2hPa | 2.3V | 00:00:00 | 00:00:00 | 00:00:00 | |
| AA1-15 | 2026-09-03 12:54:23 | 50.90814 | 18.99658 | 0° | 0km/h | 159087m | 0m/s | -37.1°C | 0.3% | 4.3hPa | 2.3V | 00:00:00 | 00:00:00 | 00:00:00 | |
| AA1-15 | 2026-09-03 12:54:13 | 50.90814 | 18.99658 | 0° | 0km/h | 159087m | 0m/s | -37.3°C | 0.2% | 4.4hPa | 2.3V | 00:00:00 | 00:00:00 | 00:00:00 | |
| AA1-15 | 2026-09-03 12:53:57 | 50.90814 | 18.99658 | 0° | 0km/h | 159087m | 0m/s | -37.4°C | 0.2% | 4.5hPa | 2.3V | 00:00:00 | 00:00:00 | 00:00:00 | |
| AA1-15 | 2026-09-03 12:53:47 | 50.90814 | 18.99658 | 0° | 0km/h | 159087m | 0m/s | -37.7°C | 0.2% | 4.6hPa | 2.3V | 00:00:00 | 00:00:00 | 00:00:00 | |
| AA1-15 | 2026-09-03 12:53:37 | 50.90814 | 18.99658 | 0° | 0km/h | 159087m | 0m/s | -38.1°C | 0.2% | 4.7hPa | 2.3V | 00:00:00 | 00:00:00 | 00:00:00 | |
| AA1-15 | 2026-09-03 12:53:25 | 50.90814 | 18.99658 | 0° | 0km/h | 159087m | 0m/s | -38.3°C | 0.2% | 4.8hPa | 2.3V | 00:00:00 | 00:00:00 | 00:00:00 | |
| AA1-15 | 2026-09-03 12:53:15 | 50.90814 | 18.99658 | 0° | 0km/h | 159087m | 0m/s | -38.4°C | 0.2% | 4.9hPa | 2.3V | 00:00:00 | 00:00:00 | 00:00:00 | |
| AA1-15 | 2026-09-03 12:53:04 | 50.90814 | 18.99658 | 0° | 0km/h | 159087m | 0m/s | -38.3°C | 0.2% | 5hPa | 2.3V | 00:00:00 | 00:00:00 | 00:00:00 | |
| AA1-15 | 2026-09-03 12:52:54 | 50.90814 | 18.99658 | 0° | 0km/h | 159087m | 0m/s | -38.2°C | 0.2% | 5.1hPa | 2.3V | 00:00:00 | 00:00:00 | 00:00:00 | |
| AA1-15 | 2026-09-03 12:52:41 | 50.90814 | 18.99658 | 0° | 0km/h | 159087m | 0m/s | -38.2°C | 0.2% | 5.2hPa | 2.3V | 00:00:00 | 00:00:00 | 00:00:00 | |
| AA1-15 | 2026-09-03 12:52:29 | 50.90814 | 18.99658 | 0° | 0km/h | 159087m | 0m/s | -38.2°C | 0.1% | 5.3hPa | 2.3V | 00:00:00 | 00:00:00 | 00:00:00 | |
| AA1-15 | 2026-09-03 12:52:17 | 50.90814 | 18.99658 | 0° | 0km/h | 159087m | 0m/s | -38.4°C | 0.2% | 5.4hPa | 2.3V | 00:00:00 | 00:00:00 | 00:00:00 | |
| AA1-15 | 2026-09-03 12:52:06 | 50.90814 | 18.99658 | 0° | 0km/h | 159087m | 0m/s | -38.4°C | 0.2% | 5.5hPa | 2.3V | 00:00:00 | 00:00:00 | 00:00:00 | |
| AA1-15 | 2026-09-03 12:51:56 | 50.90814 | 18.99658 | 0° | 0km/h | 159087m | 0m/s | -38.5°C | 0.1% | 5.6hPa | 2.3V | 00:00:00 | 00:00:00 | 00:00:00 | |
| AA1-15 | 2026-09-03 12:51:42 | 50.90814 | 18.99658 | 0° | 0km/h | 159087m | 0m/s | -38.8°C | 0.1% | 5.8hPa | 2.3V | 00:00:00 | 00:00:00 | 00:00:00 | |
| AA1-15 | 2026-09-03 12:51:25 | 50.90814 | 18.99658 | 0° | 0km/h | 159087m | 0m/s | -38.9°C | 0.1% | 5.9hPa | 2.3V | 00:00:00 | 00:00:00 | 00:00:00 | |
| AA1-15 | 2026-09-03 12:51:12 | 50.90814 | 18.99658 | 0° | 0km/h | 159087m | 0m/s | -39°C | 0.1% | 6.1hPa | 2.3V | 00:00:00 | 00:00:00 | 00:00:00 | |
| AA1-15 | 2026-09-03 12:50:13 | 50.90814 | 18.99658 | 0° | 0km/h | 159087m | 0m/s | -40.9°C | 0% | 6.7hPa | 2.3V | 00:00:00 | 00:00:00 | 00:00:00 | |
| AA1-15 | 2026-09-03 12:50:02 | 50.90814 | 18.99658 | 0° | 0km/h | 159087m | 0m/s | -41.5°C | 0% | 6.8hPa | 2.3V | 00:00:00 | 00:00:00 | 00:00:00 | |
| AA1-15 | 2026-09-03 12:49:49 | 50.90814 | 18.99658 | 0° | 0km/h | 159087m | 0m/s | -41.8°C | 0% | 6.9hPa | 2.3V | 00:00:00 | 00:00:00 | 00:00:00 | |
| SQ6EMJ | 2026-09-03 12:38:42 | 50.88346 | 17.67379 | 27° | 126km/h | 26783m | -7.5m/s | 0°C | 0% | 0hPa | 0V | 00:00:00 | 00:00:00 | 00:00:00 | |
| SQ6EMJ | 2026-09-03 12:38:37 | 50.88280 | 17.67514 | 66° | 26km/h | 26808m | 5.3m/s | 0°C | 0% | 0hPa | 0V | 00:00:00 | 00:00:00 | 00:00:00 | |
| SQ6EMJ | 2026-09-03 12:38:30 | 50.88265 | 17.67455 | 57° | 20km/h | 26757m | 7.6m/s | 0°C | 0% | 0hPa | 0V | 00:00:00 | 00:00:00 | 00:00:00 | |
| PG1ADW-2 | 2026-09-03 12:38:29 | 50.88261 | 17.67447 | 52° | 18km/h | 26751m | 5.1m/s | 0°C | 0% | 0hPa | 0V | 00:00:00 | 00:00:00 | 00:00:00 | |
| SQ6EMJ | 2026-09-03 12:38:25 | 50.88256 | 17.67425 | 135° | 16km/h | 26728m | 6.3m/s | 0°C | 0% | 0hPa | 0V | 00:00:00 | 00:00:00 | 00:00:00 | |
| PETON7-10 | 2026-09-03 12:38:23 | 50.88260 | 17.67414 | 93° | 15km/h | 26713m | 9.5m/s | 0°C | 0% | 0hPa | 0V | 00:00:00 | 00:00:00 | 00:00:00 | |
| SQ6EMJ | 2026-09-03 12:38:20 | 50.88252 | 17.67388 | 85° | 16km/h | 26689m | 9.0m/s | 0°C | 0% | 0hPa | 0V | 00:00:00 | 00:00:00 | 00:00:00 | |
| POL1PZ | 2026-09-03 12:38:14 | 50.88260 | 17.67364 | 94° | 15km/h | 26658m | 4.7m/s | 0°C | 0% | 0hPa | 0V | 00:00:00 | 00:00:00 | 00:00:00 | |
| PG1ADW-2 | 2026-09-03 12:38:09 | 50.88266 | 17.67339 | 59° | 11km/h | 26627m | 9.4m/s | 0°C | 0% | 0hPa | 0V | 00:00:00 | 00:00:00 | 00:00:00 | |
| PETON7-10 | 2026-09-03 12:38:08 | 50.88264 | 17.67335 | 43° | 11km/h | 26619m | 4.6m/s | 0°C | 0% | 0hPa | 0V | 00:00:00 | 00:00:00 | 00:00:00 | |
| SQ6EMJ | 2026-09-03 12:38:03 | 50.88268 | 17.67313 | 110° | 11km/h | 26590m | 8.8m/s | 0°C | 0% | 0hPa | 0V | 00:00:00 | 00:00:00 | 00:00:00 | |
| SQ6EMJ | 2026-09-03 12:37:58 | 50.88273 | 17.67291 | 138° | 11km/h | 26560m | 5.1m/s | 0°C | 0% | 0hPa | 0V | 00:00:00 | 00:00:00 | 00:00:00 | |
| PETON7-10 | 2026-09-03 12:37:53 | 50.88276 | 17.67280 | 116° | 13km/h | 26526m | 6.3m/s | 0°C | 0% | 0hPa | 0V | 00:00:00 | 00:00:00 | 00:00:00 | |
| SQ6EMJ | 2026-09-03 12:37:51 | 50.88278 | 17.67267 | 86° | 16km/h | 26515m | 7.2m/s | 0°C | 0% | 0hPa | 0V | 00:00:00 | 00:00:00 | 00:00:00 | |
| SQ6EMJ | 2026-09-03 12:37:45 | 50.88281 | 17.67247 | 156° | 13km/h | 26477m | 6.7m/s | 0°C | 0% | 0hPa | 0V | 00:00:00 | 00:00:00 | 00:00:00 | |
| PG1ADW-2 | 2026-09-03 12:37:44 | 50.88283 | 17.67245 | 147° | 13km/h | 26470m | 7.7m/s | 0°C | 0% | 0hPa | 0V | 00:00:00 | 00:00:00 | 00:00:00 | |
| SQ6EMJ | 2026-09-03 12:37:39 | 50.88292 | 17.67221 | 111° | 15km/h | 26439m | 8.1m/s | 0°C | 0% | 0hPa | 0V | 00:00:00 | 00:00:00 | 00:00:00 | |
| PETON7-10 | 2026-09-03 12:37:38 | 50.88292 | 17.67216 | 85° | 16km/h | 26431m | 7.6m/s | 0°C | 0% | 0hPa | 0V | 00:00:00 | 00:00:00 | 00:00:00 | |
| POL1PZ | 2026-09-03 12:37:34 | 50.88295 | 17.67194 | 137° | 20km/h | 26407m | 5.2m/s | 0°C | 0% | 0hPa | 0V | 00:00:00 | 00:00:00 | 00:00:00 | |
| SQ6EMJ | 2026-09-03 12:37:33 | 50.88298 | 17.67189 | 147° | 16km/h | 26402m | 6.4m/s | 0°C | 0% | 0hPa | 0V | 00:00:00 | 00:00:00 | 00:00:00 | |
| SQ6EMJ | 2026-09-03 12:37:27 | 50.88316 | 17.67162 | 113° | 24km/h | 26364m | 5.9m/s | 0°C | 0% | 0hPa | 0V | 00:00:00 | 00:00:00 | 00:00:00 | |
| SP3BTT-10 | 2026-09-03 12:37:26 | 50.88318 | 17.67154 | 101° | 11km/h | 26358m | 8.5m/s | 0°C | 0% | 0hPa | 0V | 00:00:00 | 00:00:00 | 00:00:00 | |
| PETON7-10 | 2026-09-03 12:37:22 | 50.88323 | 17.67127 | 125° | 20km/h | 26332m | 5.8m/s | 0°C | 0% | 0hPa | 0V | 00:00:00 | 00:00:00 | 00:00:00 | |
| SQ6EMJ | 2026-09-03 12:37:21 | 50.88326 | 17.67121 | 133° | 18km/h | 26327m | 4.4m/s | 0°C | 0% | 0hPa | 0V | 00:00:00 | 00:00:00 | 00:00:00 | |
| PG1ADW-2 | 2026-09-03 12:37:19 | 50.88330 | 17.67114 | 135° | 20km/h | 26315m | 6.3m/s | 0°C | 0% | 0hPa | 0V | 00:00:00 | 00:00:00 | 00:00:00 | |
| SQ6EMJ | 2026-09-03 12:37:15 | 50.88334 | 17.67087 | 100° | 29km/h | 26291m | 5.4m/s | 0°C | 0% | 0hPa | 0V | 00:00:00 | 00:00:00 | 00:00:00 | |
| SQ6EMJ | 2026-09-03 12:37:09 | 50.88336 | 17.67038 | 113° | 18km/h | 26253m | 6.3m/s | 0°C | 0% | 0hPa | 0V | 00:00:00 | 00:00:00 | 00:00:00 | |
| PETON7-10 | 2026-09-03 12:37:07 | 50.88336 | 17.67027 | 62° | 24km/h | 26240m | 6.4m/s | 0°C | 0% | 0hPa | 0V | 00:00:00 | 00:00:00 | 00:00:00 | |
| SQ6EMJ | 2026-09-03 12:37:04 | 50.88329 | 17.67001 | 83° | 31km/h | 26222m | 7.3m/s | 0°C | 0% | 0hPa | 0V | 00:00:00 | 00:00:00 | 00:00:00 | |
| PG1ADW-2 | 2026-09-03 12:36:59 | 50.88328 | 17.66956 | 80° | 22km/h | 26195m | 4.3m/s | 0°C | 0% | 0hPa | 0V | 00:00:00 | 00:00:00 | 00:00:00 | |
| SQ6EMJ | 2026-09-03 12:36:58 | 50.88328 | 17.66951 | 92° | 16km/h | 26190m | 6.9m/s | 0°C | 0% | 0hPa | 0V | 00:00:00 | 00:00:00 | 00:00:00 | |
| SQ6EMJ | 2026-09-03 12:36:52 | 50.88318 | 17.66888 | 66° | 24km/h | 26153m | 4.3m/s | 0°C | 0% | 0hPa | 0V | 00:00:00 | 00:00:00 | 00:00:00 | |
| PETON7-10 | 2026-09-03 12:36:51 | 50.88316 | 17.66879 | 85° | 16km/h | 26147m | 7.9m/s | 0°C | 0% | 0hPa | 0V | 00:00:00 | 00:00:00 | 00:00:00 | |
| SQ6EMJ | 2026-09-03 12:36:47 | 50.88319 | 17.66849 | 70° | 16km/h | 26122m | 6.6m/s | 0°C | 0% | 0hPa | 0V | 00:00:00 | 00:00:00 | 00:00:00 | |
| POL1PZ | 2026-09-03 12:36:46 | 50.88317 | 17.66842 | 67° | 20km/h | 26116m | 4.2m/s | 0°C | 0% | 0hPa | 0V | 00:00:00 | 00:00:00 | 00:00:00 | |
| SQ6EMJ | 2026-09-03 12:36:41 | 50.88308 | 17.66791 | 65° | 18km/h | 26084m | 7.2m/s | 0°C | 0% | 0hPa | 0V | 00:00:00 | 00:00:00 | 00:00:00 | |
| PG1ADW-2 | 2026-09-03 12:36:38 | 50.88307 | 17.66778 | 126° | 11km/h | 26067m | 5.5m/s | 0°C | 0% | 0hPa | 0V | 00:00:00 | 00:00:00 | 00:00:00 | |
| PETON7-10 | 2026-09-03 12:36:35 | 50.88309 | 17.66766 | 67° | 15km/h | 26051m | 6.6m/s | 0°C | 0% | 0hPa | 0V | 00:00:00 | 00:00:00 | 00:00:00 | |
| SQ6EMJ | 2026-09-03 12:36:29 | 50.88297 | 17.66732 | 49° | 16km/h | 26015m | 6.7m/s | 0°C | 0% | 0hPa | 0V | 00:00:00 | 00:00:00 | 00:00:00 | |
| POL1PZ | 2026-09-03 12:36:24 | 50.88283 | 17.66706 | 87° | 18km/h | 25985m | 5.4m/s | 0°C | 0% | 0hPa | 0V | 00:00:00 | 00:00:00 | 00:00:00 | |
| PETON7-10 | 2026-09-03 12:36:20 | 50.88280 | 17.66692 | 27° | 7km/h | 25960m | 6.3m/s | 0°C | 0% | 0hPa | 0V | 00:00:00 | 00:00:00 | 00:00:00 | |
| SQ6EMJ | 2026-09-03 12:36:17 | 50.88277 | 17.66688 | 39° | 9km/h | 25943m | 5.7m/s | 0°C | 0% | 0hPa | 0V | 00:00:00 | 00:00:00 | 00:00:00 | |
| SP3BTT-10 | 2026-09-03 12:36:11 | 50.88270 | 17.66675 | 152° | 15km/h | 25907m | 3.9m/s | 0°C | 0% | 0hPa | 0V | 00:00:00 | 00:00:00 | 00:00:00 | |
| PETON7-10 | 2026-09-03 12:36:05 | 50.88269 | 17.66678 | 81° | 9km/h | 25870m | 5.0m/s | 0°C | 0% | 0hPa | 0V | 00:00:00 | 00:00:00 | 00:00:00 | |
| SQ6EMJ | 2026-09-03 12:36:00 | 50.88267 | 17.66675 | 172° | 11km/h | 25839m | 6.0m/s | 0°C | 0% | 0hPa | 0V | 00:00:00 | 00:00:00 | 00:00:00 | |
| POL1PZ | 2026-09-03 12:35:59 | 50.88269 | 17.66675 | 189° | 9km/h | 25834m | 3.4m/s | 0°C | 0% | 0hPa | 0V | 00:00:00 | 00:00:00 | 00:00:00 | |
| PG1ADW-2 | 2026-09-03 12:35:58 | 50.88271 | 17.66676 | 219° | 15km/h | 25829m | 6.1m/s | 0°C | 0% | 0hPa | 0V | 00:00:00 | 00:00:00 | 00:00:00 | |
| OE5DRO-10 | 2026-09-03 12:35:55 | 50.88278 | 17.66689 | 127° | 15km/h | 25794m | 6.3m/s | 0°C | 0% | 0hPa | 0V | 00:00:00 | 00:00:00 | 00:00:00 | |
| PETON7-10 | 2026-09-03 12:35:49 | 50.88280 | 17.66675 | 110° | 11km/h | 25776m | 5.5m/s | 0°C | 0% | 0hPa | 0V | 00:00:00 | 00:00:00 | 00:00:00 | |
| SQ6EMJ | 2026-09-03 12:35:48 | 50.88282 | 17.66669 | 134° | 16km/h | 25769m | 6.8m/s | 0°C | 0% | 0hPa | 0V | 00:00:00 | 00:00:00 | 00:00:00 | |
| SQ6EMJ | 2026-09-03 12:35:43 | 50.88292 | 17.66664 | 74° | 9km/h | 25741m | 5.3m/s | 0°C | 0% | 0hPa | 0V | 00:00:00 | 00:00:00 | 00:00:00 | |
| SQ6EMJ | 2026-09-03 12:35:37 | 50.88306 | 17.66638 | 167° | 5km/h | 25706m | 5.8m/s | 0°C | 0% | 0hPa | 0V | 00:00:00 | 00:00:00 | 00:00:00 | |
| PETON7-10 | 2026-09-03 12:35:34 | 50.88310 | 17.66636 | 139° | 22km/h | 25689m | 5.2m/s | 0°C | 0% | 0hPa | 0V | 00:00:00 | 00:00:00 | 00:00:00 | |
| SQ6EMJ | 2026-09-03 12:35:31 | 50.88315 | 17.66614 | 92° | 24km/h | 25671m | 6.2m/s | 0°C | 0% | 0hPa | 0V | 00:00:00 | 00:00:00 | 00:00:00 | |
| POL1PZ | 2026-09-03 12:35:30 | 50.88315 | 17.66603 | 92° | 26km/h | 25667m | 4.8m/s | 0°C | 0% | 0hPa | 0V | 00:00:00 | 00:00:00 | 00:00:00 | |
| PG1ADW-2 | 2026-09-03 12:35:27 | 50.88322 | 17.66579 | 149° | 20km/h | 25649m | 5.5m/s | 0°C | 0% | 0hPa | 0V | 00:00:00 | 00:00:00 | 00:00:00 | |
| SQ6EMJ | 2026-09-03 12:35:25 | 50.88328 | 17.66574 | 154° | 5km/h | 25639m | 6.6m/s | 0°C | 0% | 0hPa | 0V | 00:00:00 | 00:00:00 | 00:00:00 | |
| OE5DRO-10 | 2026-09-03 12:35:24 | 50.88324 | 17.66556 | 85° | 22km/h | 25623m | 6.0m/s | 0°C | 0% | 0hPa | 0V | 00:00:00 | 00:00:00 | 00:00:00 | |
| PETON7-10 | 2026-09-03 12:35:19 | 50.88328 | 17.66515 | 104° | 24km/h | 25606m | 5.1m/s | 0°C | 0% | 0hPa | 0V | 00:00:00 | 00:00:00 | 00:00:00 | |
| SQ6EMJ | 2026-09-03 12:35:14 | 50.88323 | 17.66464 | 84° | 22km/h | 25576m | 6.8m/s | 0°C | 0% | 0hPa | 0V | 00:00:00 | 00:00:00 | 00:00:00 | |
| POL1PZ | 2026-09-03 12:35:09 | 50.88317 | 17.66424 | 73° | 20km/h | 25548m | 4.6m/s | 0°C | 0% | 0hPa | 0V | 00:00:00 | 00:00:00 | 00:00:00 | |
| PETON7-10 | 2026-09-03 12:35:04 | 50.88312 | 17.66382 | 44° | 16km/h | 25517m | 7.0m/s | 0°C | 0% | 0hPa | 0V | 00:00:00 | 00:00:00 | 00:00:00 | |
| SQ6EMJ | 2026-09-03 12:35:03 | 50.88309 | 17.66376 | 49° | 20km/h | 25513m | 4.1m/s | 0°C | 0% | 0hPa | 0V | 00:00:00 | 00:00:00 | 00:00:00 | |
| SQ6EMJ | 2026-09-03 12:34:58 | 50.88306 | 17.66349 | 58° | 11km/h | 25483m | 7.0m/s | 0°C | 0% | 0hPa | 0V | 00:00:00 | 00:00:00 | 00:00:00 | |
| SP3BTT-10 | 2026-09-03 12:34:55 | 50.88303 | 17.66335 | 64° | 15km/h | 25464m | 5.1m/s | 0°C | 0% | 0hPa | 0V | 00:00:00 | 00:00:00 | 00:00:00 | |
| SQ6EMJ | 2026-09-03 12:34:52 | 50.88295 | 17.66318 | 24° | 16km/h | 25449m | 5.9m/s | 0°C | 0% | 0hPa | 0V | 00:00:00 | 00:00:00 | 00:00:00 | |
| PETON7-10 | 2026-09-03 12:34:49 | 50.88287 | 17.66313 | 86° | 13km/h | 25432m | 6.7m/s | 0°C | 0% | 0hPa | 0V | 00:00:00 | 00:00:00 | 00:00:00 | |
| POL1PZ | 2026-09-03 12:34:48 | 50.88287 | 17.66310 | 84° | 9km/h | 25426m | 4.6m/s | 0°C | 0% | 0hPa | 0V | 00:00:00 | 00:00:00 | 00:00:00 | |
| SQ6EMJ | 2026-09-03 12:34:44 | 50.88277 | 17.66288 | 53° | 22km/h | 25405m | 4.8m/s | 0°C | 0% | 0hPa | 0V | 00:00:00 | 00:00:00 | 00:00:00 | |
| PG1ADW-2 | 2026-09-03 12:34:38 | 50.88262 | 17.66256 | 5° | 9km/h | 25371m | 4.9m/s | 0°C | 0% | 0hPa | 0V | 00:00:00 | 00:00:00 | 00:00:00 | |
| PETON7-10 | 2026-09-03 12:34:34 | 50.88259 | 17.66256 | 29° | 9km/h | 25347m | 6.4m/s | 0°C | 0% | 0hPa | 0V | 00:00:00 | 00:00:00 | 00:00:00 | |
| SQ6EMJ | 2026-09-03 12:34:33 | 50.88257 | 17.66254 | 27° | 15km/h | 25340m | 7.4m/s | 0°C | 0% | 0hPa | 0V | 00:00:00 | 00:00:00 | 00:00:00 | |
| SQ6EMJ | 2026-09-03 12:34:28 | 50.88245 | 17.66244 | 256° | 5km/h | 25312m | 5.0m/s | 0°C | 0% | 0hPa | 0V | 00:00:00 | 00:00:00 | 00:00:00 | |
| POL1PZ | 2026-09-03 12:34:26 | 50.88243 | 17.66250 | 318° | 11km/h | 25301m | 5.7m/s | 0°C | 0% | 0hPa | 0V | 00:00:00 | 00:00:00 | 00:00:00 | |
| SQ6EMJ | 2026-09-03 12:34:22 | 50.88237 | 17.66244 | 74° | 13km/h | 25277m | 5.3m/s | 0°C | 0% | 0hPa | 0V | 00:00:00 | 00:00:00 | 00:00:00 | |
| PETON7-10 | 2026-09-03 12:34:19 | 50.88232 | 17.66243 | 295° | 13km/h | 25259m | 4.0m/s | 0°C | 0% | 0hPa | 0V | 00:00:00 | 00:00:00 | 00:00:00 | |
| PG1ADW-2 | 2026-09-03 12:34:17 | 50.88233 | 17.66253 | 232° | 11km/h | 25247m | 7.3m/s | 0°C | 0% | 0hPa | 0V | 00:00:00 | 00:00:00 | 00:00:00 | |
| SQ6EMJ | 2026-09-03 12:34:16 | 50.88236 | 17.66258 | 221° | 18km/h | 25241m | 5.8m/s | 0°C | 0% | 0hPa | 0V | 00:00:00 | 00:00:00 | 00:00:00 | |
| SQ6EMJ | 2026-09-03 12:34:10 | 50.88238 | 17.66265 | 88° | 7km/h | 25207m | 4.2m/s | 0°C | 0% | 0hPa | 0V | 00:00:00 | 00:00:00 | 00:00:00 | |
| POL1PZ | 2026-09-03 12:34:06 | 50.88239 | 17.66270 | 249° | 18km/h | 25186m | 4.4m/s | 0°C | 0% | 0hPa | 0V | 00:00:00 | 00:00:00 | 00:00:00 | |
| SQ6EMJ | 2026-09-03 12:34:05 | 50.88241 | 17.66277 | 232° | 22km/h | 25181m | 6.8m/s | 0°C | 0% | 0hPa | 0V | 00:00:00 | 00:00:00 | 00:00:00 | |
| PETON7-10 | 2026-09-03 12:34:03 | 50.88250 | 17.66286 | 205° | 15km/h | 25168m | 4.8m/s | 0°C | 0% | 0hPa | 0V | 00:00:00 | 00:00:00 | 00:00:00 | |
| SP3BTT-10 | 2026-09-03 12:33:55 | 50.88267 | 17.66301 | 243° | 22km/h | 25120m | 6.5m/s | 0°C | 0% | 0hPa | 0V | 00:00:00 | 00:00:00 | 00:00:00 | |
| PG1ADW-2 | 2026-09-03 12:33:54 | 50.88270 | 17.66308 | 240° | 16km/h | 25116m | 4.3m/s | 0°C | 0% | 0hPa | 0V | 00:00:00 | 00:00:00 | 00:00:00 | |
| SQ6EMJ | 2026-09-03 12:33:52 | 50.88277 | 17.66320 | 201° | 18km/h | 25109m | 6.3m/s | 0°C | 0% | 0hPa | 0V | 00:00:00 | 00:00:00 | 00:00:00 | |
| PETON7-10 | 2026-09-03 12:33:48 | 50.88291 | 17.66316 | 209° | 13km/h | 25084m | 6.2m/s | 0°C | 0% | 0hPa | 0V | 00:00:00 | 00:00:00 | 00:00:00 | |
| SQ6EMJ | 2026-09-03 12:33:46 | 50.88294 | 17.66320 | 206° | 11km/h | 25073m | 6.5m/s | 0°C | 0% | 0hPa | 0V | 00:00:00 | 00:00:00 | 00:00:00 | |
| POL1PZ | 2026-09-03 12:33:43 | 50.88307 | 17.66319 | 164° | 15km/h | 25055m | 5.7m/s | 0°C | 0% | 0hPa | 0V | 00:00:00 | 00:00:00 | 00:00:00 | |
| SQ6EMJ | 2026-09-03 12:33:40 | 50.88314 | 17.66315 | 151° | 11km/h | 25039m | 4.2m/s | 0°C | 0% | 0hPa | 0V | 00:00:00 | 00:00:00 | 00:00:00 | |
| PG1ADW-2 | 2026-09-03 12:33:34 | 50.88334 | 17.66301 | 117° | 20km/h | 25002m | 7.2m/s | 0°C | 0% | 0hPa | 0V | 00:00:00 | 00:00:00 | 00:00:00 | |
| PETON7-10 | 2026-09-03 12:33:33 | 50.88335 | 17.66299 | 141° | 16km/h | 24996m | 5.5m/s | 0°C | 0% | 0hPa | 0V | 00:00:00 | 00:00:00 | 00:00:00 | |
| POL1PZ | 2026-09-03 12:33:22 | 50.88357 | 17.66240 | 73° | 18km/h | 24927m | 5.6m/s | 0°C | 0% | 0hPa | 0V | 00:00:00 | 00:00:00 | 00:00:00 | |
| PETON7-10 | 2026-09-03 12:33:18 | 50.88356 | 17.66209 | 98° | 20km/h | 24906m | 4.4m/s | 0°C | 0% | 0hPa | 0V | 00:00:00 | 00:00:00 | 00:00:00 | |
| SP3BTT-10 | 2026-09-03 12:33:09 | 50.88346 | 17.66134 | 53° | 13km/h | 24855m | 4.4m/s | 0°C | 0% | 0hPa | 0V | 00:00:00 | 00:00:00 | 00:00:00 | |
| PETON7-10 | 2026-09-03 12:33:02 | 50.88325 | 17.66090 | 61° | 16km/h | 24815m | 7.2m/s | 0°C | 0% | 0hPa | 0V | 00:00:00 | 00:00:00 | 00:00:00 | |
| PG1ADW-2 | 2026-09-03 12:32:55 | 50.88303 | 17.66040 | 72° | 11km/h | 24774m | 6.9m/s | 0°C | 0% | 0hPa | 0V | 00:00:00 | 00:00:00 | 00:00:00 | |
| PETON7-10 | 2026-09-03 12:32:47 | 50.88288 | 17.66014 | 66° | 11km/h | 24727m | 6.1m/s | 0°C | 0% | 0hPa | 0V | 00:00:00 | 00:00:00 | 00:00:00 | |
| POL1PZ | 2026-09-03 12:32:41 | 50.88276 | 17.66006 | 358° | 11km/h | 24691m | 5.3m/s | 0°C | 0% | 0hPa | 0V | 00:00:00 | 00:00:00 | 00:00:00 | |
| PETON7-10 | 2026-09-03 12:32:32 | 50.88258 | 17.66002 | 269° | 11km/h | 24639m | 6.2m/s | 0°C | 0% | 0hPa | 0V | 00:00:00 | 00:00:00 | 00:00:00 | |
| SQ6EMJ | 2026-09-03 12:32:27 | 50.88253 | 17.66004 | 26° | 16km/h | 24608m | 5.7m/s | 0°C | 0% | 0hPa | 0V | 00:00:00 | 00:00:00 | 00:00:00 | |
| PG1ADW-2 | 2026-09-03 12:32:26 | 50.88267 | 17.66001 | 40° | 13km/h | 24603m | 6.5m/s | 0°C | 0% | 0hPa | 0V | 00:00:00 | 00:00:00 | 00:00:00 | |
| POL1PZ | 2026-09-03 12:32:20 | 50.88248 | 17.66019 | 288° | 18km/h | 24570m | 3.5m/s | 0°C | 0% | 0hPa | 0V | 00:00:00 | 00:00:00 | 00:00:00 | |
| SQ6EMJ | 2026-09-03 12:32:19 | 50.88248 | 17.66025 | 265° | 9km/h | 24565m | 6.6m/s | 0°C | 0% | 0hPa | 0V | 00:00:00 | 00:00:00 | 00:00:00 | |
| PETON7-10 | 2026-09-03 12:32:17 | 50.88248 | 17.66024 | 62° | 11km/h | 24554m | 5.9m/s | 0°C | 0% | 0hPa | 0V | 00:00:00 | 00:00:00 | 00:00:00 | |
| SP3BTT-10 | 2026-09-03 12:32:09 | 50.88242 | 17.66049 | 304° | 15km/h | 24508m | 7.0m/s | 0°C | 0% | 0hPa | 0V | 00:00:00 | 00:00:00 | 00:00:00 | |
| PG1ADW-2 | 2026-09-03 12:32:05 | 50.88231 | 17.66058 | 303° | 13km/h | 24484m | 5.0m/s | 0°C | 0% | 0hPa | 0V | 00:00:00 | 00:00:00 | 00:00:00 | |
| SQ6EMJ | 2026-09-03 12:32:03 | 50.88230 | 17.66065 | 272° | 15km/h | 24472m | 7.3m/s | 0°C | 0% | 0hPa | 0V | 00:00:00 | 00:00:00 | 00:00:00 | |
| PETON7-10 | 2026-09-03 12:32:02 | 50.88230 | 17.66072 | 270° | 16km/h | 24465m | 6.0m/s | 0°C | 0% | 0hPa | 0V | 00:00:00 | 00:00:00 | 00:00:00 | |
| POL1PZ | 2026-09-03 12:32:00 | 50.88232 | 17.66090 | 251° | 22km/h | 24453m | 6.8m/s | 0°C | 0% | 0hPa | 0V | 00:00:00 | 00:00:00 | 00:00:00 | |
| SQ6EMJ | 2026-09-03 12:31:57 | 50.88233 | 17.66107 | 300° | 13km/h | 24438m | 6.4m/s | 0°C | 0% | 0hPa | 0V | 00:00:00 | 00:00:00 | 00:00:00 | |
| PETON7-10 | 2026-09-03 12:31:47 | 50.88238 | 17.66152 | 351° | 11km/h | 24382m | 4.1m/s | 0°C | 0% | 0hPa | 0V | 00:00:00 | 00:00:00 | 00:00:00 | |
| PG1ADW-2 | 2026-09-03 12:31:45 | 50.88234 | 17.66151 | 4° | 13km/h | 24370m | 5.4m/s | 0°C | 0% | 0hPa | 0V | 00:00:00 | 00:00:00 | 00:00:00 | |
| SQ6EMJ | 2026-09-03 12:31:44 | 50.88232 | 17.66151 | 359° | 5km/h | 24365m | 4.5m/s | 0°C | 0% | 0hPa | 0V | 00:00:00 | 00:00:00 | 00:00:00 | |
| POL1PZ | 2026-09-03 12:31:37 | 50.88245 | 17.66192 | 263° | 13km/h | 24324m | 6.2m/s | 0°C | 0% | 0hPa | 0V | 00:00:00 | 00:00:00 | 00:00:00 | |
| PETON7-10 | 2026-09-03 12:31:32 | 50.88245 | 17.66203 | 253° | 15km/h | 24298m | 4.4m/s | 0°C | 0% | 0hPa | 0V | 00:00:00 | 00:00:00 | 00:00:00 | |
| SQ6EMJ | 2026-09-03 12:31:27 | 50.88258 | 17.66229 | 290° | 16km/h | 24269m | 4.6m/s | 0°C | 0% | 0hPa | 0V | 00:00:00 | 00:00:00 | 00:00:00 | |
| PG1ADW-2 | 2026-09-03 12:31:25 | 50.88254 | 17.66233 | 14° | 11km/h | 24258m | 7.7m/s | 0°C | 0% | 0hPa | 0V | 00:00:00 | 00:00:00 | 00:00:00 | |
| SQ6EMJ | 2026-09-03 12:31:20 | 50.88252 | 17.66237 | 246° | 20km/h | 24231m | 5.6m/s | 0°C | 0% | 0hPa | 0V | 00:00:00 | 00:00:00 | 00:00:00 | |
| PETON7-10 | 2026-09-03 12:31:16 | 50.88267 | 17.66266 | 253° | 13km/h | 24208m | 5.6m/s | 0°C | 0% | 0hPa | 0V | 00:00:00 | 00:00:00 | 00:00:00 | |
| SQ6EMJ | 2026-09-03 12:31:15 | 50.88265 | 17.66275 | 334° | 7km/h | 24198m | 4.8m/s | 0°C | 0% | 0hPa | 0V | 00:00:00 | 00:00:00 | 00:00:00 | |
| PG1ADW-2 | 2026-09-03 12:31:04 | 50.88277 | 17.66313 | 269° | 16km/h | 24142m | 6.4m/s | 0°C | 0% | 0hPa | 0V | 00:00:00 | 00:00:00 | 00:00:00 | |
| PETON7-10 | 2026-09-03 12:31:01 | 50.88281 | 17.66323 | 177° | 18km/h | 24126m | 7.2m/s | 0°C | 0% | 0hPa | 0V | 00:00:00 | 00:00:00 | 00:00:00 | |
| POL1PZ | 2026-09-03 12:30:52 | 50.88306 | 17.66366 | 201° | 18km/h | 24075m | 5.6m/s | 0°C | 0% | 0hPa | 0V | 00:00:00 | 00:00:00 | 00:00:00 | |
| SQ6EMJ | 2026-09-03 12:30:51 | 50.88310 | 17.66369 | 202° | 24km/h | 24069m | 5.2m/s | 0°C | 0% | 0hPa | 0V | 00:00:00 | 00:00:00 | 00:00:00 | |
| PETON7-10 | 2026-09-03 12:30:45 | 50.88335 | 17.66382 | 229° | 18km/h | 24039m | 6.8m/s | 0°C | 0% | 0hPa | 0V | 00:00:00 | 00:00:00 | 00:00:00 | |
| SP3BTT-10 | 2026-09-03 12:30:38 | 50.88352 | 17.66402 | 197° | 15km/h | 24002m | 6.5m/s | 0°C | 0% | 0hPa | 0V | 00:00:00 | 00:00:00 | 00:00:00 | |
| SQ6EMJ | 2026-09-03 12:30:37 | 50.88362 | 17.66410 | 215° | 26km/h | 23991m | 5.0m/s | 0°C | 0% | 0hPa | 0V | 00:00:00 | 00:00:00 | 00:00:00 | |
| POL1PZ | 2026-09-03 12:30:31 | 50.88385 | 17.66412 | 165° | 13km/h | 23965m | 6.3m/s | 0°C | 0% | 0hPa | 0V | 00:00:00 | 00:00:00 | 00:00:00 | |
| PETON7-10 | 2026-09-03 12:30:30 | 50.88388 | 17.66412 | 214° | 9km/h | 23959m | 6.4m/s | 0°C | 0% | 0hPa | 0V | 00:00:00 | 00:00:00 | 00:00:00 | |
| SQ6EMJ | 2026-09-03 12:30:28 | 50.88391 | 17.66416 | 215° | 7km/h | 23948m | 6.1m/s | 0°C | 0% | 0hPa | 0V | 00:00:00 | 00:00:00 | 00:00:00 | |
| PG1ADW-2 | 2026-09-03 12:30:24 | 50.88394 | 17.66417 | 246° | 9km/h | 23926m | 6.5m/s | 0°C | 0% | 0hPa | 0V | 00:00:00 | 00:00:00 | 00:00:00 | |
| PETON7-10 | 2026-09-03 12:30:15 | 50.88407 | 17.66413 | 320° | 11km/h | 23879m | 5.2m/s | 0°C | 0% | 0hPa | 0V | 00:00:00 | 00:00:00 | 00:00:00 | |
| POL1PZ | 2026-09-03 12:30:08 | 50.88412 | 17.66400 | 169° | 5km/h | 23839m | 6.8m/s | 0°C | 0% | 0hPa | 0V | 00:00:00 | 00:00:00 | 00:00:00 | |
| PG1ADW-2 | 2026-09-03 12:30:04 | 50.88403 | 17.66394 | 18° | 13km/h | 23817m | 4.3m/s | 0°C | 0% | 0hPa | 0V | 00:00:00 | 00:00:00 | 00:00:00 | |
| PETON7-10 | 2026-09-03 12:30:00 | 50.88390 | 17.66371 | 101° | 11km/h | 23796m | 4.7m/s | 0°C | 0% | 0hPa | 0V | 00:00:00 | 00:00:00 | 00:00:00 | |
| POL1PZ | 2026-09-03 12:29:47 | 50.88388 | 17.66345 | 187° | 20km/h | 23723m | 3.4m/s | 0°C | 0% | 0hPa | 0V | 00:00:00 | 00:00:00 | 00:00:00 | |
| PETON7-10 | 2026-09-03 12:29:45 | 50.88394 | 17.66348 | 313° | 11km/h | 23711m | 4.9m/s | 0°C | 0% | 0hPa | 0V | 00:00:00 | 00:00:00 | 00:00:00 | |
| PG1ADW-2 | 2026-09-03 12:29:39 | 50.88387 | 17.66328 | 141° | 13km/h | 23682m | 5.0m/s | 0°C | 0% | 0hPa | 0V | 00:00:00 | 00:00:00 | 00:00:00 | |
| SQ6EMJ | 2026-09-03 12:29:35 | 50.88394 | 17.66323 | 144° | 15km/h | 23661m | 4.8m/s | 0°C | 0% | 0hPa | 0V | 00:00:00 | 00:00:00 | 00:00:00 | |
| PETON7-10 | 2026-09-03 12:29:27 | 50.88416 | 17.66309 | 125° | 9km/h | 23620m | 3.8m/s | 0°C | 0% | 0hPa | 0V | 00:00:00 | 00:00:00 | 00:00:00 | |
| SP3BTT-10 | 2026-09-03 12:29:22 | 50.88418 | 17.66289 | 125° | 9km/h | 23592m | 4.6m/s | 0°C | 0% | 0hPa | 0V | 00:00:00 | 00:00:00 | 00:00:00 | |
| SQ6EMJ | 2026-09-03 12:29:18 | 50.88422 | 17.66290 | 97° | 5km/h | 23566m | 6.1m/s | 0°C | 0% | 0hPa | 0V | 00:00:00 | 00:00:00 | 00:00:00 | |
| PETON7-10 | 2026-09-03 12:29:12 | 50.88417 | 17.66268 | 57° | 11km/h | 23537m | 5.8m/s | 0°C | 0% | 0hPa | 0V | 00:00:00 | 00:00:00 | 00:00:00 | |
| OK1SLM-15 | 2026-09-03 12:29:11 | 50.88415 | 17.66263 | 62° | 13km/h | 23531m | 5.3m/s | 0°C | 0% | 0hPa | 0V | 00:00:00 | 00:00:00 | 00:00:00 | |
| OK1SLM-15 | 2026-09-03 12:29:06 | 50.88408 | 17.66258 | 21° | 7km/h | 23503m | 5.1m/s | 0°C | 0% | 0hPa | 0V | 00:00:00 | 00:00:00 | 00:00:00 | |
| PETON7-10 | 2026-09-03 12:28:57 | 50.88401 | 17.66221 | 168° | 7km/h | 23460m | 5.4m/s | 0°C | 0% | 0hPa | 0V | 00:00:00 | 00:00:00 | 00:00:00 | |
| PG1ADW-2 | 2026-09-03 12:28:55 | 50.88401 | 17.66225 | 286° | 11km/h | 23449m | 5.0m/s | 0°C | 0% | 0hPa | 0V | 00:00:00 | 00:00:00 | 00:00:00 | |
| SQ6EMJ | 2026-09-03 12:28:54 | 50.88401 | 17.66228 | 296° | 4km/h | 23443m | 6.4m/s | 0°C | 0% | 0hPa | 0V | 00:00:00 | 00:00:00 | 00:00:00 | |
| SQ6EMJ | 2026-09-03 12:28:48 | 50.88398 | 17.66212 | 108° | 5km/h | 23410m | 6.3m/s | 0°C | 0% | 0hPa | 0V | 00:00:00 | 00:00:00 | 00:00:00 | |
| PETON7-10 | 2026-09-03 12:28:42 | 50.88392 | 17.66212 | 22° | 11km/h | 23378m | 6.1m/s | 0°C | 0% | 0hPa | 0V | 00:00:00 | 00:00:00 | 00:00:00 | |
| SQ6EMJ | 2026-09-03 12:28:34 | 50.88390 | 17.66198 | 210° | 9km/h | 23336m | 5.0m/s | 0°C | 0% | 0hPa | 0V | 00:00:00 | 00:00:00 | 00:00:00 | |
| SQ6EMJ | 2026-09-03 12:28:28 | 50.88390 | 17.66182 | 130° | 18km/h | 23299m | 4.8m/s | 0°C | 0% | 0hPa | 0V | 00:00:00 | 00:00:00 | 00:00:00 | |
| PG1ADW-2 | 2026-09-03 12:28:26 | 50.88396 | 17.66175 | 144° | 15km/h | 23287m | 6.8m/s | 0°C | 0% | 0hPa | 0V | 00:00:00 | 00:00:00 | 00:00:00 | |
| SP3BTT-10 | 2026-09-03 12:28:22 | 50.88400 | 17.66171 | 131° | 9km/h | 23265m | 4.9m/s | 0°C | 0% | 0hPa | 0V | 00:00:00 | 00:00:00 | 00:00:00 | |
| SQ6EMJ | 2026-09-03 12:28:17 | 50.88412 | 17.66151 | 147° | 29km/h | 23237m | 5.9m/s | 0°C | 0% | 0hPa | 0V | 00:00:00 | 00:00:00 | 00:00:00 | |
| PETON7-10 | 2026-09-03 12:28:10 | 50.88426 | 17.66117 | 105° | 16km/h | 23201m | 4.4m/s | 0°C | 0% | 0hPa | 0V | 00:00:00 | 00:00:00 | 00:00:00 | |
| SQ6EMJ | 2026-09-03 12:28:09 | 50.88427 | 17.66113 | 97° | 11km/h | 23195m | 6.1m/s | 0°C | 0% | 0hPa | 0V | 00:00:00 | 00:00:00 | 00:00:00 | |
| PG1ADW-2 | 2026-09-03 12:28:06 | 50.88430 | 17.66095 | 127° | 22km/h | 23179m | 6.5m/s | 0°C | 0% | 0hPa | 0V | 00:00:00 | 00:00:00 | 00:00:00 | |
| SQ6EMJ | 2026-09-03 12:28:02 | 50.88445 | 17.66080 | 188° | 16km/h | 23159m | 4.4m/s | 0°C | 0% | 0hPa | 0V | 00:00:00 | 00:00:00 | 00:00:00 | |
| SQ6EMJ | 2026-09-03 12:27:56 | 50.88454 | 17.66036 | 90° | 26km/h | 23125m | 5.8m/s | 0°C | 0% | 0hPa | 0V | 00:00:00 | 00:00:00 | 00:00:00 | |
| PETON7-10 | 2026-09-03 12:27:53 | 50.88457 | 17.66014 | 115° | 20km/h | 23108m | 5.9m/s | 0°C | 0% | 0hPa | 0V | 00:00:00 | 00:00:00 | 00:00:00 | |
| SQ6EMJ | 2026-09-03 12:27:50 | 50.88468 | 17.65998 | 149° | 20km/h | 23092m | 5.6m/s | 0°C | 0% | 0hPa | 0V | 00:00:00 | 00:00:00 | 00:00:00 | |
| PG1ADW-2 | 2026-09-03 12:27:46 | 50.88477 | 17.65962 | 93° | 15km/h | 23069m | 3.3m/s | 0°C | 0% | 0hPa | 0V | 00:00:00 | 00:00:00 | 00:00:00 | |
| SQ6EMJ | 2026-09-03 12:27:45 | 50.88477 | 17.65949 | 88° | 31km/h | 23065m | 3.7m/s | 0°C | 0% | 0hPa | 0V | 00:00:00 | 00:00:00 | 00:00:00 | |
| PETON7-10 | 2026-09-03 12:27:38 | 50.88484 | 17.65901 | 105° | 13km/h | 23026m | 2.4m/s | 0°C | 0% | 0hPa | 0V | 00:00:00 | 00:00:00 | 00:00:00 | |
| SQ6EMJ | 2026-09-03 12:27:33 | 50.88482 | 17.65868 | 112° | 7km/h | 22997m | 6.3m/s | 0°C | 0% | 0hPa | 0V | 00:00:00 | 00:00:00 | 00:00:00 | |
| SQ6EMJ | 2026-09-03 12:27:27 | 50.88485 | 17.65854 | 93° | 16km/h | 22966m | 4.4m/s | 0°C | 0% | 0hPa | 0V | 00:00:00 | 00:00:00 | 00:00:00 | |
| PETON7-10 | 2026-09-03 12:27:23 | 50.88486 | 17.65840 | 137° | 7km/h | 22944m | 5.7m/s | 0°C | 0% | 0hPa | 0V | 00:00:00 | 00:00:00 | 00:00:00 | |
| SQ6EMJ | 2026-09-03 12:27:18 | 50.88482 | 17.65837 | 20° | 15km/h | 22912m | 5.1m/s | 0°C | 0% | 0hPa | 0V | 00:00:00 | 00:00:00 | 00:00:00 | |
| SQ6EMJ | 2026-09-03 12:27:12 | 50.88467 | 17.65828 | 277° | 4km/h | 22886m | 5.4m/s | 0°C | 0% | 0hPa | 0V | 00:00:00 | 00:00:00 | 00:00:00 | |
| PETON7-10 | 2026-09-03 12:27:07 | 50.88469 | 17.65825 | 356° | 9km/h | 22855m | 4.3m/s | 0°C | 0% | 0hPa | 0V | 00:00:00 | 00:00:00 | 00:00:00 | |
| PG1ADW-2 | 2026-09-03 12:27:06 | 50.88467 | 17.65825 | 20° | 11km/h | 22850m | 7.0m/s | 0°C | 0% | 0hPa | 0V | 00:00:00 | 00:00:00 | 00:00:00 | |
| SQ6EMJ | 2026-09-03 12:27:01 | 50.88460 | 17.65812 | 154° | 7km/h | 22822m | 4.7m/s | 0°C | 0% | 0hPa | 0V | 00:00:00 | 00:00:00 | 00:00:00 | |
| PETON7-10 | 2026-09-03 12:26:51 | 50.88457 | 17.65797 | 205° | 11km/h | 22768m | 5.2m/s | 0°C | 0% | 0hPa | 0V | 00:00:00 | 00:00:00 | 00:00:00 | |
| SQ6EMJ | 2026-09-03 12:26:50 | 50.88459 | 17.65797 | 175° | 11km/h | 22763m | 4.6m/s | 0°C | 0% | 0hPa | 0V | 00:00:00 | 00:00:00 | 00:00:00 | |
| PG1ADW-2 | 2026-09-03 12:26:46 | 50.88470 | 17.65785 | 116° | 11km/h | 22742m | 5.8m/s | 0°C | 0% | 0hPa | 0V | 00:00:00 | 00:00:00 | 00:00:00 | |
| SQ6EMJ | 2026-09-03 12:26:44 | 50.88468 | 17.65787 | 337° | 9km/h | 22734m | 3.7m/s | 0°C | 0% | 0hPa | 0V | 00:00:00 | 00:00:00 | 00:00:00 | |
| SQ6EMJ | 2026-09-03 12:26:38 | 50.88462 | 17.65765 | 122° | 13km/h | 22703m | 5.7m/s | 0°C | 0% | 0hPa | 0V | 00:00:00 | 00:00:00 | 00:00:00 | |
| PETON7-10 | 2026-09-03 12:26:36 | 50.88466 | 17.65754 | 126° | 15km/h | 22691m | 5.1m/s | 0°C | 0% | 0hPa | 0V | 00:00:00 | 00:00:00 | 00:00:00 | |
| SQ6EMJ | 2026-09-03 12:26:32 | 50.88469 | 17.65742 | 34° | 5km/h | 22672m | 5.0m/s | 0°C | 0% | 0hPa | 0V | 00:00:00 | 00:00:00 | 00:00:00 | |
| PG1ADW-2 | 2026-09-03 12:26:26 | 50.88466 | 17.65709 | 103° | 13km/h | 22637m | 5.2m/s | 0°C | 0% | 0hPa | 0V | 00:00:00 | 00:00:00 | 00:00:00 | |
| SP3BTT-10 | 2026-09-03 12:26:21 | 50.88466 | 17.65678 | 54° | 13km/h | 22610m | 4.6m/s | 0°C | 0% | 0hPa | 0V | 00:00:00 | 00:00:00 | 00:00:00 | |
| SQ6EMJ | 2026-09-03 12:26:20 | 50.88465 | 17.65674 | 63° | 9km/h | 22606m | 3.6m/s | 0°C | 0% | 0hPa | 0V | 00:00:00 | 00:00:00 | 00:00:00 | |
| SQ6EMJ | 2026-09-03 12:26:10 | 50.88467 | 17.65620 | 84° | 11km/h | 22552m | 5.4m/s | 0°C | 0% | 0hPa | 0V | 00:00:00 | 00:00:00 | 00:00:00 | |
| PETON7-10 | 2026-09-03 12:26:06 | 50.88458 | 17.65605 | 58° | 18km/h | 22531m | 7.4m/s | 0°C | 0% | 0hPa | 0V | 00:00:00 | 00:00:00 | 00:00:00 | |
| PG1ADW-2 | 2026-09-03 12:26:05 | 50.88455 | 17.65598 | 59° | 15km/h | 22526m | 3.0m/s | 0°C | 0% | 0hPa | 0V | 00:00:00 | 00:00:00 | 00:00:00 | |
| SQ6EMJ | 2026-09-03 12:26:04 | 50.88452 | 17.65591 | 58° | 18km/h | 22522m | 5.5m/s | 0°C | 0% | 0hPa | 0V | 00:00:00 | 00:00:00 | 00:00:00 | |
| SQ6EMJ | 2026-09-03 12:25:57 | 50.88448 | 17.65569 | 83° | 13km/h | 22484m | 6.2m/s | 0°C | 0% | 0hPa | 0V | 00:00:00 | 00:00:00 | 00:00:00 | |
| PETON7-10 | 2026-09-03 12:25:51 | 50.88434 | 17.65535 | 52° | 15km/h | 22453m | 6.6m/s | 0°C | 0% | 0hPa | 0V | 00:00:00 | 00:00:00 | 00:00:00 | |
| SQ6EMJ | 2026-09-03 12:25:45 | 50.88437 | 17.65509 | 52° | 20km/h | 22424m | 6.4m/s | 0°C | 0% | 0hPa | 0V | 00:00:00 | 00:00:00 | 00:00:00 | |
| PG1ADW-2 | 2026-09-03 12:25:44 | 50.88433 | 17.65503 | 26° | 16km/h | 22417m | 6.5m/s | 0°C | 0% | 0hPa | 0V | 00:00:00 | 00:00:00 | 00:00:00 | |
| SQ6EMJ | 2026-09-03 12:25:39 | 50.88415 | 17.65473 | 88° | 16km/h | 22394m | 5.4m/s | 0°C | 0% | 0hPa | 0V | 00:00:00 | 00:00:00 | 00:00:00 | |
| PETON7-10 | 2026-09-03 12:25:36 | 50.88410 | 17.65463 | 13° | 13km/h | 22378m | 4.8m/s | 0°C | 0% | 0hPa | 0V | 00:00:00 | 00:00:00 | 00:00:00 | |
| SQ6EMJ | 2026-09-03 12:25:34 | 50.88406 | 17.65461 | 28° | 7km/h | 22368m | 3.7m/s | 0°C | 0% | 0hPa | 0V | 00:00:00 | 00:00:00 | 00:00:00 | |
| OM5KV | 2026-09-03 12:25:31 | 50.88394 | 17.65453 | 20° | 26km/h | 22353m | 4.0m/s | 0°C | 0% | 0hPa | 0V | 00:00:00 | 00:00:00 | 00:00:00 | |
| OM5KV | 2026-09-03 12:25:30 | 50.88388 | 17.65449 | 33° | 24km/h | 22349m | 3.5m/s | 0°C | 0% | 0hPa | 0V | 00:00:00 | 00:00:00 | 00:00:00 | |
| SQ6EMJ | 2026-09-03 12:25:29 | 50.88384 | 17.65443 | 50° | 20km/h | 22345m | 5.6m/s | 0°C | 0% | 0hPa | 0V | 00:00:00 | 00:00:00 | 00:00:00 | |
| PG1ADW-2 | 2026-09-03 12:25:24 | 50.88376 | 17.65423 | 3° | 9km/h | 22320m | 4.5m/s | 0°C | 0% | 0hPa | 0V | 00:00:00 | 00:00:00 | 00:00:00 | |
| SQ6EMJ | 2026-09-03 12:25:23 | 50.88371 | 17.65423 | 348° | 22km/h | 22315m | 4.9m/s | 0°C | 0% | 0hPa | 0V | 00:00:00 | 00:00:00 | 00:00:00 | |
| PETON7-10 | 2026-09-03 12:25:21 | 50.88364 | 17.65427 | 344° | 13km/h | 22305m | 4.6m/s | 0°C | 0% | 0hPa | 0V | 00:00:00 | 00:00:00 | 00:00:00 | |
| OM5KV | 2026-09-03 12:25:18 | 50.88353 | 17.65425 | 19° | 18km/h | 22290m | 5.8m/s | 0°C | 0% | 0hPa | 0V | 00:00:00 | 00:00:00 | 00:00:00 | |
| OM5KV | 2026-09-03 12:25:17 | 50.88348 | 17.65423 | 9° | 15km/h | 22285m | 4.1m/s | 0°C | 0% | 0hPa | 0V | 00:00:00 | 00:00:00 | 00:00:00 | |
| OM5KV | 2026-09-03 12:25:13 | 50.88343 | 17.65438 | 291° | 13km/h | 22263m | 5.4m/s | 0°C | 0% | 0hPa | 0V | 00:00:00 | 00:00:00 | 00:00:00 | |
| SQ6EMJ | 2026-09-03 12:25:12 | 50.88342 | 17.65442 | 326° | 13km/h | 22258m | 4.9m/s | 0°C | 0% | 0hPa | 0V | 00:00:00 | 00:00:00 | 00:00:00 | |
| OM5KV | 2026-09-03 12:25:11 | 50.88339 | 17.65443 | 345° | 11km/h | 22253m | 4.8m/s | 0°C | 0% | 0hPa | 0V | 00:00:00 | 00:00:00 | 00:00:00 | |
| OM5KV | 2026-09-03 12:25:08 | 50.88334 | 17.65443 | 22° | 5km/h | 22236m | 5.4m/s | 0°C | 0% | 0hPa | 0V | 00:00:00 | 00:00:00 | 00:00:00 | |
| PETON7-10 | 2026-09-03 12:25:06 | 50.88330 | 17.65443 | 336° | 13km/h | 22225m | 4.1m/s | 0°C | 0% | 0hPa | 0V | 00:00:00 | 00:00:00 | 00:00:00 | |
| OM5KV | 2026-09-03 12:25:05 | 50.88329 | 17.65445 | 291° | 11km/h | 22221m | 4.1m/s | 0°C | 0% | 0hPa | 0V | 00:00:00 | 00:00:00 | 00:00:00 | |
| OM5KV | 2026-09-03 12:25:02 | 50.88332 | 17.65463 | 255° | 18km/h | 22206m | 3.9m/s | 0°C | 0% | 0hPa | 0V | 00:00:00 | 00:00:00 | 00:00:00 | |
| SQ6EMJ | 2026-09-03 12:25:00 | 50.88332 | 17.65472 | 312° | 7km/h | 22196m | 5.5m/s | 0°C | 0% | 0hPa | 0V | 00:00:00 | 00:00:00 | 00:00:00 | |
| OM5KV | 2026-09-03 12:24:58 | 50.88331 | 17.65471 | 102° | 5km/h | 22183m | 6.5m/s | 0°C | 0% | 0hPa | 0V | 00:00:00 | 00:00:00 | 00:00:00 | |
| OM5KV | 2026-09-03 12:24:54 | 50.88333 | 17.65480 | 265° | 20km/h | 22162m | 4.9m/s | 0°C | 0% | 0hPa | 0V | 00:00:00 | 00:00:00 | 00:00:00 | |
| PG1ADW-2 | 2026-09-03 12:24:53 | 50.88334 | 17.65487 | 244° | 15km/h | 22157m | 4.9m/s | 0°C | 0% | 0hPa | 0V | 00:00:00 | 00:00:00 | 00:00:00 | |
| PETON7-10 | 2026-09-03 12:24:51 | 50.88341 | 17.65496 | 185° | 13km/h | 22146m | 4.6m/s | 0°C | 0% | 0hPa | 0V | 00:00:00 | 00:00:00 | 00:00:00 | |
| OM5KV | 2026-09-03 12:24:49 | 50.88346 | 17.65495 | 153° | 7km/h | 22135m | 6.6m/s | 0°C | 0% | 0hPa | 0V | 00:00:00 | 00:00:00 | 00:00:00 | |
| OM5KV | 2026-09-03 12:24:45 | 50.88351 | 17.65503 | 221° | 16km/h | 22113m | 3.8m/s | 0°C | 0% | 0hPa | 0V | 00:00:00 | 00:00:00 | 00:00:00 | |
| OM5KV | 2026-09-03 12:24:44 | 50.88355 | 17.65506 | 198° | 15km/h | 22109m | 5.1m/s | 0°C | 0% | 0hPa | 0V | 00:00:00 | 00:00:00 | 00:00:00 | |
| SQ6EMJ | 2026-09-03 12:24:43 | 50.88358 | 17.65507 | 178° | 11km/h | 22103m | 6.0m/s | 0°C | 0% | 0hPa | 0V | 00:00:00 | 00:00:00 | 00:00:00 | |
| OM5KV | 2026-09-03 12:24:39 | 50.88369 | 17.65494 | 168° | 16km/h | 22079m | 6.5m/s | 0°C | 0% | 0hPa | 0V | 00:00:00 | 00:00:00 | 00:00:00 | |
| OM5KV | 2026-09-03 12:24:38 | 50.88373 | 17.65493 | 181° | 16km/h | 22074m | 4.1m/s | 0°C | 0% | 0hPa | 0V | 00:00:00 | 00:00:00 | 00:00:00 | |
| SQ6EMJ | 2026-09-03 12:24:37 | 50.88376 | 17.65494 | 205° | 9km/h | 22069m | 6.2m/s | 0°C | 0% | 0hPa | 0V | 00:00:00 | 00:00:00 | 00:00:00 | |
| PETON7-10 | 2026-09-03 12:24:36 | 50.88378 | 17.65495 | 224° | 13km/h | 22062m | 7.0m/s | 0°C | 0% | 0hPa | 0V | 00:00:00 | 00:00:00 | 00:00:00 | |
| SQ6EMJ | 2026-09-03 12:24:31 | 50.88388 | 17.65501 | 190° | 18km/h | 22037m | 5.2m/s | 0°C | 0% | 0hPa | 0V | 00:00:00 | 00:00:00 | 00:00:00 | |
| OM5KV | 2026-09-03 12:24:29 | 50.88395 | 17.65500 | 157° | 15km/h | 22025m | 4.2m/s | 0°C | 0% | 0hPa | 0V | 00:00:00 | 00:00:00 | 00:00:00 | |
| OM5KV | 2026-09-03 12:24:28 | 50.88399 | 17.65497 | 153° | 18km/h | 22020m | 5.9m/s | 0°C | 0% | 0hPa | 0V | 00:00:00 | 00:00:00 | 00:00:00 | |
| OM5KV | 2026-09-03 12:24:22 | 50.88421 | 17.65469 | 163° | 13km/h | 21985m | 7.3m/s | 0°C | 0% | 0hPa | 0V | 00:00:00 | 00:00:00 | 00:00:00 | |
| PETON7-10 | 2026-09-03 12:24:21 | 50.88425 | 17.65469 | 188° | 24km/h | 21978m | 6.2m/s | 0°C | 0% | 0hPa | 0V | 00:00:00 | 00:00:00 | 00:00:00 | |
| SQ6EMJ | 2026-09-03 12:24:20 | 50.88429 | 17.65469 | 184° | 22km/h | 21972m | 3.9m/s | 0°C | 0% | 0hPa | 0V | 00:00:00 | 00:00:00 | 00:00:00 | |
| SQ6EMJ | 2026-09-03 12:24:14 | 50.88464 | 17.65435 | 139° | 37km/h | 21941m | 4.5m/s | 0°C | 0% | 0hPa | 0V | 00:00:00 | 00:00:00 | 00:00:00 | |
| OM5KV | 2026-09-03 12:24:12 | 50.88474 | 17.65416 | 127° | 26km/h | 21930m | 6.8m/s | 0°C | 0% | 0hPa | 0V | 00:00:00 | 00:00:00 | 00:00:00 | |
| OM5KV | 2026-09-03 12:24:11 | 50.88477 | 17.65409 | 119° | 18km/h | 21924m | 5.0m/s | 0°C | 0% | 0hPa | 0V | 00:00:00 | 00:00:00 | 00:00:00 | |
| SQ6EMJ | 2026-09-03 12:24:09 | 50.88482 | 17.65398 | 150° | 22km/h | 21914m | 5.5m/s | 0°C | 0% | 0hPa | 0V | 00:00:00 | 00:00:00 | 00:00:00 | |
| OM5KV | 2026-09-03 12:24:06 | 50.88499 | 17.65380 | 131° | 29km/h | 21898m | 6.4m/s | 0°C | 0% | 0hPa | 0V | 00:00:00 | 00:00:00 | 00:00:00 | |
| PETON7-10 | 2026-09-03 12:24:05 | 50.88504 | 17.65371 | 125° | 24km/h | 21892m | 4.5m/s | 0°C | 0% | 0hPa | 0V | 00:00:00 | 00:00:00 | 00:00:00 | |
| SQ6EMJ | 2026-09-03 12:24:03 | 50.88514 | 17.65350 | 138° | 37km/h | 21884m | 6.3m/s | 0°C | 0% | 0hPa | 0V | 00:00:00 | 00:00:00 | 00:00:00 | |
| OM5KV | 2026-09-03 12:24:01 | 50.88528 | 17.65333 | 144° | 31km/h | 21875m | 4.4m/s | 0°C | 0% | 0hPa | 0V | 00:00:00 | 00:00:00 | 00:00:00 | |
| PG1ADW-2 | 2026-09-03 12:24:00 | 50.88533 | 17.65325 | 135° | 24km/h | 21869m | 6.4m/s | 0°C | 0% | 0hPa | 0V | 00:00:00 | 00:00:00 | 00:00:00 | |
| SQ6EMJ | 2026-09-03 12:23:58 | 50.88542 | 17.65306 | 136° | 16km/h | 21852m | 7.0m/s | 0°C | 0% | 0hPa | 0V | 00:00:00 | 00:00:00 | 00:00:00 | |
| OM5KV | 2026-09-03 12:23:55 | 50.88549 | 17.65296 | 143° | 20km/h | 21841m | 4.8m/s | 0°C | 0% | 0hPa | 0V | 00:00:00 | 00:00:00 | 00:00:00 | |
| SQ6EMJ | 2026-09-03 12:23:52 | 50.88560 | 17.65276 | 123° | 26km/h | 21825m | 5.8m/s | 0°C | 0% | 0hPa | 0V | 00:00:00 | 00:00:00 | 00:00:00 | |
| PETON7-10 | 2026-09-03 12:23:49 | 50.88572 | 17.65247 | 117° | 26km/h | 21808m | 7.0m/s | 0°C | 0% | 0hPa | 0V | 00:00:00 | 00:00:00 | 00:00:00 | |
| OM5KV | 2026-09-03 12:23:47 | 50.88577 | 17.65227 | 113° | 22km/h | 21796m | 6.9m/s | 0°C | 0% | 0hPa | 0V | 00:00:00 | 00:00:00 | 00:00:00 | |
| SQ6EMJ | 2026-09-03 12:23:41 | 50.88588 | 17.65191 | 113° | 20km/h | 21763m | 6.2m/s | 0°C | 0% | 0hPa | 0V | 00:00:00 | 00:00:00 | 00:00:00 | |
| PG1ADW-2 | 2026-09-03 12:23:37 | 50.88595 | 17.65149 | 98° | 27km/h | 21742m | 5.4m/s | 0°C | 0% | 0hPa | 0V | 00:00:00 | 00:00:00 | 00:00:00 | |
| SQ6EMJ | 2026-09-03 12:23:36 | 50.88597 | 17.65130 | 106° | 18km/h | 21731m | 5.6m/s | 0°C | 0% | 0hPa | 0V | 00:00:00 | 00:00:00 | 00:00:00 | |
| SP3BTT-10 | 2026-09-03 12:23:35 | 50.88597 | 17.65130 | 105° | 18km/h | 21731m | 5.5m/s | 0°C | 0% | 0hPa | 0V | 00:00:00 | 00:00:00 | 00:00:00 | |
| PETON7-10 | 2026-09-03 12:23:34 | 50.88599 | 17.65123 | 118° | 22km/h | 21727m | 3.7m/s | 0°C | 0% | 0hPa | 0V | 00:00:00 | 00:00:00 | 00:00:00 | |
| SQ6EMJ | 2026-09-03 12:23:30 | 50.88606 | 17.65089 | 102° | 26km/h | 21706m | 5.6m/s | 0°C | 0% | 0hPa | 0V | 00:00:00 | 00:00:00 | 00:00:00 | |
| SQ6EMJ | 2026-09-03 12:23:24 | 50.88615 | 17.65038 | 107° | 24km/h | 21672m | 5.3m/s | 0°C | 0% | 0hPa | 0V | 00:00:00 | 00:00:00 | 00:00:00 | |
| PETON7-10 | 2026-09-03 12:23:19 | 50.88623 | 17.64995 | 98° | 24km/h | 21643m | 5.0m/s | 0°C | 0% | 0hPa | 0V | 00:00:00 | 00:00:00 | 00:00:00 | |
| OM5KV | 2026-09-03 12:23:18 | 50.88625 | 17.64983 | 106° | 29km/h | 21637m | 6.3m/s | 0°C | 0% | 0hPa | 0V | 00:00:00 | 00:00:00 | 00:00:00 | |
| PG1ADW-2 | 2026-09-03 12:23:17 | 50.88627 | 17.64973 | 114° | 20km/h | 21631m | 5.9m/s | 0°C | 0% | 0hPa | 0V | 00:00:00 | 00:00:00 | 00:00:00 | |
| SQ6EMJ | 2026-09-03 12:23:12 | 50.88636 | 17.64922 | 95° | 24km/h | 21604m | 6.3m/s | 0°C | 0% | 0hPa | 0V | 00:00:00 | 00:00:00 | 00:00:00 | |
| OM5KV | 2026-09-03 12:23:06 | 50.88645 | 17.64868 | 127° | 24km/h | 21570m | 7.1m/s | 0°C | 0% | 0hPa | 0V | 00:00:00 | 00:00:00 | 00:00:00 | |
| PETON7-10 | 2026-09-03 12:23:03 | 50.88650 | 17.64844 | 94° | 20km/h | 21557m | 6.2m/s | 0°C | 0% | 0hPa | 0V | 00:00:00 | 00:00:00 | 00:00:00 | |
| SQ6EMJ | 2026-09-03 12:23:00 | 50.88653 | 17.64816 | 115° | 20km/h | 21539m | 6.8m/s | 0°C | 0% | 0hPa | 0V | 00:00:00 | 00:00:00 | 00:00:00 | |
| OM5KV | 2026-09-03 12:22:55 | 50.88665 | 17.64776 | 124° | 16km/h | 21513m | 6.4m/s | 0°C | 0% | 0hPa | 0V | 00:00:00 | 00:00:00 | 00:00:00 | |
| SQ6EMJ | 2026-09-03 12:22:54 | 50.88667 | 17.64771 | 113° | 15km/h | 21508m | 4.7m/s | 0°C | 0% | 0hPa | 0V | 00:00:00 | 00:00:00 | 00:00:00 | |
| OM5KV | 2026-09-03 12:22:50 | 50.88665 | 17.64745 | 86° | 16km/h | 21488m | 5.9m/s | 0°C | 0% | 0hPa | 0V | 00:00:00 | 00:00:00 | 00:00:00 | |
| PETON7-10 | 2026-09-03 12:22:48 | 50.88668 | 17.64732 | 120° | 20km/h | 21477m | 3.6m/s | 0°C | 0% | 0hPa | 0V | 00:00:00 | 00:00:00 | 00:00:00 | |
| OE5DRO-10 | 2026-09-03 12:22:46 | 50.88677 | 17.64695 | 92° | 22km/h | 21460m | 5.4m/s | 0°C | 0% | 0hPa | 0V | 00:00:00 | 00:00:00 | 00:00:00 | |
| OM5KV | 2026-09-03 12:22:44 | 50.88676 | 17.64695 | 93° | 20km/h | 21460m | 5.4m/s | 0°C | 0% | 0hPa | 0V | 00:00:00 | 00:00:00 | 00:00:00 | |
| SQ6EMJ | 2026-09-03 12:22:42 | 50.88676 | 17.64685 | 56° | 7km/h | 21449m | 4.6m/s | 0°C | 0% | 0hPa | 0V | 00:00:00 | 00:00:00 | 00:00:00 | |
| OM5KV | 2026-09-03 12:22:39 | 50.88676 | 17.64661 | 104° | 20km/h | 21428m | 6.0m/s | 0°C | 0% | 0hPa | 0V | 00:00:00 | 00:00:00 | 00:00:00 | |
| SQ6EMJ | 2026-09-03 12:22:37 | 50.88677 | 17.64654 | 102° | 18km/h | 21423m | 6.4m/s | 0°C | 0% | 0hPa | 0V | 00:00:00 | 00:00:00 | 00:00:00 | |
| PG1ADW-2 | 2026-09-03 12:22:36 | 50.88677 | 17.64647 | 89° | 18km/h | 21418m | 4.6m/s | 0°C | 0% | 0hPa | 0V | 00:00:00 | 00:00:00 | 00:00:00 | |
| SP3BTT-10 | 2026-09-03 12:22:35 | 50.88677 | 17.64639 | 80° | 24km/h | 21412m | 6.9m/s | 0°C | 0% | 0hPa | 0V | 00:00:00 | 00:00:00 | 00:00:00 | |
| PETON7-10 | 2026-09-03 12:22:34 | 50.88674 | 17.64623 | 68° | 15km/h | 21400m | 6.4m/s | 0°C | 0% | 0hPa | 0V | 00:00:00 | 00:00:00 | 00:00:00 | |
| SQ6EMJ | 2026-09-03 12:22:31 | 50.88673 | 17.64610 | 103° | 16km/h | 21389m | 4.9m/s | 0°C | 0% | 0hPa | 0V | 00:00:00 | 00:00:00 | 00:00:00 | |
| SQ6EMJ | 2026-09-03 12:22:26 | 50.88675 | 17.64578 | 102° | 11km/h | 21360m | 5.5m/s | 0°C | 0% | 0hPa | 0V | 00:00:00 | 00:00:00 | 00:00:00 | |
| SQ6EMJ | 2026-09-03 12:22:21 | 50.88672 | 17.64553 | 92° | 11km/h | 21334m | 6.0m/s | 0°C | 0% | 0hPa | 0V | 00:00:00 | 00:00:00 | 00:00:00 | |
| PETON7-10 | 2026-09-03 12:22:18 | 50.88672 | 17.64534 | 74° | 9km/h | 21317m | 5.5m/s | 0°C | 0% | 0hPa | 0V | 00:00:00 | 00:00:00 | 00:00:00 | |
| OM5KV | 2026-09-03 12:22:16 | 50.88671 | 17.64523 | 87° | 7km/h | 21306m | 6.1m/s | 0°C | 0% | 0hPa | 0V | 00:00:00 | 00:00:00 | 00:00:00 | |
| PG1ADW-2 | 2026-09-03 12:22:13 | 50.88672 | 17.64519 | 80° | 16km/h | 21288m | 6.6m/s | 0°C | 0% | 0hPa | 0V | 00:00:00 | 00:00:00 | 00:00:00 | |
| SQ6EMJ | 2026-09-03 12:22:10 | 50.88675 | 17.64509 | 140° | 7km/h | 21270m | 6.0m/s | 0°C | 0% | 0hPa | 0V | 00:00:00 | 00:00:00 | 00:00:00 | |
| OM5KV | 2026-09-03 12:22:08 | 50.88677 | 17.64503 | 96° | 13km/h | 21259m | 6.8m/s | 0°C | 0% | 0hPa | 0V | 00:00:00 | 00:00:00 | 00:00:00 | |
| SQ6EMJ | 2026-09-03 12:22:04 | 50.88678 | 17.64488 | 119° | 5km/h | 21236m | 4.8m/s | 0°C | 0% | 0hPa | 0V | 00:00:00 | 00:00:00 | 00:00:00 | |
| PETON7-10 | 2026-09-03 12:22:03 | 50.88678 | 17.64486 | 99° | 16km/h | 21231m | 5.4m/s | 0°C | 0% | 0hPa | 0V | 00:00:00 | 00:00:00 | 00:00:00 | |
| OM5KV | 2026-09-03 12:22:00 | 50.88680 | 17.64474 | 128° | 13km/h | 21216m | 5.7m/s | 0°C | 0% | 0hPa | 0V | 00:00:00 | 00:00:00 | 00:00:00 | |
| SQ6EMJ | 2026-09-03 12:21:59 | 50.88682 | 17.64469 | 131° | 16km/h | 21210m | 3.6m/s | 0°C | 0% | 0hPa | 0V | 00:00:00 | 00:00:00 | 00:00:00 | |
| SQ6EMJ | 2026-09-03 12:21:54 | 50.88690 | 17.64435 | 101° | 7km/h | 21184m | 5.1m/s | 0°C | 0% | 0hPa | 0V | 00:00:00 | 00:00:00 | 00:00:00 | |
| OM5KV | 2026-09-03 12:21:51 | 50.88689 | 17.64423 | 94° | 18km/h | 21171m | 4.7m/s | 0°C | 0% | 0hPa | 0V | 00:00:00 | 00:00:00 | 00:00:00 | |
| PETON7-10 | 2026-09-03 12:21:48 | 50.88695 | 17.64396 | 114° | 20km/h | 21155m | 5.6m/s | 0°C | 0% | 0hPa | 0V | 00:00:00 | 00:00:00 | 00:00:00 | |
| SQ6EMJ | 2026-09-03 12:21:42 | 50.88704 | 17.64345 | 100° | 11km/h | 21123m | 5.7m/s | 0°C | 0% | 0hPa | 0V | 00:00:00 | 00:00:00 | 00:00:00 | |
| SQ6EMJ | 2026-09-03 12:21:36 | 50.88718 | 17.64303 | 129° | 26km/h | 21092m | 6.6m/s | 0°C | 0% | 0hPa | 0V | 00:00:00 | 00:00:00 | 00:00:00 | |
| PETON7-10 | 2026-09-03 12:21:33 | 50.88724 | 17.64284 | 122° | 18km/h | 21080m | 6.0m/s | 0°C | 0% | 0hPa | 0V | 00:00:00 | 00:00:00 | 00:00:00 | |
| SQ6EMJ | 2026-09-03 12:21:30 | 50.88726 | 17.64276 | 113° | 13km/h | 21064m | 6.6m/s | 0°C | 0% | 0hPa | 0V | 00:00:00 | 00:00:00 | 00:00:00 | |
| SQ6EMJ | 2026-09-03 12:21:24 | 50.88742 | 17.64228 | 105° | 20km/h | 21034m | 6.6m/s | 0°C | 0% | 0hPa | 0V | 00:00:00 | 00:00:00 | 00:00:00 | |
| OM5KV | 2026-09-03 12:21:22 | 50.88743 | 17.64213 | 98° | 18km/h | 21023m | 5.6m/s | 0°C | 0% | 0hPa | 0V | 00:00:00 | 00:00:00 | 00:00:00 | |
| SQ6EMJ | 2026-09-03 12:21:19 | 50.88749 | 17.64185 | 112° | 27km/h | 21004m | 5.3m/s | 0°C | 0% | 0hPa | 0V | 00:00:00 | 00:00:00 | 00:00:00 | |
| PETON7-10 | 2026-09-03 12:21:17 | 50.88752 | 17.64174 | 113° | 24km/h | 20999m | 3.9m/s | 0°C | 0% | 0hPa | 0V | 00:00:00 | 00:00:00 | 00:00:00 | |
| SQ6EMJ | 2026-09-03 12:21:13 | 50.88765 | 17.64139 | 114° | 22km/h | 20979m | 5.4m/s | 0°C | 0% | 0hPa | 0V | 00:00:00 | 00:00:00 | 00:00:00 | |
| SQ6EMJ | 2026-09-03 12:21:08 | 50.88777 | 17.64080 | 98° | 29km/h | 20948m | 6.0m/s | 0°C | 0% | 0hPa | 0V | 00:00:00 | 00:00:00 | 00:00:00 | |
| SP3BTT-10 | 2026-09-03 12:21:05 | 50.88778 | 17.64057 | 96° | 13km/h | 20938m | 5.4m/s | 0°C | 0% | 0hPa | 0V | 00:00:00 | 00:00:00 | 00:00:00 | |
| SQ6EMJ | 2026-09-03 12:21:01 | 50.88784 | 17.64029 | 93° | 22km/h | 20918m | 5.9m/s | 0°C | 0% | 0hPa | 0V | 00:00:00 | 00:00:00 | 00:00:00 | |
| PETON7-10 | 2026-09-03 12:20:59 | 50.88783 | 17.64007 | 93° | 24km/h | 20906m | 6.9m/s | 0°C | 0% | 0hPa | 0V | 00:00:00 | 00:00:00 | 00:00:00 | |
| SQ6EMJ | 2026-09-03 12:20:55 | 50.88788 | 17.63958 | 93° | 26km/h | 20886m | 5.2m/s | 0°C | 0% | 0hPa | 0V | 00:00:00 | 00:00:00 | 00:00:00 | |
| SQ6EMJ | 2026-09-03 12:20:49 | 50.88789 | 17.63916 | 71° | 22km/h | 20854m | 3.0m/s | 0°C | 0% | 0hPa | 0V | 00:00:00 | 00:00:00 | 00:00:00 | |
| OM5KV | 2026-09-03 12:20:47 | 50.88788 | 17.63898 | 92° | 22km/h | 20844m | 5.4m/s | 0°C | 0% | 0hPa | 0V | 00:00:00 | 00:00:00 | 00:00:00 | |
| PETON7-10 | 2026-09-03 12:20:44 | 50.88789 | 17.63870 | 91° | 18km/h | 20830m | 4.8m/s | 0°C | 0% | 0hPa | 0V | 00:00:00 | 00:00:00 | 00:00:00 | |
| OM5KV | 2026-09-03 12:20:40 | 50.88794 | 17.63842 | 103° | 16km/h | 20810m | 5.0m/s | 0°C | 0% | 0hPa | 0V | 00:00:00 | 00:00:00 | 00:00:00 | |
| SQ6EMJ | 2026-09-03 12:20:39 | 50.88794 | 17.63835 | 69° | 18km/h | 20804m | 6.8m/s | 0°C | 0% | 0hPa | 0V | 00:00:00 | 00:00:00 | 00:00:00 | |
| OM5KV | 2026-09-03 12:20:34 | 50.88786 | 17.63792 | 92° | 27km/h | 20779m | 4.4m/s | 0°C | 0% | 0hPa | 0V | 00:00:00 | 00:00:00 | 00:00:00 | |
| SQ6EMJ | 2026-09-03 12:20:33 | 50.88787 | 17.63781 | 87° | 27km/h | 20775m | 5.0m/s | 0°C | 0% | 0hPa | 0V | 00:00:00 | 00:00:00 | 00:00:00 | |
| SQ6EMJ | 2026-09-03 12:20:28 | 50.88789 | 17.63746 | 70° | 11km/h | 20750m | 7.0m/s | 0°C | 0% | 0hPa | 0V | 00:00:00 | 00:00:00 | 00:00:00 | |
| PETON7-10 | 2026-09-03 12:20:27 | 50.88787 | 17.63742 | 37° | 13km/h | 20745m | 3.7m/s | 0°C | 0% | 0hPa | 0V | 00:00:00 | 00:00:00 | 00:00:00 | |
| SP4MAZ | 2026-09-03 12:20:26 | 50.88784 | 17.63736 | 66° | 18km/h | 20741m | 5.8m/s | 0°C | 0% | 0hPa | 0V | 00:00:00 | 00:00:00 | 00:00:00 | |
| SQ6EMJ | 2026-09-03 12:20:23 | 50.88782 | 17.63713 | 90° | 22km/h | 20724m | 5.7m/s | 0°C | 0% | 0hPa | 0V | 00:00:00 | 00:00:00 | 00:00:00 | |
| SQ6EMJ | 2026-09-03 12:20:18 | 50.88786 | 17.63695 | 179° | 4km/h | 20698m | 5.6m/s | 0°C | 0% | 0hPa | 0V | 00:00:00 | 00:00:00 | 00:00:00 | |
| SQ6EMJ | 2026-09-03 12:20:12 | 50.88786 | 17.63665 | 93° | 15km/h | 20665m | 5.2m/s | 0°C | 0% | 0hPa | 0V | 00:00:00 | 00:00:00 | 00:00:00 | |
| PETON7-10 | 2026-09-03 12:20:11 | 50.88786 | 17.63660 | 86° | 13km/h | 20660m | 4.1m/s | 0°C | 0% | 0hPa | 0V | 00:00:00 | 00:00:00 | 00:00:00 | |
| SQ6EMJ | 2026-09-03 12:20:08 | 50.88792 | 17.63662 | 215° | 15km/h | 20643m | 3.9m/s | 0°C | 0% | 0hPa | 0V | 00:00:00 | 00:00:00 | 00:00:00 | |
| SQ6EMJ | 2026-09-03 12:20:01 | 50.88788 | 17.63642 | 147° | 7km/h | 20612m | 6.9m/s | 0°C | 0% | 0hPa | 0V | 00:00:00 | 00:00:00 | 00:00:00 | |
| PETON7-10 | 2026-09-03 12:19:56 | 50.88799 | 17.63658 | 231° | 7km/h | 20586m | 4.7m/s | 0°C | 0% | 0hPa | 0V | 00:00:00 | 00:00:00 | 00:00:00 | |
| SQ6EMJ | 2026-09-03 12:19:51 | 50.88799 | 17.63650 | 7° | 7km/h | 20562m | 4.8m/s | 0°C | 0% | 0hPa | 0V | 00:00:00 | 00:00:00 | 00:00:00 | |
| SP3BTT-10 | 2026-09-03 12:19:50 | 50.88798 | 17.63650 | 132° | 26km/h | 20557m | 3.8m/s | 0°C | 0% | 0hPa | 0V | 00:00:00 | 00:00:00 | 00:00:00 | |
| SQ6EMJ | 2026-09-03 12:19:45 | 50.88812 | 17.63649 | 217° | 5km/h | 20535m | 4.7m/s | 0°C | 0% | 0hPa | 0V | 00:00:00 | 00:00:00 | 00:00:00 | |
| PETON7-10 | 2026-09-03 12:19:41 | 50.88809 | 17.63643 | 79° | 16km/h | 20515m | 6.2m/s | 0°C | 0% | 0hPa | 0V | 00:00:00 | 00:00:00 | 00:00:00 | |
| SQ6EMJ | 2026-09-03 12:19:40 | 50.88809 | 17.63642 | 220° | 4km/h | 20508m | 7.5m/s | 0°C | 0% | 0hPa | 0V | 00:00:00 | 00:00:00 | 00:00:00 | |
| SQ6EMJ | 2026-09-03 12:19:34 | 50.88836 | 17.63646 | 196° | 13km/h | 20479m | 4.7m/s | 0°C | 0% | 0hPa | 0V | 00:00:00 | 00:00:00 | 00:00:00 | |
| SQ6EMJ | 2026-09-03 12:19:29 | 50.88838 | 17.63644 | 203° | 2km/h | 20451m | 6.6m/s | 0°C | 0% | 0hPa | 0V | 00:00:00 | 00:00:00 | 00:00:00 | |
| SQ6EMJ | 2026-09-03 12:19:24 | 50.88860 | 17.63646 | 168° | 26km/h | 20424m | 4.2m/s | 0°C | 0% | 0hPa | 0V | 00:00:00 | 00:00:00 | 00:00:00 | |
| PETON7-10 | 2026-09-03 12:19:22 | 50.88870 | 17.63642 | 167° | 24km/h | 20413m | 5.1m/s | 0°C | 0% | 0hPa | 0V | 00:00:00 | 00:00:00 | 00:00:00 | |
| SQ6EMJ | 2026-09-03 12:19:18 | 50.88882 | 17.63633 | 150° | 16km/h | 20392m | 4.0m/s | 0°C | 0% | 0hPa | 0V | 00:00:00 | 00:00:00 | 00:00:00 | |
| SQ6EMJ | 2026-09-03 12:19:12 | 50.88915 | 17.63610 | 132° | 29km/h | 20363m | 4.2m/s | 0°C | 0% | 0hPa | 0V | 00:00:00 | 00:00:00 | 00:00:00 | |
| SQ6EMJ | 2026-09-03 12:19:07 | 50.88934 | 17.63576 | 125° | 22km/h | 20335m | 5.0m/s | 0°C | 0% | 0hPa | 0V | 00:00:00 | 00:00:00 | 00:00:00 | |
| PETON7-10 | 2026-09-03 12:19:06 | 50.88938 | 17.63570 | 138° | 26km/h | 20330m | 5.9m/s | 0°C | 0% | 0hPa | 0V | 00:00:00 | 00:00:00 | 00:00:00 | |
| PG1ADW-2 | 2026-09-03 12:19:03 | 50.88947 | 17.63556 | 128° | 31km/h | 20317m | 5.9m/s | 0°C | 0% | 0hPa | 0V | 00:00:00 | 00:00:00 | 00:00:00 | |
| SQ6EMJ | 2026-09-03 12:18:57 | 50.88989 | 17.63487 | 124° | 31km/h | 20278m | 4.5m/s | 0°C | 0% | 0hPa | 0V | 00:00:00 | 00:00:00 | 00:00:00 | |
| SQ6EMJ | 2026-09-03 12:18:51 | 50.89003 | 17.63437 | 120° | 31km/h | 20253m | 4.6m/s | 0°C | 0% | 0hPa | 0V | 00:00:00 | 00:00:00 | 00:00:00 | |
| PETON7-10 | 2026-09-03 12:18:50 | 50.89008 | 17.63427 | 134° | 35km/h | 20248m | 5.7m/s | 0°C | 0% | 0hPa | 0V | 00:00:00 | 00:00:00 | 00:00:00 | |
| SP3BTT-10 | 2026-09-03 12:18:49 | 50.89014 | 17.63418 | 141° | 26km/h | 20243m | 4.7m/s | 0°C | 0% | 0hPa | 0V | 00:00:00 | 00:00:00 | 00:00:00 | |
| SQ6EMJ | 2026-09-03 12:18:46 | 50.89032 | 17.63385 | 125° | 38km/h | 20229m | 4.1m/s | 0°C | 0% | 0hPa | 0V | 00:00:00 | 00:00:00 | 00:00:00 | |
| SQ6EMJ | 2026-09-03 12:18:40 | 50.89056 | 17.63312 | 115° | 38km/h | 20198m | 5.1m/s | 0°C | 0% | 0hPa | 0V | 00:00:00 | 00:00:00 | 00:00:00 | |
| PETON7-10 | 2026-09-03 12:18:35 | 50.89075 | 17.63253 | 112° | 33km/h | 20172m | 4.7m/s | 0°C | 0% | 0hPa | 0V | 00:00:00 | 00:00:00 | 00:00:00 | |
| SQ6EMJ | 2026-09-03 12:18:29 | 50.89099 | 17.63175 | 116° | 40km/h | 20139m | 5.1m/s | 0°C | 0% | 0hPa | 0V | 00:00:00 | 00:00:00 | 00:00:00 | |
| POL1PZ | 2026-09-03 12:18:25 | 50.89113 | 17.63125 | 106° | 33km/h | 20119m | 5.9m/s | 0°C | 0% | 0hPa | 0V | 00:00:00 | 00:00:00 | 00:00:00 | |
| SQ6EMJ | 2026-09-03 12:18:23 | 50.89118 | 17.63099 | 109° | 31km/h | 20110m | 6.1m/s | 0°C | 0% | 0hPa | 0V | 00:00:00 | 00:00:00 | 00:00:00 | |
| SQ6EMJ | 2026-09-03 12:18:18 | 50.89128 | 17.63038 | 103° | 27km/h | 20085m | 6.1m/s | 0°C | 0% | 0hPa | 0V | 00:00:00 | 00:00:00 | 00:00:00 | |
| PETON7-10 | 2026-09-03 12:18:12 | 50.89137 | 17.62976 | 99° | 22km/h | 20055m | 4.0m/s | 0°C | 0% | 0hPa | 0V | 00:00:00 | 00:00:00 | 00:00:00 | |
| SQ6EMJ | 2026-09-03 12:18:06 | 50.89140 | 17.62909 | 117° | 20km/h | 20023m | 6.8m/s | 0°C | 0% | 0hPa | 0V | 00:00:00 | 00:00:00 | 00:00:00 | |
| POL1PZ | 2026-09-03 12:18:05 | 50.89142 | 17.62903 | 119° | 16km/h | 20017m | 4.5m/s | 0°C | 0% | 0hPa | 0V | 00:00:00 | 00:00:00 | 00:00:00 | |
| SQ6EMJ | 2026-09-03 12:18:01 | 50.89143 | 17.62868 | 84° | 24km/h | 19994m | 5.3m/s | 0°C | 0% | 0hPa | 0V | 00:00:00 | 00:00:00 | 00:00:00 | |
| SQ6EMJ | 2026-09-03 12:17:55 | 50.89140 | 17.62813 | 102° | 9km/h | 19963m | 4.6m/s | 0°C | 0% | 0hPa | 0V | 00:00:00 | 00:00:00 | 00:00:00 | |
| SQ6EMJ | 2026-09-03 12:17:49 | 50.89129 | 17.62773 | 57° | 24km/h | 19936m | 4.3m/s | 0°C | 0% | 0hPa | 0V | 00:00:00 | 00:00:00 | 00:00:00 | |
| SQ6EMJ | 2026-09-03 12:17:44 | 50.89125 | 17.62734 | 64° | 11km/h | 19911m | 5.3m/s | 0°C | 0% | 0hPa | 0V | 00:00:00 | 00:00:00 | 00:00:00 | |
| POL1PZ | 2026-09-03 12:17:43 | 50.89124 | 17.62730 | 61° | 9km/h | 19906m | 3.8m/s | 0°C | 0% | 0hPa | 0V | 00:00:00 | 00:00:00 | 00:00:00 | |
| SQ6EMJ | 2026-09-03 12:17:39 | 50.89119 | 17.62713 | 53° | 15km/h | 19886m | 5.3m/s | 0°C | 0% | 0hPa | 0V | 00:00:00 | 00:00:00 | 00:00:00 | |
| PETON7-10 | 2026-09-03 12:17:35 | 50.89118 | 17.62681 | 100° | 20km/h | 19867m | 4.8m/s | 0°C | 0% | 0hPa | 0V | 00:00:00 | 00:00:00 | 00:00:00 | |
| SQ6EMJ | 2026-09-03 12:17:33 | 50.89120 | 17.62670 | 100° | 11km/h | 19855m | 4.8m/s | 0°C | 0% | 0hPa | 0V | 00:00:00 | 00:00:00 | 00:00:00 | |
| SQ6EMJ | 2026-09-03 12:17:27 | 50.89111 | 17.62636 | 73° | 16km/h | 19824m | 3.2m/s | 0°C | 0% | 0hPa | 0V | 00:00:00 | 00:00:00 | 00:00:00 | |
| POL1PZ | 2026-09-03 12:17:22 | 50.89119 | 17.62593 | 133° | 16km/h | 19800m | 5.5m/s | 0°C | 0% | 0hPa | 0V | 00:00:00 | 00:00:00 | 00:00:00 | |
| SP3BTT-10 | 2026-09-03 12:17:19 | 50.89125 | 17.62574 | 100° | 33km/h | 19784m | 5.6m/s | 0°C | 0% | 0hPa | 0V | 00:00:00 | 00:00:00 | 00:00:00 | |
| PETON7-10 | 2026-09-03 12:17:18 | 50.89125 | 17.62564 | 90° | 27km/h | 19779m | 5.3m/s | 0°C | 0% | 0hPa | 0V | 00:00:00 | 00:00:00 | 00:00:00 | |
| SQ6EMJ | 2026-09-03 12:17:17 | 50.89125 | 17.62553 | 94° | 27km/h | 19774m | 4.3m/s | 0°C | 0% | 0hPa | 0V | 00:00:00 | 00:00:00 | 00:00:00 | |
| SQ6EMJ | 2026-09-03 12:17:11 | 50.89145 | 17.62490 | 126° | 15km/h | 19747m | 5.5m/s | 0°C | 0% | 0hPa | 0V | 00:00:00 | 00:00:00 | 00:00:00 | |
| PETON7-10 | 2026-09-03 12:17:02 | 50.89158 | 17.62401 | 117° | 31km/h | 19701m | 4.1m/s | 0°C | 0% | 0hPa | 0V | 00:00:00 | 00:00:00 | 00:00:00 | |
| POL1PZ | 2026-09-03 12:17:01 | 50.89161 | 17.62391 | 125° | 24km/h | 19696m | 6.2m/s | 0°C | 0% | 0hPa | 0V | 00:00:00 | 00:00:00 | 00:00:00 | |
| SQ6EMJ | 2026-09-03 12:16:59 | 50.89165 | 17.62382 | 125° | 5km/h | 19684m | 3.7m/s | 0°C | 0% | 0hPa | 0V | 00:00:00 | 00:00:00 | 00:00:00 | |
| SQ6EMJ | 2026-09-03 12:16:54 | 50.89172 | 17.62351 | 134° | 31km/h | 19660m | 6.2m/s | 0°C | 0% | 0hPa | 0V | 00:00:00 | 00:00:00 | 00:00:00 | |
| SQ6EMJ | 2026-09-03 12:16:49 | 50.89200 | 17.62294 | 132° | 15km/h | 19628m | 3.4m/s | 0°C | 0% | 0hPa | 0V | 00:00:00 | 00:00:00 | 00:00:00 | |
| PETON7-10 | 2026-09-03 12:16:45 | 50.89207 | 17.62272 | 118° | 31km/h | 19614m | 4.6m/s | 0°C | 0% | 0hPa | 0V | 00:00:00 | 00:00:00 | 00:00:00 | |
| SQ6EMJ | 2026-09-03 12:16:42 | 50.89223 | 17.62238 | 131° | 37km/h | 19600m | 3.3m/s | 0°C | 0% | 0hPa | 0V | 00:00:00 | 00:00:00 | 00:00:00 | |
| POL1PZ | 2026-09-03 12:16:41 | 50.89228 | 17.62227 | 124° | 33km/h | 19596m | 5.1m/s | 0°C | 0% | 0hPa | 0V | 00:00:00 | 00:00:00 | 00:00:00 | |
| SQ6EMJ | 2026-09-03 12:16:37 | 50.89234 | 17.62182 | 114° | 22km/h | 19576m | 6.0m/s | 0°C | 0% | 0hPa | 0V | 00:00:00 | 00:00:00 | 00:00:00 | |
| SQ6EMJ | 2026-09-03 12:16:31 | 50.89259 | 17.62114 | 125° | 31km/h | 19546m | 6.6m/s | 0°C | 0% | 0hPa | 0V | 00:00:00 | 00:00:00 | 00:00:00 | |
| PETON7-10 | 2026-09-03 12:16:28 | 50.89270 | 17.62081 | 112° | 37km/h | 19533m | 5.6m/s | 0°C | 0% | 0hPa | 0V | 00:00:00 | 00:00:00 | 00:00:00 | |
| SQ6EMJ | 2026-09-03 12:16:24 | 50.89284 | 17.62020 | 112° | 35km/h | 19515m | 4.7m/s | 0°C | 0% | 0hPa | 0V | 00:00:00 | 00:00:00 | 00:00:00 | |
| POL1PZ | 2026-09-03 12:16:21 | 50.89289 | 17.61982 | 96° | 33km/h | 19502m | 4.0m/s | 0°C | 0% | 0hPa | 0V | 00:00:00 | 00:00:00 | 00:00:00 | |
| SP3BTT-10 | 2026-09-03 12:16:18 | 50.89293 | 17.61948 | 107° | 26km/h | 19486m | 4.5m/s | 0°C | 0% | 0hPa | 0V | 00:00:00 | 00:00:00 | 00:00:00 | |
| SQ6EMJ | 2026-09-03 12:16:14 | 50.89303 | 17.61891 | 109° | 42km/h | 19466m | 6.5m/s | 0°C | 0% | 0hPa | 0V | 00:00:00 | 00:00:00 | 00:00:00 | |
| PETON7-10 | 2026-09-03 12:16:13 | 50.89306 | 17.61875 | 107° | 37km/h | 19461m | 4.7m/s | 0°C | 0% | 0hPa | 0V | 00:00:00 | 00:00:00 | 00:00:00 | |
| SQ6EMJ | 2026-09-03 12:16:07 | 50.89311 | 17.61794 | 86° | 29km/h | 19430m | 3.9m/s | 0°C | 0% | 0hPa | 0V | 00:00:00 | 00:00:00 | 00:00:00 | |
| POL1PZ | 2026-09-03 12:16:01 | 50.89312 | 17.61709 | 86° | 40km/h | 19401m | 4.6m/s | 0°C | 0% | 0hPa | 0V | 00:00:00 | 00:00:00 | 00:00:00 | |
| PETON7-10 | 2026-09-03 12:15:58 | 50.89309 | 17.61666 | 84° | 33km/h | 19386m | 4.5m/s | 0°C | 0% | 0hPa | 0V | 00:00:00 | 00:00:00 | 00:00:00 | |
| SQ6EMJ | 2026-09-03 12:15:47 | 50.89288 | 17.61506 | 72° | 31km/h | 19328m | 4.6m/s | 0°C | 0% | 0hPa | 0V | 00:00:00 | 00:00:00 | 00:00:00 | |
| POL1PZ | 2026-09-03 12:15:42 | 50.89283 | 17.61454 | 87° | 20km/h | 19303m | 4.5m/s | 0°C | 0% | 0hPa | 0V | 00:00:00 | 00:00:00 | 00:00:00 | |
| SQ6EMJ | 2026-09-03 12:15:28 | 50.89256 | 17.61331 | 82° | 24km/h | 19241m | 3.5m/s | 0°C | 0% | 0hPa | 0V | 00:00:00 | 00:00:00 | 00:00:00 | |
| POL1PZ | 2026-09-03 12:15:20 | 50.89238 | 17.61263 | 75° | 22km/h | 19199m | 5.3m/s | 0°C | 0% | 0hPa | 0V | 00:00:00 | 00:00:00 | 00:00:00 | |
| SQ6EMJ | 2026-09-03 12:15:19 | 50.89237 | 17.61255 | 79° | 15km/h | 19194m | 5.2m/s | 0°C | 0% | 0hPa | 0V | 00:00:00 | 00:00:00 | 00:00:00 | |
| SP3BTT-10 | 2026-09-03 12:15:18 | 50.89236 | 17.61249 | 91° | 37km/h | 19189m | 3.7m/s | 0°C | 0% | 0hPa | 0V | 00:00:00 | 00:00:00 | 00:00:00 | |
| PETON7-10 | 2026-09-03 12:15:12 | 50.89234 | 17.61201 | 77° | 20km/h | 19160m | 2.8m/s | 0°C | 0% | 0hPa | 0V | 00:00:00 | 00:00:00 | 00:00:00 | |
| SQ6EMJ | 2026-09-03 12:15:09 | 50.89232 | 17.61177 | 93° | 20km/h | 19146m | 3.8m/s | 0°C | 0% | 0hPa | 0V | 00:00:00 | 00:00:00 | 00:00:00 | |
| SQ6EMJ | 2026-09-03 12:15:03 | 50.89241 | 17.61127 | 97° | 22km/h | 19116m | 5.8m/s | 0°C | 0% | 0hPa | 0V | 00:00:00 | 00:00:00 | 00:00:00 | |
| POL1PZ | 2026-09-03 12:14:59 | 50.89243 | 17.61096 | 100° | 22km/h | 19095m | 3.6m/s | 0°C | 0% | 0hPa | 0V | 00:00:00 | 00:00:00 | 00:00:00 | |
| PETON7-10 | 2026-09-03 12:14:57 | 50.89247 | 17.61082 | 142° | 26km/h | 19084m | 6.3m/s | 0°C | 0% | 0hPa | 0V | 00:00:00 | 00:00:00 | 00:00:00 | |
| SQ6EMJ | 2026-09-03 12:14:48 | 50.89288 | 17.61018 | 126° | 26km/h | 19038m | 3.3m/s | 0°C | 0% | 0hPa | 0V | 00:00:00 | 00:00:00 | 00:00:00 | |
| PETON7-10 | 2026-09-03 12:14:42 | 50.89319 | 17.60977 | 137° | 29km/h | 19010m | 2.0m/s | 0°C | 0% | 0hPa | 0V | 00:00:00 | 00:00:00 | 00:00:00 | |
| SQ6EMJ | 2026-09-03 12:14:41 | 50.89323 | 17.60970 | 135° | 24km/h | 19006m | 6.6m/s | 0°C | 0% | 0hPa | 0V | 00:00:00 | 00:00:00 | 00:00:00 | |
| POL1PZ | 2026-09-03 12:14:39 | 50.89331 | 17.60954 | 128° | 26km/h | 18996m | 6.3m/s | 0°C | 0% | 0hPa | 0V | 00:00:00 | 00:00:00 | 00:00:00 | |
| SQ6EMJ | 2026-09-03 12:14:30 | 50.89391 | 17.60884 | 141° | 27km/h | 18947m | 4.7m/s | 0°C | 0% | 0hPa | 0V | 00:00:00 | 00:00:00 | 00:00:00 | |
| PETON7-10 | 2026-09-03 12:14:27 | 50.89408 | 17.60856 | 134° | 37km/h | 18932m | 4.1m/s | 0°C | 0% | 0hPa | 0V | 00:00:00 | 00:00:00 | 00:00:00 | |
| SQ6EMJ | 2026-09-03 12:14:24 | 50.89429 | 17.60831 | 148° | 35km/h | 18917m | 3.4m/s | 0°C | 0% | 0hPa | 0V | 00:00:00 | 00:00:00 | 00:00:00 | |
| POL1PZ | 2026-09-03 12:14:18 | 50.89472 | 17.60773 | 134° | 35km/h | 18889m | 4.6m/s | 0°C | 0% | 0hPa | 0V | 00:00:00 | 00:00:00 | 00:00:00 | |
| PETON7-10 | 2026-09-03 12:14:12 | 50.89508 | 17.60710 | 125° | 38km/h | 18860m | 4.7m/s | 0°C | 0% | 0hPa | 0V | 00:00:00 | 00:00:00 | 00:00:00 | |
| SQ6EMJ | 2026-09-03 12:14:11 | 50.89514 | 17.60697 | 122° | 42km/h | 18856m | 4.6m/s | 0°C | 0% | 0hPa | 0V | 00:00:00 | 00:00:00 | 00:00:00 | |
| SQ6EMJ | 2026-09-03 12:14:06 | 50.89545 | 17.60633 | 132° | 37km/h | 18831m | 5.0m/s | 0°C | 0% | 0hPa | 0V | 00:00:00 | 00:00:00 | 00:00:00 | |
| SQ6EMJ | 2026-09-03 12:14:00 | 50.89583 | 17.60564 | 124° | 42km/h | 18803m | 3.6m/s | 0°C | 0% | 0hPa | 0V | 00:00:00 | 00:00:00 | 00:00:00 | |
| PETON7-10 | 2026-09-03 12:13:57 | 50.89601 | 17.60526 | 134° | 44km/h | 18789m | 4.2m/s | 0°C | 0% | 0hPa | 0V | 00:00:00 | 00:00:00 | 00:00:00 | |
| SQ6EMJ | 2026-09-03 12:13:54 | 50.89623 | 17.60488 | 128° | 42km/h | 18774m | 1.7m/s | 0°C | 0% | 0hPa | 0V | 00:00:00 | 00:00:00 | 00:00:00 | |
| SQ6EMJ | 2026-09-03 12:13:48 | 50.89661 | 17.60406 | 129° | 47km/h | 18747m | 4.1m/s | 0°C | 0% | 0hPa | 0V | 00:00:00 | 00:00:00 | 00:00:00 | |
| SP3BTT-10 | 2026-09-03 12:13:47 | 50.89669 | 17.60391 | 128° | 38km/h | 18742m | 5.5m/s | 0°C | 0% | 0hPa | 0V | 00:00:00 | 00:00:00 | 00:00:00 | |
| SQ6EMJ | 2026-09-03 12:13:43 | 50.89697 | 17.60329 | 123° | 46km/h | 18724m | 4.4m/s | 0°C | 0% | 0hPa | 0V | 00:00:00 | 00:00:00 | 00:00:00 | |
| PETON7-10 | 2026-09-03 12:13:41 | 50.89706 | 17.60299 | 113° | 42km/h | 18715m | 3.4m/s | 0°C | 0% | 0hPa | 0V | 00:00:00 | 00:00:00 | 00:00:00 | |
| SQ6EMJ | 2026-09-03 12:13:37 | 50.89728 | 17.60234 | 118° | 46km/h | 18696m | 6.6m/s | 0°C | 0% | 0hPa | 0V | 00:00:00 | 00:00:00 | 00:00:00 | |
| POL1PZ | 2026-09-03 12:13:36 | 50.89733 | 17.60219 | 116° | 40km/h | 18690m | 5.3m/s | 0°C | 0% | 0hPa | 0V | 00:00:00 | 00:00:00 | 00:00:00 | |
| SQ6EMJ | 2026-09-03 12:13:32 | 50.89748 | 17.60158 | 117° | 42km/h | 18671m | 3.9m/s | 0°C | 0% | 0hPa | 0V | 00:00:00 | 00:00:00 | 00:00:00 | |
| PETON7-10 | 2026-09-03 12:13:26 | 50.89770 | 17.60078 | 114° | 44km/h | 18641m | 4.1m/s | 0°C | 0% | 0hPa | 0V | 00:00:00 | 00:00:00 | 00:00:00 | |
| SQ6EMJ | 2026-09-03 12:13:21 | 50.89792 | 17.60004 | 114° | 40km/h | 18614m | 4.1m/s | 0°C | 0% | 0hPa | 0V | 00:00:00 | 00:00:00 | 00:00:00 | |
| SQ6EMJ | 2026-09-03 12:13:15 | 50.89810 | 17.59902 | 99° | 49km/h | 18587m | 5.5m/s | 0°C | 0% | 0hPa | 0V | 00:00:00 | 00:00:00 | 00:00:00 | |
| PETON7-10 | 2026-09-03 12:13:11 | 50.89816 | 17.59836 | 96° | 38km/h | 18568m | 4.6m/s | 0°C | 0% | 0hPa | 0V | 00:00:00 | 00:00:00 | 00:00:00 | |
| SQ6EMJ | 2026-09-03 12:13:10 | 50.89818 | 17.59820 | 102° | 40km/h | 18563m | 5.3m/s | 0°C | 0% | 0hPa | 0V | 00:00:00 | 00:00:00 | 00:00:00 | |
| SQ6EMJ | 2026-09-03 12:13:01 | 50.89832 | 17.59681 | 98° | 40km/h | 18516m | 4.8m/s | 0°C | 0% | 0hPa | 0V | 00:00:00 | 00:00:00 | 00:00:00 | |
| PETON7-10 | 2026-09-03 12:12:56 | 50.89842 | 17.59607 | 98° | 40km/h | 18492m | 4.6m/s | 0°C | 0% | 0hPa | 0V | 00:00:00 | 00:00:00 | 00:00:00 | |
| POL1PZ | 2026-09-03 12:12:55 | 50.89843 | 17.59589 | 96° | 46km/h | 18488m | 4.3m/s | 0°C | 0% | 0hPa | 0V | 00:00:00 | 00:00:00 | 00:00:00 | |
| SQ6EMJ | 2026-09-03 12:12:54 | 50.89844 | 17.59571 | 90° | 42km/h | 18482m | 7.0m/s | 0°C | 0% | 0hPa | 0V | 00:00:00 | 00:00:00 | 00:00:00 | |
| SQ6EMJ | 2026-09-03 12:12:49 | 50.89849 | 17.59493 | 112° | 33km/h | 18457m | 5.7m/s | 0°C | 0% | 0hPa | 0V | 00:00:00 | 00:00:00 | 00:00:00 | |
| SQ6EMJ | 2026-09-03 12:12:43 | 50.89862 | 17.59407 | 85° | 37km/h | 18427m | 5.3m/s | 0°C | 0% | 0hPa | 0V | 00:00:00 | 00:00:00 | 00:00:00 | |
| PETON7-10 | 2026-09-03 12:12:41 | 50.89861 | 17.59378 | 89° | 35km/h | 18415m | 5.9m/s | 0°C | 0% | 0hPa | 0V | 00:00:00 | 00:00:00 | 00:00:00 | |
| SQ6EMJ | 2026-09-03 12:12:37 | 50.89865 | 17.59325 | 104° | 31km/h | 18395m | 3.8m/s | 0°C | 0% | 0hPa | 0V | 00:00:00 | 00:00:00 | 00:00:00 | |
| POL1PZ | 2026-09-03 12:12:35 | 50.89869 | 17.59296 | 99° | 40km/h | 18385m | 3.3m/s | 0°C | 0% | 0hPa | 0V | 00:00:00 | 00:00:00 | 00:00:00 | |
| SP3BTT-10 | 2026-09-03 12:12:31 | 50.89868 | 17.59238 | 91° | 42km/h | 18366m | 5.2m/s | 0°C | 0% | 0hPa | 0V | 00:00:00 | 00:00:00 | 00:00:00 | |
| PETON7-10 | 2026-09-03 12:12:25 | 50.89878 | 17.59160 | 99° | 37km/h | 18339m | 4.6m/s | 0°C | 0% | 0hPa | 0V | 00:00:00 | 00:00:00 | 00:00:00 | |
| SQ6EMJ | 2026-09-03 12:12:20 | 50.89875 | 17.59092 | 82° | 37km/h | 18315m | 4.8m/s | 0°C | 0% | 0hPa | 0V | 00:00:00 | 00:00:00 | 00:00:00 | |
| SQ6EMJ | 2026-09-03 12:12:14 | 50.89897 | 17.58995 | 102° | 38km/h | 18285m | 5.2m/s | 0°C | 0% | 0hPa | 0V | 00:00:00 | 00:00:00 | 00:00:00 | |
| PETON7-10 | 2026-09-03 12:12:10 | 50.89898 | 17.58954 | 91° | 42km/h | 18270m | 4.4m/s | 0°C | 0% | 0hPa | 0V | 00:00:00 | 00:00:00 | 00:00:00 | |
| SQ6EMJ | 2026-09-03 12:12:07 | 50.89906 | 17.58904 | 115° | 49km/h | 18255m | 4.6m/s | 0°C | 0% | 0hPa | 0V | 00:00:00 | 00:00:00 | 00:00:00 | |
| SQ6EMJ | 2026-09-03 12:11:58 | 50.89941 | 17.58762 | 120° | 46km/h | 18212m | 3.7m/s | 0°C | 0% | 0hPa | 0V | 00:00:00 | 00:00:00 | 00:00:00 | |
| PETON7-10 | 2026-09-03 12:11:54 | 50.89960 | 17.58694 | 116° | 49km/h | 18192m | 5.0m/s | 0°C | 0% | 0hPa | 0V | 00:00:00 | 00:00:00 | 00:00:00 | |
| POL1PZ | 2026-09-03 12:11:53 | 50.89965 | 17.58677 | 115° | 49km/h | 18187m | 4.6m/s | 0°C | 0% | 0hPa | 0V | 00:00:00 | 00:00:00 | 00:00:00 | |
| SQ6EMJ | 2026-09-03 12:11:51 | 50.89974 | 17.58642 | 109° | 42km/h | 18177m | 3.6m/s | 0°C | 0% | 0hPa | 0V | 00:00:00 | 00:00:00 | 00:00:00 | |
| SQ6EMJ | 2026-09-03 12:11:44 | 50.90003 | 17.58521 | 102° | 58km/h | 18144m | 5.4m/s | 0°C | 0% | 0hPa | 0V | 00:00:00 | 00:00:00 | 00:00:00 | |
| PETON7-10 | 2026-09-03 12:11:39 | 50.90022 | 17.58422 | 113° | 44km/h | 18121m | 3.9m/s | 0°C | 0% | 0hPa | 0V | 00:00:00 | 00:00:00 | 00:00:00 | |
| SQ6EMJ | 2026-09-03 12:11:34 | 50.90039 | 17.58344 | 94° | 44km/h | 18098m | 4.1m/s | 0°C | 0% | 0hPa | 0V | 00:00:00 | 00:00:00 | 00:00:00 | |
| POL1PZ | 2026-09-03 12:11:32 | 50.90042 | 17.58308 | 97° | 44km/h | 18088m | 4.9m/s | 0°C | 0% | 0hPa | 0V | 00:00:00 | 00:00:00 | 00:00:00 | |
| SP3BTT-10 | 2026-09-03 12:11:31 | 50.90043 | 17.58289 | 100° | 42km/h | 18082m | 6.2m/s | 0°C | 0% | 0hPa | 0V | 00:00:00 | 00:00:00 | 00:00:00 | |
| SQ6EMJ | 2026-09-03 12:11:28 | 50.90052 | 17.58233 | 115° | 44km/h | 18066m | 7.0m/s | 0°C | 0% | 0hPa | 0V | 00:00:00 | 00:00:00 | 00:00:00 | |
| SQ6EMJ | 2026-09-03 12:11:22 | 50.90061 | 17.58135 | 87° | 44km/h | 18033m | 4.8m/s | 0°C | 0% | 0hPa | 0V | 00:00:00 | 00:00:00 | 00:00:00 | |
| SQ6EMJ | 2026-09-03 12:11:16 | 50.90067 | 17.58042 | 110° | 29km/h | 18007m | 2.8m/s | 0°C | 0% | 0hPa | 0V | 00:00:00 | 00:00:00 | 00:00:00 | |
| POL1PZ | 2026-09-03 12:11:12 | 50.90068 | 17.57984 | 89° | 49km/h | 17988m | 4.8m/s | 0°C | 0% | 0hPa | 0V | 00:00:00 | 00:00:00 | 00:00:00 | |
| SQ6EMJ | 2026-09-03 12:11:11 | 50.90068 | 17.57965 | 95° | 47km/h | 17983m | 6.4m/s | 0°C | 0% | 0hPa | 0V | 00:00:00 | 00:00:00 | 00:00:00 | |
| PETON7-10 | 2026-09-03 12:11:08 | 50.90074 | 17.57913 | 99° | 38km/h | 17967m | 6.0m/s | 0°C | 0% | 0hPa | 0V | 00:00:00 | 00:00:00 | 00:00:00 | |
| SQ6EMJ | 2026-09-03 12:11:04 | 50.90082 | 17.57852 | 108° | 38km/h | 17948m | 3.9m/s | 0°C | 0% | 0hPa | 0V | 00:00:00 | 00:00:00 | 00:00:00 | |
| SQ6EMJ | 2026-09-03 12:10:58 | 50.90101 | 17.57765 | 110° | 35km/h | 17919m | 4.7m/s | 0°C | 0% | 0hPa | 0V | 00:00:00 | 00:00:00 | 00:00:00 | |
| PETON7-10 | 2026-09-03 12:10:53 | 50.90116 | 17.57684 | 102° | 42km/h | 17895m | 5.3m/s | 0°C | 0% | 0hPa | 0V | 00:00:00 | 00:00:00 | 00:00:00 | |
| POL1PZ | 2026-09-03 12:10:51 | 50.90121 | 17.57651 | 108° | 42km/h | 17886m | 5.9m/s | 0°C | 0% | 0hPa | 0V | 00:00:00 | 00:00:00 | 00:00:00 | |
| SQ6EMJ | 2026-09-03 12:10:44 | 50.90153 | 17.57544 | 119° | 46km/h | 17851m | 5.6m/s | 0°C | 0% | 0hPa | 0V | 00:00:00 | 00:00:00 | 00:00:00 | |
| PETON7-10 | 2026-09-03 12:10:38 | 50.90184 | 17.57452 | 125° | 44km/h | 17819m | 5.3m/s | 0°C | 0% | 0hPa | 0V | 00:00:00 | 00:00:00 | 00:00:00 | |
| SQ6EMJ | 2026-09-03 12:10:32 | 50.90214 | 17.57360 | 108° | 44km/h | 17786m | 4.8m/s | 0°C | 0% | 0hPa | 0V | 00:00:00 | 00:00:00 | 00:00:00 | |
| POL1PZ | 2026-09-03 12:10:31 | 50.90217 | 17.57344 | 116° | 38km/h | 17780m | 6.1m/s | 0°C | 0% | 0hPa | 0V | 00:00:00 | 00:00:00 | 00:00:00 | |
| SQ6EMJ | 2026-09-03 12:10:26 | 50.90239 | 17.57268 | 119° | 49km/h | 17756m | 6.7m/s | 0°C | 0% | 0hPa | 0V | 00:00:00 | 00:00:00 | 00:00:00 | |
| SQ6EMJ | 2026-09-03 12:10:21 | 50.90260 | 17.57185 | 112° | 38km/h | 17729m | 7.3m/s | 0°C | 0% | 0hPa | 0V | 00:00:00 | 00:00:00 | 00:00:00 | |
| PETON7-10 | 2026-09-03 12:10:20 | 50.90264 | 17.57171 | 114° | 40km/h | 17724m | 3.3m/s | 0°C | 0% | 0hPa | 0V | 00:00:00 | 00:00:00 | 00:00:00 | |
| SQ6EMJ | 2026-09-03 12:10:15 | 50.90279 | 17.57095 | 102° | 44km/h | 17701m | 4.0m/s | 0°C | 0% | 0hPa | 0V | 00:00:00 | 00:00:00 | 00:00:00 | |
| POL1PZ | 2026-09-03 12:10:09 | 50.90288 | 17.56997 | 100° | 37km/h | 17670m | 6.3m/s | 0°C | 0% | 0hPa | 0V | 00:00:00 | 00:00:00 | 00:00:00 | |
| SQ6EMJ | 2026-09-03 12:10:04 | 50.90297 | 17.56921 | 89° | 44km/h | 17644m | 5.4m/s | 0°C | 0% | 0hPa | 0V | 00:00:00 | 00:00:00 | 00:00:00 | |
| PETON7-10 | 2026-09-03 12:10:03 | 50.90296 | 17.56903 | 83° | 40km/h | 17639m | 4.1m/s | 0°C | 0% | 0hPa | 0V | 00:00:00 | 00:00:00 | 00:00:00 | |
| SQ6EMJ | 2026-09-03 12:09:52 | 50.90306 | 17.56725 | 88° | 37km/h | 17592m | 5.0m/s | 0°C | 0% | 0hPa | 0V | 00:00:00 | 00:00:00 | 00:00:00 | |
| PETON7-10 | 2026-09-03 12:09:49 | 50.90309 | 17.56670 | 105° | 44km/h | 17572m | 4.3m/s | 0°C | 0% | 0hPa | 0V | 00:00:00 | 00:00:00 | 00:00:00 | |
| SQ6EMJ | 2026-09-03 12:09:48 | 50.90312 | 17.56654 | 107° | 46km/h | 17567m | 5.7m/s | 0°C | 0% | 0hPa | 0V | 00:00:00 | 00:00:00 | 00:00:00 | |
| SP3BTT-10 | 2026-09-03 12:09:45 | 50.90318 | 17.56619 | 107° | 37km/h | 17557m | 5.2m/s | 0°C | 0% | 0hPa | 0V | 00:00:00 | 00:00:00 | 00:00:00 | |
| SQ6EMJ | 2026-09-03 12:09:41 | 50.90328 | 17.56554 | 102° | 42km/h | 17536m | 5.7m/s | 0°C | 0% | 0hPa | 0V | 00:00:00 | 00:00:00 | 00:00:00 | |
| SQ6EMJ | 2026-09-03 12:09:36 | 50.90342 | 17.56476 | 108° | 47km/h | 17510m | 3.4m/s | 0°C | 0% | 0hPa | 0V | 00:00:00 | 00:00:00 | 00:00:00 | |
| PETON7-10 | 2026-09-03 12:09:33 | 50.90348 | 17.56427 | 97° | 33km/h | 17495m | 6.3m/s | 0°C | 0% | 0hPa | 0V | 00:00:00 | 00:00:00 | 00:00:00 | |
| SQ6EMJ | 2026-09-03 12:09:30 | 50.90353 | 17.56382 | 108° | 35km/h | 17479m | 5.2m/s | 0°C | 0% | 0hPa | 0V | 00:00:00 | 00:00:00 | 00:00:00 | |
| POL1PZ | 2026-09-03 12:09:28 | 50.90359 | 17.56359 | 112° | 26km/h | 17469m | 2.7m/s | 0°C | 0% | 0hPa | 0V | 00:00:00 | 00:00:00 | 00:00:00 | |
| SQ6EMJ | 2026-09-03 12:09:24 | 50.90368 | 17.56310 | 99° | 35km/h | 17447m | 4.4m/s | 0°C | 0% | 0hPa | 0V | 00:00:00 | 00:00:00 | 00:00:00 | |
| PETON7-10 | 2026-09-03 12:09:18 | 50.90385 | 17.56233 | 131° | 37km/h | 17419m | 4.5m/s | 0°C | 0% | 0hPa | 0V | 00:00:00 | 00:00:00 | 00:00:00 | |
| SQ6EMJ | 2026-09-03 12:09:12 | 50.90406 | 17.56153 | 103° | 40km/h | 17391m | 4.2m/s | 0°C | 0% | 0hPa | 0V | 00:00:00 | 00:00:00 | 00:00:00 | |
| SQ6EMJ | 2026-09-03 12:09:06 | 50.90427 | 17.56090 | 119° | 42km/h | 17365m | 4.8m/s | 0°C | 0% | 0hPa | 0V | 00:00:00 | 00:00:00 | 00:00:00 | |
| POL1PZ | 2026-09-03 12:09:04 | 50.90434 | 17.56059 | 104° | 42km/h | 17355m | 5.7m/s | 0°C | 0% | 0hPa | 0V | 00:00:00 | 00:00:00 | 00:00:00 | |
| PETON7-10 | 2026-09-03 12:09:03 | 50.90436 | 17.56045 | 97° | 33km/h | 17350m | 3.9m/s | 0°C | 0% | 0hPa | 0V | 00:00:00 | 00:00:00 | 00:00:00 | |
| SQ6EMJ | 2026-09-03 12:09:00 | 50.90440 | 17.56010 | 107° | 29km/h | 17336m | 5.7m/s | 0°C | 0% | 0hPa | 0V | 00:00:00 | 00:00:00 | 00:00:00 | |
| SQ6EMJ | 2026-09-03 12:08:55 | 50.90458 | 17.55963 | 128° | 31km/h | 17310m | 6.2m/s | 0°C | 0% | 0hPa | 0V | 00:00:00 | 00:00:00 | 00:00:00 | |
| SQ6EMJ | 2026-09-03 12:08:49 | 50.90480 | 17.55890 | 108° | 42km/h | 17283m | 4.7m/s | 0°C | 0% | 0hPa | 0V | 00:00:00 | 00:00:00 | 00:00:00 | |
| PETON7-10 | 2026-09-03 12:08:46 | 50.90491 | 17.55849 | 123° | 33km/h | 17268m | 4.1m/s | 0°C | 0% | 0hPa | 0V | 00:00:00 | 00:00:00 | 00:00:00 | |
| POL1PZ | 2026-09-03 12:08:43 | 50.90508 | 17.55815 | 128° | 35km/h | 17251m | 6.2m/s | 0°C | 0% | 0hPa | 0V | 00:00:00 | 00:00:00 | 00:00:00 | |
| SQ6EMJ | 2026-09-03 12:08:32 | 50.90555 | 17.55646 | 119° | 35km/h | 17199m | 3.5m/s | 0°C | 0% | 0hPa | 0V | 00:00:00 | 00:00:00 | 00:00:00 | |
| SQ6EMJ | 2026-09-03 12:08:26 | 50.90571 | 17.55554 | 108° | 31km/h | 17172m | 4.5m/s | 0°C | 0% | 0hPa | 0V | 00:00:00 | 00:00:00 | 00:00:00 | |
| POL1PZ | 2026-09-03 12:08:23 | 50.90582 | 17.55516 | 119° | 37km/h | 17157m | 3.4m/s | 0°C | 0% | 0hPa | 0V | 00:00:00 | 00:00:00 | 00:00:00 | |
| SQ6EMJ | 2026-09-03 12:08:20 | 50.90592 | 17.55477 | 102° | 29km/h | 17145m | 2.9m/s | 0°C | 0% | 0hPa | 0V | 00:00:00 | 00:00:00 | 00:00:00 | |
| SP3BTT-10 | 2026-09-03 12:08:16 | 50.90601 | 17.55425 | 118° | 35km/h | 17125m | 4.0m/s | 0°C | 0% | 0hPa | 0V | 00:00:00 | 00:00:00 | 00:00:00 | |
| SQ6EMJ | 2026-09-03 12:08:15 | 50.90606 | 17.55416 | 130° | 33km/h | 17120m | 5.8m/s | 0°C | 0% | 0hPa | 0V | 00:00:00 | 00:00:00 | 00:00:00 | |
| SQ6EMJ | 2026-09-03 12:08:09 | 50.90629 | 17.55349 | 101° | 31km/h | 17092m | 4.7m/s | 0°C | 0% | 0hPa | 0V | 00:00:00 | 00:00:00 | 00:00:00 | |
| SQ6EMJ | 2026-09-03 12:08:03 | 50.90655 | 17.55283 | 134° | 35km/h | 17060m | 5.3m/s | 0°C | 0% | 0hPa | 0V | 00:00:00 | 00:00:00 | 00:00:00 | |
| SQ6EMJ | 2026-09-03 12:07:57 | 50.90680 | 17.55216 | 118° | 31km/h | 17032m | 3.6m/s | 0°C | 0% | 0hPa | 0V | 00:00:00 | 00:00:00 | 00:00:00 | |
| SQ6EMJ | 2026-09-03 12:07:51 | 50.90713 | 17.55155 | 119° | 24km/h | 17001m | 1.6m/s | 0°C | 0% | 0hPa | 0V | 00:00:00 | 00:00:00 | 00:00:00 | |
| SQ6EMJ | 2026-09-03 12:07:46 | 50.90732 | 17.55095 | 114° | 27km/h | 16978m | 3.3m/s | 0°C | 0% | 0hPa | 0V | 00:00:00 | 00:00:00 | 00:00:00 | |
| PETON7-10 | 2026-09-03 12:07:45 | 50.90735 | 17.55084 | 116° | 37km/h | 16973m | 6.9m/s | 0°C | 0% | 0hPa | 0V | 00:00:00 | 00:00:00 | 00:00:00 | |
| SQ6EMJ | 2026-09-03 12:07:40 | 50.90752 | 17.55027 | 105° | 33km/h | 16948m | 6.4m/s | 0°C | 0% | 0hPa | 0V | 00:00:00 | 00:00:00 | 00:00:00 | |
| SQ6EMJ | 2026-09-03 12:07:35 | 50.90772 | 17.54960 | 124° | 37km/h | 16925m | 5.9m/s | 0°C | 0% | 0hPa | 0V | 00:00:00 | 00:00:00 | 00:00:00 | |
| SQ6EMJ | 2026-09-03 12:07:29 | 50.90798 | 17.54892 | 117° | 38km/h | 16898m | 4.7m/s | 0°C | 0% | 0hPa | 0V | 00:00:00 | 00:00:00 | 00:00:00 | |
| PETON7-10 | 2026-09-03 12:07:24 | 50.90817 | 17.54817 | 116° | 40km/h | 16876m | 3.7m/s | 0°C | 0% | 0hPa | 0V | 00:00:00 | 00:00:00 | 00:00:00 | |
| SQ6EMJ | 2026-09-03 12:07:23 | 50.90820 | 17.54802 | 110° | 35km/h | 16870m | 7.4m/s | 0°C | 0% | 0hPa | 0V | 00:00:00 | 00:00:00 | 00:00:00 | |
| SQ6EMJ | 2026-09-03 12:07:18 | 50.90838 | 17.54747 | 114° | 37km/h | 16846m | 5.6m/s | 0°C | 0% | 0hPa | 0V | 00:00:00 | 00:00:00 | 00:00:00 | |
| SP3BTT-10 | 2026-09-03 12:07:15 | 50.90851 | 17.54699 | 114° | 40km/h | 16831m | 6.1m/s | 0°C | 0% | 0hPa | 0V | 00:00:00 | 00:00:00 | 00:00:00 | |
| SQ6EMJ | 2026-09-03 12:07:12 | 50.90864 | 17.54653 | 115° | 35km/h | 16817m | 4.1m/s | 0°C | 0% | 0hPa | 0V | 00:00:00 | 00:00:00 | 00:00:00 | |
| SQ6EMJ | 2026-09-03 12:07:07 | 50.90880 | 17.54584 | 108° | 44km/h | 16793m | 5.3m/s | 0°C | 0% | 0hPa | 0V | 00:00:00 | 00:00:00 | 00:00:00 | |
| SQ6EMJ | 2026-09-03 12:07:01 | 50.90907 | 17.54492 | 119° | 40km/h | 16766m | 5.4m/s | 0°C | 0% | 0hPa | 0V | 00:00:00 | 00:00:00 | 00:00:00 | |
| SQ6EMJ | 2026-09-03 12:06:55 | 50.90931 | 17.54393 | 122° | 53km/h | 16739m | 3.7m/s | 0°C | 0% | 0hPa | 0V | 00:00:00 | 00:00:00 | 00:00:00 | |
| SQ6EMJ | 2026-09-03 12:06:50 | 50.90961 | 17.54318 | 114° | 42km/h | 16719m | 6.5m/s | 0°C | 0% | 0hPa | 0V | 00:00:00 | 00:00:00 | 00:00:00 | |
| SQ6EMJ | 2026-09-03 12:06:44 | 50.90988 | 17.54214 | 119° | 51km/h | 16690m | 5.2m/s | 0°C | 0% | 0hPa | 0V | 00:00:00 | 00:00:00 | 00:00:00 | |
| SQ6EMJ | 2026-09-03 12:06:39 | 50.91020 | 17.54133 | 120° | 47km/h | 16665m | 4.8m/s | 0°C | 0% | 0hPa | 0V | 00:00:00 | 00:00:00 | 00:00:00 | |
| SQ6EMJ | 2026-09-03 12:06:33 | 50.91047 | 17.54034 | 118° | 47km/h | 16635m | 6.1m/s | 0°C | 0% | 0hPa | 0V | 00:00:00 | 00:00:00 | 00:00:00 | |
| SQ6EMJ | 2026-09-03 12:06:27 | 50.91080 | 17.53937 | 116° | 42km/h | 16605m | 2.8m/s | 0°C | 0% | 0hPa | 0V | 00:00:00 | 00:00:00 | 00:00:00 | |
| PETON7-10 | 2026-09-03 12:06:24 | 50.91093 | 17.53887 | 118° | 47km/h | 16593m | 4.5m/s | 0°C | 0% | 0hPa | 0V | 00:00:00 | 00:00:00 | 00:00:00 | |
| SQ6EMJ | 2026-09-03 12:06:21 | 50.91112 | 17.53833 | 126° | 51km/h | 16580m | 5.2m/s | 0°C | 0% | 0hPa | 0V | 00:00:00 | 00:00:00 | 00:00:00 | |
| SQ6EMJ | 2026-09-03 12:06:16 | 50.91147 | 17.53747 | 115° | 49km/h | 16559m | 6.6m/s | 0°C | 0% | 0hPa | 0V | 00:00:00 | 00:00:00 | 00:00:00 | |
| SQ6EMJ | 2026-09-03 12:06:10 | 50.91184 | 17.53636 | 124° | 49km/h | 16526m | 4.1m/s | 0°C | 0% | 0hPa | 0V | 00:00:00 | 00:00:00 | 00:00:00 | |
| PETON7-10 | 2026-09-03 12:06:07 | 50.91202 | 17.53585 | 111° | 51km/h | 16513m | 5.9m/s | 0°C | 0% | 0hPa | 0V | 00:00:00 | 00:00:00 | 00:00:00 | |
| SQ6EMJ | 2026-09-03 12:06:05 | 50.91211 | 17.53548 | 111° | 53km/h | 16500m | 5.3m/s | 0°C | 0% | 0hPa | 0V | 00:00:00 | 00:00:00 | 00:00:00 | |
| SQ6EMJ | 2026-09-03 12:05:59 | 50.91238 | 17.53436 | 112° | 46km/h | 16472m | 5.6m/s | 0°C | 0% | 0hPa | 0V | 00:00:00 | 00:00:00 | 00:00:00 | |
| SQ6EMJ | 2026-09-03 12:05:53 | 50.91255 | 17.53326 | 103° | 42km/h | 16444m | 4.2m/s | 0°C | 0% | 0hPa | 0V | 00:00:00 | 00:00:00 | 00:00:00 | |
| PETON7-10 | 2026-09-03 12:05:51 | 50.91260 | 17.53295 | 112° | 40km/h | 16435m | 5.2m/s | 0°C | 0% | 0hPa | 0V | 00:00:00 | 00:00:00 | 00:00:00 | |
| PETON7-10 | 2026-09-03 12:05:36 | 50.91292 | 17.53064 | 99° | 37km/h | 16370m | 5.0m/s | 0°C | 0% | 0hPa | 0V | 00:00:00 | 00:00:00 | 00:00:00 | |
| PETON7-10 | 2026-09-03 12:05:21 | 50.91338 | 17.52865 | 122° | 35km/h | 16301m | 5.7m/s | 0°C | 0% | 0hPa | 0V | 00:00:00 | 00:00:00 | 00:00:00 | |
| PETON7-10 | 2026-09-03 12:05:06 | 50.91410 | 17.52695 | 123° | 40km/h | 16230m | 4.6m/s | 0°C | 0% | 0hPa | 0V | 00:00:00 | 00:00:00 | 00:00:00 | |
| PETON7-10 | 2026-09-03 12:04:48 | 50.91523 | 17.52476 | 139° | 46km/h | 16144m | 4.4m/s | 0°C | 0% | 0hPa | 0V | 00:00:00 | 00:00:00 | 00:00:00 | |
| PETON7-10 | 2026-09-03 12:04:33 | 50.91647 | 17.52290 | 134° | 47km/h | 16076m | 6.5m/s | 0°C | 0% | 0hPa | 0V | 00:00:00 | 00:00:00 | 00:00:00 | |
| PETON7-10 | 2026-09-03 12:04:18 | 50.91766 | 17.52072 | 133° | 51km/h | 16006m | 5.1m/s | 0°C | 0% | 0hPa | 0V | 00:00:00 | 00:00:00 | 00:00:00 | |
| SP3BTT-10 | 2026-09-03 12:04:14 | 50.91798 | 17.52012 | 126° | 62km/h | 15987m | 4.3m/s | 0°C | 0% | 0hPa | 0V | 00:00:00 | 00:00:00 | 00:00:00 | |
| PETON7-10 | 2026-09-03 12:04:03 | 50.91890 | 17.51842 | 127° | 57km/h | 15934m | 4.4m/s | 0°C | 0% | 0hPa | 0V | 00:00:00 | 00:00:00 | 00:00:00 | |
| PETON7-10 | 2026-09-03 12:03:48 | 50.92011 | 17.51558 | 124° | 60km/h | 15866m | 7.6m/s | 0°C | 0% | 0hPa | 0V | 00:00:00 | 00:00:00 | 00:00:00 | |
| PETON7-10 | 2026-09-03 12:03:33 | 50.92133 | 17.51249 | 126° | 62km/h | 15791m | 6.9m/s | 0°C | 0% | 0hPa | 0V | 00:00:00 | 00:00:00 | 00:00:00 | |
| PETON7-10 | 2026-09-03 12:03:18 | 50.92253 | 17.50928 | 119° | 68km/h | 15725m | 4.0m/s | 0°C | 0% | 0hPa | 0V | 00:00:00 | 00:00:00 | 00:00:00 | |
| PETON7-10 | 2026-09-03 12:03:03 | 50.92362 | 17.50548 | 109° | 73km/h | 15653m | 4.5m/s | 0°C | 0% | 0hPa | 0V | 00:00:00 | 00:00:00 | 00:00:00 | |
| PETON7-10 | 2026-09-03 12:02:48 | 50.92458 | 17.50154 | 112° | 66km/h | 15584m | 6.1m/s | 0°C | 0% | 0hPa | 0V | 00:00:00 | 00:00:00 | 00:00:00 | |
| SP3BTT-10 | 2026-09-03 12:02:44 | 50.92478 | 17.50058 | 113° | 60km/h | 15566m | 5.2m/s | 0°C | 0% | 0hPa | 0V | 00:00:00 | 00:00:00 | 00:00:00 | |
| PETON7-10 | 2026-09-03 12:02:17 | 50.92665 | 17.49422 | 114° | 64km/h | 15440m | 5.9m/s | 0°C | 0% | 0hPa | 0V | 00:00:00 | 00:00:00 | 00:00:00 | |
| PETON7-10 | 2026-09-03 12:02:02 | 50.92764 | 17.49080 | 109° | 62km/h | 15368m | 5.9m/s | 0°C | 0% | 0hPa | 0V | 00:00:00 | 00:00:00 | 00:00:00 | |
| PETON7-10 | 2026-09-03 12:01:44 | 50.92886 | 17.48717 | 116° | 55km/h | 15284m | 7.4m/s | 0°C | 0% | 0hPa | 0V | 00:00:00 | 00:00:00 | 00:00:00 | |
| PETON7-10 | 2026-09-03 12:01:26 | 50.93023 | 17.48373 | 123° | 66km/h | 15181m | 3.2m/s | 0°C | 0% | 0hPa | 0V | 00:00:00 | 00:00:00 | 00:00:00 | |
| PETON7-10 | 2026-09-03 12:01:10 | 50.93160 | 17.48020 | 114° | 69km/h | 15092m | 2.5m/s | 0°C | 0% | 0hPa | 0V | 00:00:00 | 00:00:00 | 00:00:00 | |
| SP3BTT-10 | 2026-09-03 12:00:58 | 50.93256 | 17.47721 | 108° | 62km/h | 15039m | 5.3m/s | 0°C | 0% | 0hPa | 0V | 00:00:00 | 00:00:00 | 00:00:00 | |
| PETON7-10 | 2026-09-03 12:00:55 | 50.93274 | 17.47644 | 116° | 68km/h | 15023m | 5.9m/s | 0°C | 0% | 0hPa | 0V | 00:00:00 | 00:00:00 | 00:00:00 | |
| PETON7-10 | 2026-09-03 12:00:40 | 50.93373 | 17.47281 | 114° | 62km/h | 14939m | 6.3m/s | 0°C | 0% | 0hPa | 0V | 00:00:00 | 00:00:00 | 00:00:00 | |
| PETON7-10 | 2026-09-03 12:00:25 | 50.93435 | 17.46924 | 104° | 53km/h | 14859m | 6.7m/s | 0°C | 0% | 0hPa | 0V | 00:00:00 | 00:00:00 | 00:00:00 | |
| PETON7-10 | 2026-09-03 12:00:10 | 50.93486 | 17.46614 | 112° | 57km/h | 14778m | 3.4m/s | 0°C | 0% | 0hPa | 0V | 00:00:00 | 00:00:00 | 00:00:00 | |
| POL1PZ | 2026-09-03 12:00:04 | 50.93515 | 17.46485 | 110° | 60km/h | 14748m | 1.5m/s | 0°C | 0% | 0hPa | 0V | 00:00:00 | 00:00:00 | 00:00:00 | |
| PETON7-10 | 2026-09-03 11:59:55 | 50.93567 | 17.46307 | 118° | 55km/h | 14695m | 1.3m/s | 0°C | 0% | 0hPa | 0V | 00:00:00 | 00:00:00 | 00:00:00 | |
| PETON7-10 | 2026-09-03 11:59:39 | 50.93678 | 17.46021 | 128° | 60km/h | 14608m | 6.6m/s | 0°C | 0% | 0hPa | 0V | 00:00:00 | 00:00:00 | 00:00:00 | |
| SP3BTT-10 | 2026-09-03 11:59:27 | 50.93787 | 17.45800 | 138° | 77km/h | 14544m | 5.6m/s | 0°C | 0% | 0hPa | 0V | 00:00:00 | 00:00:00 | 00:00:00 | |
| PETON7-10 | 2026-09-03 11:59:21 | 50.93853 | 17.45687 | 122° | 66km/h | 14516m | 6.6m/s | 0°C | 0% | 0hPa | 0V | 00:00:00 | 00:00:00 | 00:00:00 | |
| PETON7-10 | 2026-09-03 11:59:06 | 50.94014 | 17.45379 | 130° | 75km/h | 14437m | 6.3m/s | 0°C | 0% | 0hPa | 0V | 00:00:00 | 00:00:00 | 00:00:00 | |
| PETON7-10 | 2026-09-03 11:58:51 | 50.94201 | 17.45031 | 131° | 82km/h | 14373m | 3.7m/s | 0°C | 0% | 0hPa | 0V | 00:00:00 | 00:00:00 | 00:00:00 | |
| PETON7-10 | 2026-09-03 11:58:36 | 50.94369 | 17.44615 | 118° | 86km/h | 14309m | 4.5m/s | 0°C | 0% | 0hPa | 0V | 00:00:00 | 00:00:00 | 00:00:00 | |
| PETON7-10 | 2026-09-03 11:58:18 | 50.94567 | 17.44076 | 117° | 86km/h | 14226m | 5.9m/s | 0°C | 0% | 0hPa | 0V | 00:00:00 | 00:00:00 | 00:00:00 | |
| POL1PZ | 2026-09-03 11:58:14 | 50.94603 | 17.43952 | 119° | 80km/h | 14208m | 4.4m/s | 0°C | 0% | 0hPa | 0V | 00:00:00 | 00:00:00 | 00:00:00 | |
| SP3BTT-10 | 2026-09-03 11:58:13 | 50.94613 | 17.43922 | 118° | 86km/h | 14204m | 5.3m/s | 0°C | 0% | 0hPa | 0V | 00:00:00 | 00:00:00 | 00:00:00 | |
| PETON7-10 | 2026-09-03 11:58:03 | 50.94712 | 17.43619 | 118° | 82km/h | 14157m | 4.1m/s | 0°C | 0% | 0hPa | 0V | 00:00:00 | 00:00:00 | 00:00:00 | |
| POL1PZ | 2026-09-03 11:57:52 | 50.94801 | 17.43287 | 117° | 82km/h | 14105m | 6.4m/s | 0°C | 0% | 0hPa | 0V | 00:00:00 | 00:00:00 | 00:00:00 | |
| PETON7-10 | 2026-09-03 11:57:48 | 50.94833 | 17.43166 | 109° | 73km/h | 14086m | 4.0m/s | 0°C | 0% | 0hPa | 0V | 00:00:00 | 00:00:00 | 00:00:00 | |
| PETON7-10 | 2026-09-03 11:57:33 | 50.94914 | 17.42736 | 108° | 73km/h | 14016m | 3.9m/s | 0°C | 0% | 0hPa | 0V | 00:00:00 | 00:00:00 | 00:00:00 | |
| PETON7-10 | 2026-09-03 11:57:18 | 50.94997 | 17.42316 | 106° | 66km/h | 13945m | 4.1m/s | 0°C | 0% | 0hPa | 0V | 00:00:00 | 00:00:00 | 00:00:00 | |
| PETON7-10 | 2026-09-03 11:57:03 | 50.95084 | 17.41952 | 118° | 69km/h | 13861m | 7.4m/s | 0°C | 0% | 0hPa | 0V | 00:00:00 | 00:00:00 | 00:00:00 | |
| SP3BTT-10 | 2026-09-03 11:57:02 | 50.95094 | 17.41928 | 130° | 69km/h | 13855m | 7.5m/s | 0°C | 0% | 0hPa | 0V | 00:00:00 | 00:00:00 | 00:00:00 | |
| SP3BTT-10 | 2026-09-03 11:56:10 | 50.95675 | 17.40831 | 133° | 84km/h | 13577m | 4.7m/s | 0°C | 0% | 0hPa | 0V | 00:00:00 | 00:00:00 | 00:00:00 | |
| POL1PZ | 2026-09-03 11:55:47 | 50.95986 | 17.40322 | 134° | 95km/h | 13453m | 5.5m/s | 0°C | 0% | 0hPa | 0V | 00:00:00 | 00:00:00 | 00:00:00 | |
| POL1PZ | 2026-09-03 11:55:22 | 50.96343 | 17.39681 | 129° | 78km/h | 13305m | 4.8m/s | 0°C | 0% | 0hPa | 0V | 00:00:00 | 00:00:00 | 00:00:00 | |
| SP3BTT-10 | 2026-09-03 11:55:14 | 50.96455 | 17.39496 | 137° | 95km/h | 13263m | 4.6m/s | 0°C | 0% | 0hPa | 0V | 00:00:00 | 00:00:00 | 00:00:00 | |
| POL1PZ | 2026-09-03 11:54:58 | 50.96688 | 17.39154 | 125° | 71km/h | 13183m | 6.8m/s | 0°C | 0% | 0hPa | 0V | 00:00:00 | 00:00:00 | 00:00:00 | |
| POL1PZ | 2026-09-03 11:54:35 | 50.97054 | 17.38509 | 130° | 108km/h | 13050m | 4.8m/s | 0°C | 0% | 0hPa | 0V | 00:00:00 | 00:00:00 | 00:00:00 | |
| POL1PZ | 2026-09-03 11:54:14 | 50.97373 | 17.37806 | 120° | 108km/h | 12932m | 4.7m/s | 0°C | 0% | 0hPa | 0V | 00:00:00 | 00:00:00 | 00:00:00 | |
| SP3BTT-10 | 2026-09-03 11:53:55 | 50.97609 | 17.37115 | 120° | 84km/h | 12831m | 6.6m/s | 0°C | 0% | 0hPa | 0V | 00:00:00 | 00:00:00 | 00:00:00 | |
| POL1PZ | 2026-09-03 11:53:51 | 50.97649 | 17.36976 | 112° | 100km/h | 12810m | 5.3m/s | 0°C | 0% | 0hPa | 0V | 00:00:00 | 00:00:00 | 00:00:00 | |
| POL1PZ | 2026-09-03 11:53:27 | 50.97886 | 17.36142 | 109° | 100km/h | 12682m | 9.0m/s | 0°C | 0% | 0hPa | 0V | 00:00:00 | 00:00:00 | 00:00:00 | |
| POL1PZ | 2026-09-03 11:53:01 | 50.98103 | 17.35250 | 110° | 88km/h | 12543m | 2.9m/s | 0°C | 0% | 0hPa | 0V | 00:00:00 | 00:00:00 | 00:00:00 | |
| SQ6EMJ | 2026-09-03 11:52:49 | 50.98201 | 17.34883 | 115° | 89km/h | 12472m | 6.1m/s | 0°C | 0% | 0hPa | 0V | 00:00:00 | 00:00:00 | 00:00:00 | |
| SQ6EMJ | 2026-09-03 11:52:44 | 50.98246 | 17.34742 | 122° | 80km/h | 12447m | 3.1m/s | 0°C | 0% | 0hPa | 0V | 00:00:00 | 00:00:00 | 00:00:00 | |
| SP3BTT-10 | 2026-09-03 11:52:39 | 50.98291 | 17.34601 | 108° | 93km/h | 12419m | 6.9m/s | 0°C | 0% | 0hPa | 0V | 00:00:00 | 00:00:00 | 00:00:00 | |
| POL1PZ | 2026-09-03 11:52:32 | 50.98353 | 17.34392 | 129° | 91km/h | 12379m | 6.0m/s | 0°C | 0% | 0hPa | 0V | 00:00:00 | 00:00:00 | 00:00:00 | |
| SQ6EMJ | 2026-09-03 11:52:29 | 50.98390 | 17.34318 | 131° | 62km/h | 12365m | 7.7m/s | 0°C | 0% | 0hPa | 0V | 00:00:00 | 00:00:00 | 00:00:00 | |
| SQ6EMJ | 2026-09-03 11:52:23 | 50.98443 | 17.34171 | 124° | 93km/h | 12326m | 8.2m/s | 0°C | 0% | 0hPa | 0V | 00:00:00 | 00:00:00 | 00:00:00 | |
| SQ6EMJ | 2026-09-03 11:52:16 | 50.98531 | 17.33979 | 126° | 86km/h | 12282m | 5.6m/s | 0°C | 0% | 0hPa | 0V | 00:00:00 | 00:00:00 | 00:00:00 | |
| POL1PZ | 2026-09-03 11:52:11 | 50.98598 | 17.33825 | 126° | 89km/h | 12257m | 4.5m/s | 0°C | 0% | 0hPa | 0V | 00:00:00 | 00:00:00 | 00:00:00 | |
| SQ6EMJ | 2026-09-03 11:52:06 | 50.98668 | 17.33675 | 127° | 100km/h | 12235m | 4.8m/s | 0°C | 0% | 0hPa | 0V | 00:00:00 | 00:00:00 | 00:00:00 | |
| SQ6EMJ | 2026-09-03 11:51:59 | 50.98770 | 17.33451 | 129° | 99km/h | 12204m | 6.2m/s | 0°C | 0% | 0hPa | 0V | 00:00:00 | 00:00:00 | 00:00:00 | |
| SQ6EMJ | 2026-09-03 11:51:51 | 50.98893 | 17.33174 | 126° | 102km/h | 12164m | 4.9m/s | 0°C | 0% | 0hPa | 0V | 00:00:00 | 00:00:00 | 00:00:00 | |
| POL1PZ | 2026-09-03 11:51:50 | 50.98893 | 17.33174 | 126° | 102km/h | 12164m | 4.9m/s | 0°C | 0% | 0hPa | 0V | 00:00:00 | 00:00:00 | 00:00:00 | |
| SP3BTT-10 | 2026-09-03 11:51:39 | 50.99039 | 17.32821 | 126° | 97km/h | 12118m | 4.7m/s | 0°C | 0% | 0hPa | 0V | 00:00:00 | 00:00:00 | 00:00:00 | |
| POL1PZ | 2026-09-03 11:51:30 | 50.99159 | 17.32542 | 126° | 89km/h | 12075m | 4.8m/s | 0°C | 0% | 0hPa | 0V | 00:00:00 | 00:00:00 | 00:00:00 | |
| POL1PZ | 2026-09-03 11:51:07 | 50.99475 | 17.31809 | 121° | 102km/h | 11969m | 4.1m/s | 0°C | 0% | 0hPa | 0V | 00:00:00 | 00:00:00 | 00:00:00 | |
| SQ6EMJ | 2026-09-03 11:51:06 | 50.99489 | 17.31773 | 123° | 104km/h | 11964m | 6.3m/s | 0°C | 0% | 0hPa | 0V | 00:00:00 | 00:00:00 | 00:00:00 | |
| SQ6EMJ | 2026-09-03 11:50:59 | 50.99591 | 17.31550 | 127° | 104km/h | 11929m | 4.7m/s | 0°C | 0% | 0hPa | 0V | 00:00:00 | 00:00:00 | 00:00:00 | |
| SQ6EMJ | 2026-09-03 11:50:49 | 50.99734 | 17.31232 | 128° | 110km/h | 11883m | 4.9m/s | 0°C | 0% | 0hPa | 0V | 00:00:00 | 00:00:00 | 00:00:00 | |
| POL1PZ | 2026-09-03 11:50:45 | 50.99799 | 17.31101 | 127° | 89km/h | 11866m | 3.8m/s | 0°C | 0% | 0hPa | 0V | 00:00:00 | 00:00:00 | 00:00:00 | |
| SQ6EMJ | 2026-09-03 11:50:43 | 50.99823 | 17.31045 | 126° | 86km/h | 11859m | 3.2m/s | 0°C | 0% | 0hPa | 0V | 00:00:00 | 00:00:00 | 00:00:00 | |
| SP3BTT-10 | 2026-09-03 11:50:39 | 50.99880 | 17.30920 | 129° | 99km/h | 11837m | 7.1m/s | 0°C | 0% | 0hPa | 0V | 00:00:00 | 00:00:00 | 00:00:00 | |
| SQ6EMJ | 2026-09-03 11:50:37 | 50.99915 | 17.30857 | 135° | 110km/h | 11826m | 8.3m/s | 0°C | 0% | 0hPa | 0V | 00:00:00 | 00:00:00 | 00:00:00 | |
| SQ6EMJ | 2026-09-03 11:50:32 | 50.99990 | 17.30707 | 124° | 88km/h | 11800m | 4.6m/s | 0°C | 0% | 0hPa | 0V | 00:00:00 | 00:00:00 | 00:00:00 | |
| SQ6EMJ | 2026-09-03 11:50:18 | 51.00200 | 17.30223 | 127° | 97km/h | 11729m | 4.6m/s | 0°C | 0% | 0hPa | 0V | 00:00:00 | 00:00:00 | 00:00:00 | |
| SQ6EMJ | 2026-09-03 11:50:13 | 51.00276 | 17.30049 | 129° | 108km/h | 11704m | 3.5m/s | 0°C | 0% | 0hPa | 0V | 00:00:00 | 00:00:00 | 00:00:00 | |
| SQ6EMJ | 2026-09-03 11:50:07 | 51.00362 | 17.29837 | 123° | 108km/h | 11673m | 5.4m/s | 0°C | 0% | 0hPa | 0V | 00:00:00 | 00:00:00 | 00:00:00 | |
| SQ6EMJ | 2026-09-03 11:50:00 | 51.00461 | 17.29613 | 126° | 102km/h | 11639m | 6.1m/s | 0°C | 0% | 0hPa | 0V | 00:00:00 | 00:00:00 | 00:00:00 | |
| POL1PZ | 2026-09-03 11:49:59 | 51.00476 | 17.29580 | 127° | 100km/h | 11633m | 5.5m/s | 0°C | 0% | 0hPa | 0V | 00:00:00 | 00:00:00 | 00:00:00 | |
| SQ6EMJ | 2026-09-03 11:49:55 | 51.00534 | 17.29459 | 130° | 100km/h | 11610m | 4.3m/s | 0°C | 0% | 0hPa | 0V | 00:00:00 | 00:00:00 | 00:00:00 | |
| SP3BTT-10 | 2026-09-03 11:49:54 | 51.00549 | 17.29426 | 125° | 93km/h | 11605m | 6.1m/s | 0°C | 0% | 0hPa | 0V | 00:00:00 | 00:00:00 | 00:00:00 | |
| SQ6EMJ | 2026-09-03 11:49:49 | 51.00623 | 17.29262 | 126° | 91km/h | 11572m | 5.8m/s | 0°C | 0% | 0hPa | 0V | 00:00:00 | 00:00:00 | 00:00:00 | |
| SQ6EMJ | 2026-09-03 11:49:44 | 51.00697 | 17.29098 | 132° | 108km/h | 11546m | 4.7m/s | 0°C | 0% | 0hPa | 0V | 00:00:00 | 00:00:00 | 00:00:00 | |
| POL1PZ | 2026-09-03 11:49:39 | 51.00774 | 17.28935 | 129° | 104km/h | 11518m | 4.7m/s | 0°C | 0% | 0hPa | 0V | 00:00:00 | 00:00:00 | 00:00:00 | |
| SQ6EMJ | 2026-09-03 11:49:33 | 51.00863 | 17.28723 | 128° | 111km/h | 11487m | 2.9m/s | 0°C | 0% | 0hPa | 0V | 00:00:00 | 00:00:00 | 00:00:00 | |
| SQ6EMJ | 2026-09-03 11:49:28 | 51.00936 | 17.28563 | 134° | 99km/h | 11464m | 4.3m/s | 0°C | 0% | 0hPa | 0V | 00:00:00 | 00:00:00 | 00:00:00 | |
| SQ6EMJ | 2026-09-03 11:49:22 | 51.01031 | 17.28358 | 123° | 106km/h | 11438m | 5.7m/s | 0°C | 0% | 0hPa | 0V | 00:00:00 | 00:00:00 | 00:00:00 | |
| POL1PZ | 2026-09-03 11:49:16 | 51.01106 | 17.28156 | 120° | 110km/h | 11405m | 4.8m/s | 0°C | 0% | 0hPa | 0V | 00:00:00 | 00:00:00 | 00:00:00 | |
| SQ6EMJ | 2026-09-03 11:49:10 | 51.01188 | 17.27967 | 126° | 91km/h | 11376m | 4.1m/s | 0°C | 0% | 0hPa | 0V | 00:00:00 | 00:00:00 | 00:00:00 | |
| SQ6EMJ | 2026-09-03 11:49:05 | 51.01256 | 17.27765 | 119° | 100km/h | 11348m | 4.6m/s | 0°C | 0% | 0hPa | 0V | 00:00:00 | 00:00:00 | 00:00:00 | |
| SQ6EMJ | 2026-09-03 11:48:58 | 51.01328 | 17.27586 | 118° | 77km/h | 11320m | 2.7m/s | 0°C | 0% | 0hPa | 0V | 00:00:00 | 00:00:00 | 00:00:00 | |
| POL1PZ | 2026-09-03 11:48:53 | 51.01376 | 17.27433 | 120° | 93km/h | 11290m | 7.1m/s | 0°C | 0% | 0hPa | 0V | 00:00:00 | 00:00:00 | 00:00:00 | |
| SQ6EMJ | 2026-09-03 11:48:52 | 51.01388 | 17.27399 | 121° | 102km/h | 11283m | 7.1m/s | 0°C | 0% | 0hPa | 0V | 00:00:00 | 00:00:00 | 00:00:00 | |
| SQ6EMJ | 2026-09-03 11:48:46 | 51.01454 | 17.27202 | 124° | 78km/h | 11248m | 6.0m/s | 0°C | 0% | 0hPa | 0V | 00:00:00 | 00:00:00 | 00:00:00 | |
| SQ6EMJ | 2026-09-03 11:48:41 | 51.01512 | 17.27054 | 121° | 93km/h | 11217m | 5.2m/s | 0°C | 0% | 0hPa | 0V | 00:00:00 | 00:00:00 | 00:00:00 | |
| SP3BTT-10 | 2026-09-03 11:48:40 | 51.01525 | 17.27021 | 119° | 84km/h | 11213m | 2.7m/s | 0°C | 0% | 0hPa | 0V | 00:00:00 | 00:00:00 | 00:00:00 | |
| SQ6EMJ | 2026-09-03 11:48:36 | 51.01565 | 17.26889 | 110° | 71km/h | 11190m | 7.1m/s | 0°C | 0% | 0hPa | 0V | 00:00:00 | 00:00:00 | 00:00:00 | |
| POL1PZ | 2026-09-03 11:48:33 | 51.01579 | 17.26810 | 108° | 68km/h | 11173m | 6.6m/s | 0°C | 0% | 0hPa | 0V | 00:00:00 | 00:00:00 | 00:00:00 | |
| SQ6EMJ | 2026-09-03 11:48:31 | 51.01603 | 17.26730 | 126° | 80km/h | 11149m | 7.8m/s | 0°C | 0% | 0hPa | 0V | 00:00:00 | 00:00:00 | 00:00:00 | |
| SQ6EMJ | 2026-09-03 11:48:24 | 51.01646 | 17.26561 | 103° | 77km/h | 11111m | 4.9m/s | 0°C | 0% | 0hPa | 0V | 00:00:00 | 00:00:00 | 00:00:00 | |
| SQ6EMJ | 2026-09-03 11:48:19 | 51.01678 | 17.26395 | 110° | 89km/h | 11079m | 7.2m/s | 0°C | 0% | 0hPa | 0V | 00:00:00 | 00:00:00 | 00:00:00 | |
| SQ6EMJ | 2026-09-03 11:48:13 | 51.01736 | 17.26210 | 116° | 73km/h | 11044m | 4.0m/s | 0°C | 0% | 0hPa | 0V | 00:00:00 | 00:00:00 | 00:00:00 | |
| POL1PZ | 2026-09-03 11:48:12 | 51.01744 | 17.26183 | 115° | 78km/h | 11037m | 8.4m/s | 0°C | 0% | 0hPa | 0V | 00:00:00 | 00:00:00 | 00:00:00 | |
| SQ6EMJ | 2026-09-03 11:48:07 | 51.01792 | 17.26021 | 116° | 78km/h | 11009m | 7.1m/s | 0°C | 0% | 0hPa | 0V | 00:00:00 | 00:00:00 | 00:00:00 | |
| SQ6EMJ | 2026-09-03 11:48:01 | 51.01838 | 17.25836 | 117° | 84km/h | 10973m | 4.2m/s | 0°C | 0% | 0hPa | 0V | 00:00:00 | 00:00:00 | 00:00:00 | |
| SQ6EMJ | 2026-09-03 11:47:56 | 51.01887 | 17.25681 | 115° | 75km/h | 10951m | 5.2m/s | 0°C | 0% | 0hPa | 0V | 00:00:00 | 00:00:00 | 00:00:00 | |
| POL1PZ | 2026-09-03 11:47:51 | 51.01924 | 17.25527 | 114° | 95km/h | 10927m | 4.0m/s | 0°C | 0% | 0hPa | 0V | 00:00:00 | 00:00:00 | 00:00:00 | |
| SQ6EMJ | 2026-09-03 11:47:50 | 51.01934 | 17.25494 | 116° | 89km/h | 10922m | 6.1m/s | 0°C | 0% | 0hPa | 0V | 00:00:00 | 00:00:00 | 00:00:00 | |
| SQ6EMJ | 2026-09-03 11:47:45 | 51.01979 | 17.25345 | 111° | 86km/h | 10896m | 3.3m/s | 0°C | 0% | 0hPa | 0V | 00:00:00 | 00:00:00 | 00:00:00 | |
| SQ6EMJ | 2026-09-03 11:47:40 | 51.02013 | 17.25185 | 119° | 86km/h | 10867m | 4.1m/s | 0°C | 0% | 0hPa | 0V | 00:00:00 | 00:00:00 | 00:00:00 | |
| SP3BTT-10 | 2026-09-03 11:47:38 | 51.02033 | 17.25126 | 117° | 86km/h | 10858m | 5.0m/s | 0°C | 0% | 0hPa | 0V | 00:00:00 | 00:00:00 | 00:00:00 | |
| SQ6EMJ | 2026-09-03 11:47:34 | 51.02064 | 17.24998 | 109° | 100km/h | 10839m | 3.6m/s | 0°C | 0% | 0hPa | 0V | 00:00:00 | 00:00:00 | 00:00:00 | |
| POL1PZ | 2026-09-03 11:47:30 | 51.02098 | 17.24866 | 117° | 75km/h | 10819m | 6.2m/s | 0°C | 0% | 0hPa | 0V | 00:00:00 | 00:00:00 | 00:00:00 | |
| SQ6EMJ | 2026-09-03 11:47:29 | 51.02106 | 17.24839 | 118° | 71km/h | 10812m | 7.1m/s | 0°C | 0% | 0hPa | 0V | 00:00:00 | 00:00:00 | 00:00:00 | |
| SQ6EMJ | 2026-09-03 11:47:23 | 51.02160 | 17.24655 | 109° | 82km/h | 10770m | 5.1m/s | 0°C | 0% | 0hPa | 0V | 00:00:00 | 00:00:00 | 00:00:00 | |
| SQ6EMJ | 2026-09-03 11:47:17 | 51.02207 | 17.24442 | 108° | 93km/h | 10734m | 3.3m/s | 0°C | 0% | 0hPa | 0V | 00:00:00 | 00:00:00 | 00:00:00 | |
| SQ6EMJ | 2026-09-03 11:47:11 | 51.02259 | 17.24267 | 114° | 86km/h | 10701m | 6.7m/s | 0°C | 0% | 0hPa | 0V | 00:00:00 | 00:00:00 | 00:00:00 | |
| POL1PZ | 2026-09-03 11:47:10 | 51.02267 | 17.24234 | 112° | 91km/h | 10695m | 6.3m/s | 0°C | 0% | 0hPa | 0V | 00:00:00 | 00:00:00 | 00:00:00 | |
| SQ6EMJ | 2026-09-03 11:47:06 | 51.02303 | 17.24102 | 112° | 88km/h | 10673m | 6.8m/s | 0°C | 0% | 0hPa | 0V | 00:00:00 | 00:00:00 | 00:00:00 | |
| SQ6EMJ | 2026-09-03 11:47:00 | 51.02350 | 17.23911 | 115° | 86km/h | 10638m | 8.1m/s | 0°C | 0% | 0hPa | 0V | 00:00:00 | 00:00:00 | 00:00:00 | |
| SQ6EMJ | 2026-09-03 11:46:54 | 51.02401 | 17.23706 | 107° | 89km/h | 10602m | 7.4m/s | 0°C | 0% | 0hPa | 0V | 00:00:00 | 00:00:00 | 00:00:00 | |
| POL1PZ | 2026-09-03 11:46:49 | 51.02434 | 17.23551 | 113° | 84km/h | 10573m | 7.2m/s | 0°C | 0% | 0hPa | 0V | 00:00:00 | 00:00:00 | 00:00:00 | |
| SQ6EMJ | 2026-09-03 11:46:48 | 51.02442 | 17.23520 | 115° | 86km/h | 10567m | 4.9m/s | 0°C | 0% | 0hPa | 0V | 00:00:00 | 00:00:00 | 00:00:00 | |
| SQ6EMJ | 2026-09-03 11:46:42 | 51.02491 | 17.23325 | 116° | 86km/h | 10531m | 4.8m/s | 0°C | 0% | 0hPa | 0V | 00:00:00 | 00:00:00 | 00:00:00 | |
| SP3BTT-10 | 2026-09-03 11:46:38 | 51.02526 | 17.23190 | 108° | 102km/h | 10509m | 4.6m/s | 0°C | 0% | 0hPa | 0V | 00:00:00 | 00:00:00 | 00:00:00 | |
| SQ6EMJ | 2026-09-03 11:46:36 | 51.02542 | 17.23113 | 112° | 99km/h | 10496m | 6.7m/s | 0°C | 0% | 0hPa | 0V | 00:00:00 | 00:00:00 | 00:00:00 | |
| SQ6EMJ | 2026-09-03 11:46:31 | 51.02582 | 17.22947 | 106° | 89km/h | 10458m | 8.4m/s | 0°C | 0% | 0hPa | 0V | 00:00:00 | 00:00:00 | 00:00:00 | |
| POL1PZ | 2026-09-03 11:46:29 | 51.02605 | 17.22844 | 114° | 91km/h | 10436m | 6.4m/s | 0°C | 0% | 0hPa | 0V | 00:00:00 | 00:00:00 | 00:00:00 | |
| SQ6EMJ | 2026-09-03 11:46:25 | 51.02636 | 17.22743 | 115° | 97km/h | 10420m | 5.7m/s | 0°C | 0% | 0hPa | 0V | 00:00:00 | 00:00:00 | 00:00:00 | |
| SQ6EMJ | 2026-09-03 11:46:19 | 51.02676 | 17.22556 | 110° | 88km/h | 10389m | 4.3m/s | 0°C | 0% | 0hPa | 0V | 00:00:00 | 00:00:00 | 00:00:00 | |
| SQ6EMJ | 2026-09-03 11:46:14 | 51.02738 | 17.22347 | 113° | 89km/h | 10340m | 8.3m/s | 0°C | 0% | 0hPa | 0V | 00:00:00 | 00:00:00 | 00:00:00 | |
| OE3JTB-15 | 2026-09-03 11:46:11 | 51.02756 | 17.22281 | 117° | 86km/h | 10327m | 6.8m/s | 0°C | 0% | 0hPa | 0V | 00:00:00 | 00:00:00 | 00:00:00 | |
| POL1PZ | 2026-09-03 11:46:08 | 51.02784 | 17.22185 | 110° | 89km/h | 10309m | 5.2m/s | 0°C | 0% | 0hPa | 0V | 00:00:00 | 00:00:00 | 00:00:00 | |
| SQ6EMJ | 2026-09-03 11:46:07 | 51.02791 | 17.22151 | 107° | 86km/h | 10302m | 7.3m/s | 0°C | 0% | 0hPa | 0V | 00:00:00 | 00:00:00 | 00:00:00 | |
| SQ6EMJ | 2026-09-03 11:46:01 | 51.02849 | 17.21938 | 117° | 113km/h | 10272m | 2.2m/s | 0°C | 0% | 0hPa | 0V | 00:00:00 | 00:00:00 | 00:00:00 | |
| SP3BTT-10 | 2026-09-03 11:45:58 | 51.02884 | 17.21827 | 116° | 91km/h | 10257m | 9.4m/s | 0°C | 0% | 0hPa | 0V | 00:00:00 | 00:00:00 | 00:00:00 | |
| SQ6EMJ | 2026-09-03 11:45:56 | 51.02903 | 17.21761 | 117° | 89km/h | 10238m | 11.0m/s | 0°C | 0% | 0hPa | 0V | 00:00:00 | 00:00:00 | 00:00:00 | |
| SQ6EMJ | 2026-09-03 11:45:50 | 51.02956 | 17.21549 | 114° | 97km/h | 10190m | 6.1m/s | 0°C | 0% | 0hPa | 0V | 00:00:00 | 00:00:00 | 00:00:00 | |
| POL1PZ | 2026-09-03 11:45:47 | 51.02986 | 17.21448 | 116° | 93km/h | 10174m | 8.5m/s | 0°C | 0% | 0hPa | 0V | 00:00:00 | 00:00:00 | 00:00:00 | |
| SQ6EMJ | 2026-09-03 11:45:44 | 51.03010 | 17.21338 | 111° | 91km/h | 10155m | 6.2m/s | 0°C | 0% | 0hPa | 0V | 00:00:00 | 00:00:00 | 00:00:00 | |
| SQ6EMJ | 2026-09-03 11:45:38 | 51.03066 | 17.21133 | 112° | 91km/h | 10112m | 5.2m/s | 0°C | 0% | 0hPa | 0V | 00:00:00 | 00:00:00 | 00:00:00 | |
| SQ6EMJ | 2026-09-03 11:45:32 | 51.03125 | 17.20931 | 123° | 93km/h | 10075m | 5.0m/s | 0°C | 0% | 0hPa | 0V | 00:00:00 | 00:00:00 | 00:00:00 | |
| SQ6EMJ | 2026-09-03 11:45:27 | 51.03167 | 17.20755 | 110° | 93km/h | 10043m | 5.2m/s | 0°C | 0% | 0hPa | 0V | 00:00:00 | 00:00:00 | 00:00:00 | |
| POL1PZ | 2026-09-03 11:45:26 | 51.03174 | 17.20720 | 111° | 93km/h | 10036m | 8.9m/s | 0°C | 0% | 0hPa | 0V | 00:00:00 | 00:00:00 | 00:00:00 | |
| SQ6EMJ | 2026-09-03 11:45:22 | 51.03219 | 17.20568 | 115° | 100km/h | 10009m | 3.6m/s | 0°C | 0% | 0hPa | 0V | 00:00:00 | 00:00:00 | 00:00:00 | |
| SQ6EMJ | 2026-09-03 11:45:16 | 51.03265 | 17.20374 | 106° | 93km/h | 9970m | 5.5m/s | 0°C | 0% | 0hPa | 0V | 00:00:00 | 00:00:00 | 00:00:00 | |
| SQ6EMJ | 2026-09-03 11:45:11 | 51.03310 | 17.20199 | 124° | 80km/h | 9939m | 7.8m/s | 0°C | 0% | 0hPa | 0V | 00:00:00 | 00:00:00 | 00:00:00 | |
| SQ6EMJ | 2026-09-03 11:44:59 | 51.03423 | 17.19829 | 121° | 89km/h | 9855m | 6.6m/s | 0°C | 0% | 0hPa | 0V | 00:00:00 | 00:00:00 | 00:00:00 | |
| SQ6EMJ | 2026-09-03 11:44:53 | 51.03473 | 17.19643 | 121° | 91km/h | 9821m | 5.9m/s | 0°C | 0% | 0hPa | 0V | 00:00:00 | 00:00:00 | 00:00:00 | |
| SQ6EMJ | 2026-09-03 11:44:47 | 51.03527 | 17.19440 | 103° | 97km/h | 9786m | 3.2m/s | 0°C | 0% | 0hPa | 0V | 00:00:00 | 00:00:00 | 00:00:00 | |
| POL1PZ | 2026-09-03 11:44:44 | 51.03543 | 17.19335 | 111° | 86km/h | 9772m | 6.4m/s | 0°C | 0% | 0hPa | 0V | 00:00:00 | 00:00:00 | 00:00:00 | |
| SQ6EMJ | 2026-09-03 11:44:37 | 51.03608 | 17.19104 | 112° | 100km/h | 9728m | 4.8m/s | 0°C | 0% | 0hPa | 0V | 00:00:00 | 00:00:00 | 00:00:00 | |
| SQ6EMJ | 2026-09-03 11:44:31 | 51.03656 | 17.18897 | 111° | 88km/h | 9691m | 6.5m/s | 0°C | 0% | 0hPa | 0V | 00:00:00 | 00:00:00 | 00:00:00 | |
| SQ6EMJ | 2026-09-03 11:44:26 | 51.03695 | 17.18740 | 111° | 88km/h | 9666m | 5.2m/s | 0°C | 0% | 0hPa | 0V | 00:00:00 | 00:00:00 | 00:00:00 | |
| POL1PZ | 2026-09-03 11:44:24 | 51.03710 | 17.18674 | 113° | 89km/h | 9654m | 6.4m/s | 0°C | 0% | 0hPa | 0V | 00:00:00 | 00:00:00 | 00:00:00 | |
| SQ6EMJ | 2026-09-03 11:44:22 | 51.03734 | 17.18573 | 107° | 91km/h | 9637m | 4.6m/s | 0°C | 0% | 0hPa | 0V | 00:00:00 | 00:00:00 | 00:00:00 | |
| SQ6EMJ | 2026-09-03 11:44:15 | 51.03783 | 17.18371 | 112° | 91km/h | 9607m | 3.1m/s | 0°C | 0% | 0hPa | 0V | 00:00:00 | 00:00:00 | 00:00:00 | |
| SQ6EMJ | 2026-09-03 11:44:10 | 51.03825 | 17.18213 | 110° | 93km/h | 9577m | 8.0m/s | 0°C | 0% | 0hPa | 0V | 00:00:00 | 00:00:00 | 00:00:00 | |
| SQ6EMJ | 2026-09-03 11:44:04 | 51.03875 | 17.18002 | 114° | 84km/h | 9544m | 8.3m/s | 0°C | 0% | 0hPa | 0V | 00:00:00 | 00:00:00 | 00:00:00 | |
| POL1PZ | 2026-09-03 11:44:03 | 51.03883 | 17.17971 | 115° | 82km/h | 9536m | 7.4m/s | 0°C | 0% | 0hPa | 0V | 00:00:00 | 00:00:00 | 00:00:00 | |
| SQ6EMJ | 2026-09-03 11:43:58 | 51.03918 | 17.17817 | 112° | 91km/h | 9504m | 5.1m/s | 0°C | 0% | 0hPa | 0V | 00:00:00 | 00:00:00 | 00:00:00 | |
| SQ6EMJ | 2026-09-03 11:43:53 | 51.03966 | 17.17650 | 115° | 86km/h | 9477m | 5.5m/s | 0°C | 0% | 0hPa | 0V | 00:00:00 | 00:00:00 | 00:00:00 | |
| SQ6EMJ | 2026-09-03 11:43:48 | 51.04008 | 17.17482 | 110° | 93km/h | 9451m | 9.9m/s | 0°C | 0% | 0hPa | 0V | 00:00:00 | 00:00:00 | 00:00:00 | |
| POL1PZ | 2026-09-03 11:43:43 | 51.04051 | 17.17327 | 121° | 84km/h | 9419m | 2.7m/s | 0°C | 0% | 0hPa | 0V | 00:00:00 | 00:00:00 | 00:00:00 | |
| SQ6EMJ | 2026-09-03 11:43:38 | 51.04103 | 17.17135 | 103° | 89km/h | 9381m | 8.2m/s | 0°C | 0% | 0hPa | 0V | 00:00:00 | 00:00:00 | 00:00:00 | |
| SQ6EMJ | 2026-09-03 11:43:31 | 51.04159 | 17.16954 | 110° | 95km/h | 9343m | 6.2m/s | 0°C | 0% | 0hPa | 0V | 00:00:00 | 00:00:00 | 00:00:00 | |
| SQ6EMJ | 2026-09-03 11:43:25 | 51.04197 | 17.16750 | 116° | 82km/h | 9304m | 10.0m/s | 0°C | 0% | 0hPa | 0V | 00:00:00 | 00:00:00 | 00:00:00 | |
| POL1PZ | 2026-09-03 11:43:22 | 51.04228 | 17.16653 | 118° | 95km/h | 9281m | 3.3m/s | 0°C | 0% | 0hPa | 0V | 00:00:00 | 00:00:00 | 00:00:00 | |
| SQ6EMJ | 2026-09-03 11:43:19 | 51.04253 | 17.16552 | 107° | 84km/h | 9264m | 5.9m/s | 0°C | 0% | 0hPa | 0V | 00:00:00 | 00:00:00 | 00:00:00 | |
| SQ6EMJ | 2026-09-03 11:43:13 | 51.04298 | 17.16365 | 113° | 102km/h | 9232m | 7.3m/s | 0°C | 0% | 0hPa | 0V | 00:00:00 | 00:00:00 | 00:00:00 | |
| SP3BTT-10 | 2026-09-03 11:43:09 | 51.04336 | 17.16222 | 113° | 80km/h | 9209m | 5.5m/s | 0°C | 0% | 0hPa | 0V | 00:00:00 | 00:00:00 | 00:00:00 | |
| SQ6EMJ | 2026-09-03 11:43:08 | 51.04345 | 17.16192 | 115° | 77km/h | 9203m | 5.7m/s | 0°C | 0% | 0hPa | 0V | 00:00:00 | 00:00:00 | 00:00:00 | |
| POL1PZ | 2026-09-03 11:43:02 | 51.04403 | 17.16015 | 110° | 89km/h | 9170m | 7.3m/s | 0°C | 0% | 0hPa | 0V | 00:00:00 | 00:00:00 | 00:00:00 | |
| SQ6EMJ | 2026-09-03 11:42:55 | 51.04476 | 17.15777 | 117° | 97km/h | 9124m | 7.6m/s | 0°C | 0% | 0hPa | 0V | 00:00:00 | 00:00:00 | 00:00:00 | |
| SQ6EMJ | 2026-09-03 11:42:49 | 51.04527 | 17.15557 | 110° | 99km/h | 9088m | 4.3m/s | 0°C | 0% | 0hPa | 0V | 00:00:00 | 00:00:00 | 00:00:00 | |
| SQ6EMJ | 2026-09-03 11:42:43 | 51.04594 | 17.15352 | 116° | 89km/h | 9046m | 5.9m/s | 0°C | 0% | 0hPa | 0V | 00:00:00 | 00:00:00 | 00:00:00 | |
| POL1PZ | 2026-09-03 11:42:42 | 51.04602 | 17.15321 | 110° | 84km/h | 9039m | 6.3m/s | 0°C | 0% | 0hPa | 0V | 00:00:00 | 00:00:00 | 00:00:00 | |
| SQ6EMJ | 2026-09-03 11:42:38 | 51.04638 | 17.15184 | 120° | 106km/h | 9017m | 5.3m/s | 0°C | 0% | 0hPa | 0V | 00:00:00 | 00:00:00 | 00:00:00 | |
| SQ6EMJ | 2026-09-03 11:42:32 | 51.04696 | 17.14993 | 113° | 77km/h | 8982m | 5.6m/s | 0°C | 0% | 0hPa | 0V | 00:00:00 | 00:00:00 | 00:00:00 | |
| SQ6EMJ | 2026-09-03 11:42:26 | 51.04757 | 17.14786 | 109° | 104km/h | 8945m | 4.6m/s | 0°C | 0% | 0hPa | 0V | 00:00:00 | 00:00:00 | 00:00:00 | |
| POL1PZ | 2026-09-03 11:42:22 | 51.04790 | 17.14653 | 118° | 86km/h | 8919m | 6.4m/s | 0°C | 0% | 0hPa | 0V | 00:00:00 | 00:00:00 | 00:00:00 | |
| SQ6EMJ | 2026-09-03 11:42:20 | 51.04812 | 17.14582 | 118° | 108km/h | 8907m | 5.7m/s | 0°C | 0% | 0hPa | 0V | 00:00:00 | 00:00:00 | 00:00:00 | |
| SQ6EMJ | 2026-09-03 11:42:14 | 51.04877 | 17.14362 | 116° | 95km/h | 8870m | 5.9m/s | 0°C | 0% | 0hPa | 0V | 00:00:00 | 00:00:00 | 00:00:00 | |
| SQ6EMJ | 2026-09-03 11:42:09 | 51.04921 | 17.14197 | 105° | 88km/h | 8838m | 5.7m/s | 0°C | 0% | 0hPa | 0V | 00:00:00 | 00:00:00 | 00:00:00 | |
| SQ6EMJ | 2026-09-03 11:42:04 | 51.04966 | 17.14034 | 119° | 86km/h | 8808m | 6.1m/s | 0°C | 0% | 0hPa | 0V | 00:00:00 | 00:00:00 | 00:00:00 | |
| POL1PZ | 2026-09-03 11:42:01 | 51.04993 | 17.13941 | 114° | 88km/h | 8795m | 4.5m/s | 0°C | 0% | 0hPa | 0V | 00:00:00 | 00:00:00 | 00:00:00 | |
| SQ6EMJ | 2026-09-03 11:41:58 | 51.05021 | 17.13837 | 114° | 91km/h | 8775m | 5.7m/s | 0°C | 0% | 0hPa | 0V | 00:00:00 | 00:00:00 | 00:00:00 | |
| SQ6EMJ | 2026-09-03 11:41:52 | 51.05078 | 17.13647 | 112° | 86km/h | 8741m | 4.6m/s | 0°C | 0% | 0hPa | 0V | 00:00:00 | 00:00:00 | 00:00:00 | |
| SQ6EMJ | 2026-09-03 11:41:47 | 51.05124 | 17.13483 | 113° | 91km/h | 8711m | 4.2m/s | 0°C | 0% | 0hPa | 0V | 00:00:00 | 00:00:00 | 00:00:00 | |
| SQ6EMJ | 2026-09-03 11:41:42 | 51.05178 | 17.13274 | 118° | 89km/h | 8675m | 5.8m/s | 0°C | 0% | 0hPa | 0V | 00:00:00 | 00:00:00 | 00:00:00 | |
| POL1PZ | 2026-09-03 11:41:38 | 51.05206 | 17.13170 | 110° | 95km/h | 8657m | 3.3m/s | 0°C | 0% | 0hPa | 0V | 00:00:00 | 00:00:00 | 00:00:00 | |
| SQ6EMJ | 2026-09-03 11:41:35 | 51.05231 | 17.13069 | 117° | 86km/h | 8642m | 4.7m/s | 0°C | 0% | 0hPa | 0V | 00:00:00 | 00:00:00 | 00:00:00 | |
| SQ6EMJ | 2026-09-03 11:41:30 | 51.05275 | 17.12900 | 110° | 99km/h | 8606m | 7.9m/s | 0°C | 0% | 0hPa | 0V | 00:00:00 | 00:00:00 | 00:00:00 | |
| SQ6EMJ | 2026-09-03 11:41:25 | 51.05337 | 17.12710 | 114° | 91km/h | 8569m | 4.3m/s | 0°C | 0% | 0hPa | 0V | 00:00:00 | 00:00:00 | 00:00:00 | |
| SQ6EMJ | 2026-09-03 11:41:18 | 51.05381 | 17.12508 | 115° | 82km/h | 8527m | 2.3m/s | 0°C | 0% | 0hPa | 0V | 00:00:00 | 00:00:00 | 00:00:00 | |
| POL1PZ | 2026-09-03 11:41:16 | 51.05399 | 17.12445 | 115° | 93km/h | 8518m | 5.3m/s | 0°C | 0% | 0hPa | 0V | 00:00:00 | 00:00:00 | 00:00:00 | |
| SQ6EMJ | 2026-09-03 11:41:12 | 51.05436 | 17.12310 | 115° | 88km/h | 8493m | 4.5m/s | 0°C | 0% | 0hPa | 0V | 00:00:00 | 00:00:00 | 00:00:00 | |
| SQ6EMJ | 2026-09-03 11:41:06 | 51.05490 | 17.12127 | 103° | 95km/h | 8461m | 6.6m/s | 0°C | 0% | 0hPa | 0V | 00:00:00 | 00:00:00 | 00:00:00 | |
| SQ6EMJ | 2026-09-03 11:40:59 | 51.05558 | 17.11903 | 124° | 99km/h | 8424m | 3.7m/s | 0°C | 0% | 0hPa | 0V | 00:00:00 | 00:00:00 | 00:00:00 | |
| POL1PZ | 2026-09-03 11:40:55 | 51.05605 | 17.11768 | 116° | 86km/h | 8399m | 6.5m/s | 0°C | 0% | 0hPa | 0V | 00:00:00 | 00:00:00 | 00:00:00 | |
| SQ6EMJ | 2026-09-03 11:40:53 | 51.05620 | 17.11707 | 110° | 80km/h | 8384m | 6.6m/s | 0°C | 0% | 0hPa | 0V | 00:00:00 | 00:00:00 | 00:00:00 | |
| SQ6EMJ | 2026-09-03 11:40:47 | 51.05684 | 17.11517 | 122° | 88km/h | 8351m | 3.9m/s | 0°C | 0% | 0hPa | 0V | 00:00:00 | 00:00:00 | 00:00:00 | |
| SQ6EMJ | 2026-09-03 11:40:41 | 51.05749 | 17.11339 | 110° | 78km/h | 8314m | 5.5m/s | 0°C | 0% | 0hPa | 0V | 00:00:00 | 00:00:00 | 00:00:00 | |
| SQ6EMJ | 2026-09-03 11:40:36 | 51.05776 | 17.11150 | 108° | 88km/h | 8287m | 7.0m/s | 0°C | 0% | 0hPa | 0V | 00:00:00 | 00:00:00 | 00:00:00 | |
| POL1PZ | 2026-09-03 11:40:34 | 51.05784 | 17.11116 | 114° | 93km/h | 8279m | 7.1m/s | 0°C | 0% | 0hPa | 0V | 00:00:00 | 00:00:00 | 00:00:00 | |
| SQ6EMJ | 2026-09-03 11:40:29 | 51.05833 | 17.10954 | 120° | 93km/h | 8250m | 5.4m/s | 0°C | 0% | 0hPa | 0V | 00:00:00 | 00:00:00 | 00:00:00 | |
| SQ6EMJ | 2026-09-03 11:40:23 | 51.05877 | 17.10773 | 118° | 80km/h | 8222m | 2.5m/s | 0°C | 0% | 0hPa | 0V | 00:00:00 | 00:00:00 | 00:00:00 | |
| SQ6EMJ | 2026-09-03 11:40:18 | 51.05935 | 17.10567 | 119° | 95km/h | 8199m | 5.3m/s | 0°C | 0% | 0hPa | 0V | 00:00:00 | 00:00:00 | 00:00:00 | |
| POL1PZ | 2026-09-03 11:40:13 | 51.05964 | 17.10456 | 107° | 78km/h | 8173m | 8.8m/s | 0°C | 0% | 0hPa | 0V | 00:00:00 | 00:00:00 | 00:00:00 | |
| SQ6EMJ | 2026-09-03 11:40:12 | 51.05979 | 17.10393 | 115° | 91km/h | 8156m | 10.1m/s | 0°C | 0% | 0hPa | 0V | 00:00:00 | 00:00:00 | 00:00:00 | |
| SQ6EMJ | 2026-09-03 11:40:05 | 51.06030 | 17.10211 | 115° | 84km/h | 8113m | 7.0m/s | 0°C | 0% | 0hPa | 0V | 00:00:00 | 00:00:00 | 00:00:00 | |
| SQ6EMJ | 2026-09-03 11:40:00 | 51.06073 | 17.10045 | 113° | 97km/h | 8081m | 6.4m/s | 0°C | 0% | 0hPa | 0V | 00:00:00 | 00:00:00 | 00:00:00 | |
| SQ6EMJ | 2026-09-03 11:39:55 | 51.06119 | 17.09884 | 109° | 89km/h | 8045m | 6.8m/s | 0°C | 0% | 0hPa | 0V | 00:00:00 | 00:00:00 | 00:00:00 | |
| POL1PZ | 2026-09-03 11:39:51 | 51.06147 | 17.09765 | 113° | 77km/h | 8018m | 7.1m/s | 0°C | 0% | 0hPa | 0V | 00:00:00 | 00:00:00 | 00:00:00 | |
| SQ6EMJ | 2026-09-03 11:39:49 | 51.06160 | 17.09706 | 113° | 78km/h | 8006m | 5.0m/s | 0°C | 0% | 0hPa | 0V | 00:00:00 | 00:00:00 | 00:00:00 | |
| SQ6EMJ | 2026-09-03 11:39:44 | 51.06203 | 17.09535 | 104° | 91km/h | 7983m | 4.1m/s | 0°C | 0% | 0hPa | 0V | 00:00:00 | 00:00:00 | 00:00:00 | |
| SQ6EMJ | 2026-09-03 11:39:39 | 51.06233 | 17.09387 | 111° | 84km/h | 7952m | 5.6m/s | 0°C | 0% | 0hPa | 0V | 00:00:00 | 00:00:00 | 00:00:00 | |
| SQ6EMJ | 2026-09-03 11:39:32 | 51.06288 | 17.09153 | 116° | 99km/h | 7907m | 5.8m/s | 0°C | 0% | 0hPa | 0V | 00:00:00 | 00:00:00 | 00:00:00 | |
| POL1PZ | 2026-09-03 11:39:31 | 51.06298 | 17.09118 | 117° | 95km/h | 7900m | 5.9m/s | 0°C | 0% | 0hPa | 0V | 00:00:00 | 00:00:00 | 00:00:00 | |
| SQ6EMJ | 2026-09-03 11:39:26 | 51.06343 | 17.08968 | 116° | 77km/h | 7871m | 6.5m/s | 0°C | 0% | 0hPa | 0V | 00:00:00 | 00:00:00 | 00:00:00 | |
| SQ6EMJ | 2026-09-03 11:39:20 | 51.06388 | 17.08775 | 112° | 89km/h | 7839m | 1.1m/s | 0°C | 0% | 0hPa | 0V | 00:00:00 | 00:00:00 | 00:00:00 | |
| SQ6EMJ | 2026-09-03 11:39:15 | 51.06421 | 17.08606 | 111° | 78km/h | 7807m | 4.2m/s | 0°C | 0% | 0hPa | 0V | 00:00:00 | 00:00:00 | 00:00:00 | |
| POL1PZ | 2026-09-03 11:39:11 | 51.06466 | 17.08478 | 113° | 104km/h | 7784m | 4.3m/s | 0°C | 0% | 0hPa | 0V | 00:00:00 | 00:00:00 | 00:00:00 | |
| SQ6EMJ | 2026-09-03 11:39:02 | 51.06533 | 17.08159 | 115° | 89km/h | 7721m | 6.6m/s | 0°C | 0% | 0hPa | 0V | 00:00:00 | 00:00:00 | 00:00:00 | |
| SQ6EMJ | 2026-09-03 11:38:57 | 51.06571 | 17.08007 | 109° | 84km/h | 7689m | 3.2m/s | 0°C | 0% | 0hPa | 0V | 00:00:00 | 00:00:00 | 00:00:00 | |
| SQ6EMJ | 2026-09-03 11:38:51 | 51.06616 | 17.07765 | 112° | 86km/h | 7648m | 6.4m/s | 0°C | 0% | 0hPa | 0V | 00:00:00 | 00:00:00 | 00:00:00 | |
| POL1PZ | 2026-09-03 11:38:49 | 51.06625 | 17.07732 | 114° | 95km/h | 7642m | 5.1m/s | 0°C | 0% | 0hPa | 0V | 00:00:00 | 00:00:00 | 00:00:00 | |
| SQ6EMJ | 2026-09-03 11:38:39 | 51.06681 | 17.07428 | 100° | 75km/h | 7586m | 4.6m/s | 0°C | 0% | 0hPa | 0V | 00:00:00 | 00:00:00 | 00:00:00 | |
| SQ6EMJ | 2026-09-03 11:38:32 | 51.06723 | 17.07215 | 127° | 69km/h | 7536m | 6.1m/s | 0°C | 0% | 0hPa | 0V | 00:00:00 | 00:00:00 | 00:00:00 | |
| POL1PZ | 2026-09-03 11:38:28 | 51.06745 | 17.07124 | 99° | 62km/h | 7514m | 5.3m/s | 0°C | 0% | 0hPa | 0V | 00:00:00 | 00:00:00 | 00:00:00 | |
| SQ6EMJ | 2026-09-03 11:38:23 | 51.06770 | 17.06995 | 114° | 78km/h | 7487m | 6.7m/s | 0°C | 0% | 0hPa | 0V | 00:00:00 | 00:00:00 | 00:00:00 | |
| SQ6EMJ | 2026-09-03 11:38:15 | 51.06806 | 17.06786 | 126° | 64km/h | 7445m | 8.8m/s | 0°C | 0% | 0hPa | 0V | 00:00:00 | 00:00:00 | 00:00:00 | |
| SQ6EMJ | 2026-09-03 11:38:06 | 51.06886 | 17.06577 | 107° | 68km/h | 7387m | 2.5m/s | 0°C | 0% | 0hPa | 0V | 00:00:00 | 00:00:00 | 00:00:00 | |
| POL1PZ | 2026-09-03 11:38:04 | 51.06896 | 17.06524 | 112° | 69km/h | 7371m | 5.7m/s | 0°C | 0% | 0hPa | 0V | 00:00:00 | 00:00:00 | 00:00:00 | |
| SQ6EMJ | 2026-09-03 11:37:58 | 51.06942 | 17.06390 | 106° | 64km/h | 7335m | 6.5m/s | 0°C | 0% | 0hPa | 0V | 00:00:00 | 00:00:00 | 00:00:00 | |
| SQ6EMJ | 2026-09-03 11:37:41 | 51.07070 | 17.05996 | 130° | 75km/h | 7241m | 7.4m/s | 0°C | 0% | 0hPa | 0V | 00:00:00 | 00:00:00 | 00:00:00 | |
| POL1PZ | 2026-09-03 11:37:40 | 51.07082 | 17.05974 | 132° | 69km/h | 7233m | 7.6m/s | 0°C | 0% | 0hPa | 0V | 00:00:00 | 00:00:00 | 00:00:00 | |
| SQ6EMJ | 2026-09-03 11:37:35 | 51.07119 | 17.05878 | 115° | 47km/h | 7201m | 8.2m/s | 0°C | 0% | 0hPa | 0V | 00:00:00 | 00:00:00 | 00:00:00 | |
| SQ6EMJ | 2026-09-03 11:37:29 | 51.07162 | 17.05735 | 123° | 62km/h | 7161m | 8.8m/s | 0°C | 0% | 0hPa | 0V | 00:00:00 | 00:00:00 | 00:00:00 | |
| SQ6EMJ | 2026-09-03 11:37:23 | 51.07208 | 17.05651 | 129° | 64km/h | 7133m | 5.1m/s | 0°C | 0% | 0hPa | 0V | 00:00:00 | 00:00:00 | 00:00:00 | |
| POL1PZ | 2026-09-03 11:37:20 | 51.07231 | 17.05588 | 112° | 55km/h | 7115m | 2.2m/s | 0°C | 0% | 0hPa | 0V | 00:00:00 | 00:00:00 | 00:00:00 | |
| SQ6EMJ | 2026-09-03 11:37:18 | 51.07243 | 17.05542 | 122° | 68km/h | 7102m | 5.0m/s | 0°C | 0% | 0hPa | 0V | 00:00:00 | 00:00:00 | 00:00:00 | |
| SQ6EMJ | 2026-09-03 11:37:12 | 51.07305 | 17.05413 | 124° | 75km/h | 7068m | 3.2m/s | 0°C | 0% | 0hPa | 0V | 00:00:00 | 00:00:00 | 00:00:00 | |
| SQ6EMJ | 2026-09-03 11:37:06 | 51.07350 | 17.05297 | 117° | 47km/h | 7038m | 3.7m/s | 0°C | 0% | 0hPa | 0V | 00:00:00 | 00:00:00 | 00:00:00 | |
| SQ6EMJ | 2026-09-03 11:37:01 | 51.07399 | 17.05199 | 134° | 66km/h | 7010m | 5.9m/s | 0°C | 0% | 0hPa | 0V | 00:00:00 | 00:00:00 | 00:00:00 | |
| POL1PZ | 2026-09-03 11:37:00 | 51.07418 | 17.05158 | 123° | 68km/h | 6998m | 7.4m/s | 0°C | 0% | 0hPa | 0V | 00:00:00 | 00:00:00 | 00:00:00 | |
| SQ6EMJ | 2026-09-03 11:36:56 | 51.07439 | 17.05093 | 113° | 47km/h | 6977m | 3.7m/s | 0°C | 0% | 0hPa | 0V | 00:00:00 | 00:00:00 | 00:00:00 | |
| SQ6EMJ | 2026-09-03 11:36:47 | 51.07512 | 17.04889 | 123° | 62km/h | 6924m | 4.0m/s | 0°C | 0% | 0hPa | 0V | 00:00:00 | 00:00:00 | 00:00:00 | |
| SQ6EMJ | 2026-09-03 11:36:40 | 51.07580 | 17.04760 | 130° | 68km/h | 6883m | 8.0m/s | 0°C | 0% | 0hPa | 0V | 00:00:00 | 00:00:00 | 00:00:00 | |
| POL1PZ | 2026-09-03 11:36:36 | 51.07624 | 17.04681 | 126° | 66km/h | 6863m | 3.9m/s | 0°C | 0% | 0hPa | 0V | 00:00:00 | 00:00:00 | 00:00:00 | |
| SQ6EMJ | 2026-09-03 11:36:34 | 51.07639 | 17.04638 | 115° | 51km/h | 6851m | 5.9m/s | 0°C | 0% | 0hPa | 0V | 00:00:00 | 00:00:00 | 00:00:00 | |
| SQ6EMJ | 2026-09-03 11:36:28 | 51.07680 | 17.04546 | 117° | 47km/h | 6812m | 5.0m/s | 0°C | 0% | 0hPa | 0V | 00:00:00 | 00:00:00 | 00:00:00 | |
| SQ6EMJ | 2026-09-03 11:36:22 | 51.07727 | 17.04426 | 121° | 58km/h | 6772m | 5.7m/s | 0°C | 0% | 0hPa | 0V | 00:00:00 | 00:00:00 | 00:00:00 | |
| POL1PZ | 2026-09-03 11:36:16 | 51.07780 | 17.04321 | 130° | 69km/h | 6742m | 3.9m/s | 0°C | 0% | 0hPa | 0V | 00:00:00 | 00:00:00 | 00:00:00 | |
| SQ6EMJ | 2026-09-03 11:36:11 | 51.07833 | 17.04244 | 139° | 58km/h | 6717m | 2.0m/s | 0°C | 0% | 0hPa | 0V | 00:00:00 | 00:00:00 | 00:00:00 | |
| SQ6EMJ | 2026-09-03 11:36:04 | 51.07899 | 17.04093 | 131° | 55km/h | 6674m | 7.3m/s | 0°C | 0% | 0hPa | 0V | 00:00:00 | 00:00:00 | 00:00:00 | |
| SQ6EMJ | 2026-09-03 11:35:58 | 51.07958 | 17.03992 | 136° | 55km/h | 6638m | 2.9m/s | 0°C | 0% | 0hPa | 0V | 00:00:00 | 00:00:00 | 00:00:00 | |
| POL1PZ | 2026-09-03 11:35:52 | 51.08006 | 17.03874 | 139° | 51km/h | 6606m | 6.7m/s | 0°C | 0% | 0hPa | 0V | 00:00:00 | 00:00:00 | 00:00:00 | |
| SQ6EMJ | 2026-09-03 11:35:41 | 51.08100 | 17.03661 | 123° | 64km/h | 6537m | 8.1m/s | 0°C | 0% | 0hPa | 0V | 00:00:00 | 00:00:00 | 00:00:00 | |
| POL1PZ | 2026-09-03 11:35:32 | 51.08173 | 17.03485 | 132° | 64km/h | 6485m | 5.9m/s | 0°C | 0% | 0hPa | 0V | 00:00:00 | 00:00:00 | 00:00:00 | |
| SQ6EMJ | 2026-09-03 11:35:28 | 51.08201 | 17.03409 | 121° | 53km/h | 6460m | 7.1m/s | 0°C | 0% | 0hPa | 0V | 00:00:00 | 00:00:00 | 00:00:00 | |
| SQ6EMJ | 2026-09-03 11:35:23 | 51.08243 | 17.03311 | 123° | 49km/h | 6429m | 4.0m/s | 0°C | 0% | 0hPa | 0V | 00:00:00 | 00:00:00 | 00:00:00 | |
| SQ6EMJ | 2026-09-03 11:35:17 | 51.08282 | 17.03193 | 107° | 57km/h | 6392m | 6.6m/s | 0°C | 0% | 0hPa | 0V | 00:00:00 | 00:00:00 | 00:00:00 | |
| POL1PZ | 2026-09-03 11:35:11 | 51.08322 | 17.03087 | 136° | 53km/h | 6351m | 7.0m/s | 0°C | 0% | 0hPa | 0V | 00:00:00 | 00:00:00 | 00:00:00 | |
| SQ6EMJ | 2026-09-03 11:35:06 | 51.08364 | 17.02986 | 116° | 60km/h | 6317m | 4.1m/s | 0°C | 0% | 0hPa | 0V | 00:00:00 | 00:00:00 | 00:00:00 | |
| SQ6EMJ | 2026-09-03 11:34:59 | 51.08426 | 17.02860 | 122° | 55km/h | 6284m | 4.6m/s | 0°C | 0% | 0hPa | 0V | 00:00:00 | 00:00:00 | 00:00:00 | |
| SQ6EMJ | 2026-09-03 11:34:54 | 51.08459 | 17.02794 | 115° | 42km/h | 6256m | 6.1m/s | 0°C | 0% | 0hPa | 0V | 00:00:00 | 00:00:00 | 00:00:00 | |
| POL1PZ | 2026-09-03 11:34:49 | 51.08489 | 17.02687 | 131° | 62km/h | 6227m | 7.2m/s | 0°C | 0% | 0hPa | 0V | 00:00:00 | 00:00:00 | 00:00:00 | |
| SQ6EMJ | 2026-09-03 11:34:40 | 51.08562 | 17.02546 | 129° | 49km/h | 6167m | 5.3m/s | 0°C | 0% | 0hPa | 0V | 00:00:00 | 00:00:00 | 00:00:00 | |
| SQ6EMJ | 2026-09-03 11:34:34 | 51.08606 | 17.02453 | 122° | 51km/h | 6137m | 5.7m/s | 0°C | 0% | 0hPa | 0V | 00:00:00 | 00:00:00 | 00:00:00 | |
| SQ6EMJ | 2026-09-03 11:34:29 | 51.08643 | 17.02374 | 138° | 57km/h | 6115m | 3.9m/s | 0°C | 0% | 0hPa | 0V | 00:00:00 | 00:00:00 | 00:00:00 | |
| POL1PZ | 2026-09-03 11:34:26 | 51.08668 | 17.02323 | 116° | 46km/h | 6101m | 3.8m/s | 0°C | 0% | 0hPa | 0V | 00:00:00 | 00:00:00 | 00:00:00 | |
| SQ6EMJ | 2026-09-03 11:34:23 | 51.08679 | 17.02278 | 110° | 37km/h | 6089m | 2.7m/s | 0°C | 0% | 0hPa | 0V | 00:00:00 | 00:00:00 | 00:00:00 | |
| SQ6EMJ | 2026-09-03 11:34:17 | 51.08714 | 17.02184 | 133° | 60km/h | 6055m | 6.3m/s | 0°C | 0% | 0hPa | 0V | 00:00:00 | 00:00:00 | 00:00:00 | |
| SQ6EMJ | 2026-09-03 11:34:11 | 51.08762 | 17.02103 | 139° | 53km/h | 6026m | 4.5m/s | 0°C | 0% | 0hPa | 0V | 00:00:00 | 00:00:00 | 00:00:00 | |
| POL1PZ | 2026-09-03 11:34:06 | 51.08801 | 17.02032 | 118° | 44km/h | 5996m | 4.6m/s | 0°C | 0% | 0hPa | 0V | 00:00:00 | 00:00:00 | 00:00:00 | |
| SQ6EMJ | 2026-09-03 11:34:00 | 51.08844 | 17.01941 | 115° | 35km/h | 5957m | 5.2m/s | 0°C | 0% | 0hPa | 0V | 00:00:00 | 00:00:00 | 00:00:00 | |
| SQ6EMJ | 2026-09-03 11:33:55 | 51.08863 | 17.01863 | 125° | 46km/h | 5931m | 6.9m/s | 0°C | 0% | 0hPa | 0V | 00:00:00 | 00:00:00 | 00:00:00 | |
| POL1PZ | 2026-09-03 11:33:45 | 51.08929 | 17.01698 | 134° | 44km/h | 5874m | 4.5m/s | 0°C | 0% | 0hPa | 0V | 00:00:00 | 00:00:00 | 00:00:00 | |
| SQ6EMJ | 2026-09-03 11:33:44 | 51.08936 | 17.01686 | 132° | 42km/h | 5868m | 8.2m/s | 0°C | 0% | 0hPa | 0V | 00:00:00 | 00:00:00 | 00:00:00 | |
| SQ6EMJ | 2026-09-03 11:33:39 | 51.08965 | 17.01604 | 124° | 57km/h | 5834m | 7.5m/s | 0°C | 0% | 0hPa | 0V | 00:00:00 | 00:00:00 | 00:00:00 | |
| POL1PZ | 2026-09-03 11:33:23 | 51.09051 | 17.01319 | 113° | 55km/h | 5733m | 3.7m/s | 0°C | 0% | 0hPa | 0V | 00:00:00 | 00:00:00 | 00:00:00 | |
| SQ6EMJ | 2026-09-03 11:33:14 | 51.09096 | 17.01153 | 112° | 33km/h | 5678m | 3.6m/s | 0°C | 0% | 0hPa | 0V | 00:00:00 | 00:00:00 | 00:00:00 | |
| SQ6EMJ | 2026-09-03 11:33:09 | 51.09113 | 17.01073 | 117° | 64km/h | 5649m | 5.8m/s | 0°C | 0% | 0hPa | 0V | 00:00:00 | 00:00:00 | 00:00:00 | |
| SQ6EMJ | 2026-09-03 11:33:03 | 51.09166 | 17.00956 | 137° | 44km/h | 5621m | 5.6m/s | 0°C | 0% | 0hPa | 0V | 00:00:00 | 00:00:00 | 00:00:00 | |
| POL1PZ | 2026-09-03 11:33:00 | 51.09191 | 17.00915 | 126° | 58km/h | 5606m | 5.3m/s | 0°C | 0% | 0hPa | 0V | 00:00:00 | 00:00:00 | 00:00:00 | |
| SQ6EMJ | 2026-09-03 11:32:57 | 51.09206 | 17.00845 | 104° | 60km/h | 5589m | 6.9m/s | 0°C | 0% | 0hPa | 0V | 00:00:00 | 00:00:00 | 00:00:00 | |
| SQ6EMJ | 2026-09-03 11:32:52 | 51.09248 | 17.00738 | 117° | 60km/h | 5549m | 5.5m/s | 0°C | 0% | 0hPa | 0V | 00:00:00 | 00:00:00 | 00:00:00 | |
| SQ6EMJ | 2026-09-03 11:32:46 | 51.09270 | 17.00657 | 128° | 33km/h | 5519m | 4.9m/s | 0°C | 0% | 0hPa | 0V | 00:00:00 | 00:00:00 | 00:00:00 | |
| SQ6EMJ | 2026-09-03 11:32:40 | 51.09286 | 17.00549 | 110° | 51km/h | 5485m | 5.6m/s | 0°C | 0% | 0hPa | 0V | 00:00:00 | 00:00:00 | 00:00:00 | |
| SQ6EMJ | 2026-09-03 11:32:34 | 51.09307 | 17.00441 | 89° | 53km/h | 5448m | 7.1m/s | 0°C | 0% | 0hPa | 0V | 00:00:00 | 00:00:00 | 00:00:00 | |
| POL1PZ | 2026-09-03 11:32:28 | 51.09325 | 17.00336 | 103° | 53km/h | 5416m | 4.7m/s | 0°C | 0% | 0hPa | 0V | 00:00:00 | 00:00:00 | 00:00:00 | |
| SQ6EMJ | 2026-09-03 11:32:22 | 51.09335 | 17.00220 | 88° | 37km/h | 5386m | 5.5m/s | 0°C | 0% | 0hPa | 0V | 00:00:00 | 00:00:00 | 00:00:00 | |
| SQ6EMJ | 2026-09-03 11:32:17 | 51.09325 | 17.00134 | 87° | 38km/h | 5355m | 5.4m/s | 0°C | 0% | 0hPa | 0V | 00:00:00 | 00:00:00 | 00:00:00 | |
| SQ6EMJ | 2026-09-03 11:32:12 | 51.09335 | 17.00062 | 91° | 57km/h | 5327m | 8.1m/s | 0°C | 0% | 0hPa | 0V | 00:00:00 | 00:00:00 | 00:00:00 | |
| SQ6EMJ | 2026-09-03 11:32:06 | 51.09334 | 16.99951 | 109° | 35km/h | 5293m | 6.1m/s | 0°C | 0% | 0hPa | 0V | 00:00:00 | 00:00:00 | 00:00:00 | |
| POL1PZ | 2026-09-03 11:32:05 | 51.09336 | 16.99938 | 89° | 33km/h | 5286m | 6.9m/s | 0°C | 0% | 0hPa | 0V | 00:00:00 | 00:00:00 | 00:00:00 | |
| SQ6EMJ | 2026-09-03 11:32:01 | 51.09328 | 16.99872 | 93° | 42km/h | 5261m | 5.9m/s | 0°C | 0% | 0hPa | 0V | 00:00:00 | 00:00:00 | 00:00:00 | |
| SQ6EMJ | 2026-09-03 11:31:50 | 51.09310 | 16.99687 | 100° | 37km/h | 5205m | 5.8m/s | 0°C | 0% | 0hPa | 0V | 00:00:00 | 00:00:00 | 00:00:00 | |
| SQ6EMJ | 2026-09-03 11:31:44 | 51.09306 | 16.99583 | 104° | 47km/h | 5160m | 6.7m/s | 0°C | 0% | 0hPa | 0V | 00:00:00 | 00:00:00 | 00:00:00 | |
| SQ6EMJ | 2026-09-03 11:31:37 | 51.09320 | 16.99483 | 85° | 38km/h | 5125m | 3.2m/s | 0°C | 0% | 0hPa | 0V | 00:00:00 | 00:00:00 | 00:00:00 | |
| POL1PZ | 2026-09-03 11:31:36 | 51.09320 | 16.99471 | 88° | 27km/h | 5120m | 5.5m/s | 0°C | 0% | 0hPa | 0V | 00:00:00 | 00:00:00 | 00:00:00 | |
| SQ6EMJ | 2026-09-03 11:31:25 | 51.09330 | 16.99302 | 100° | 29km/h | 5051m | 6.3m/s | 0°C | 0% | 0hPa | 0V | 00:00:00 | 00:00:00 | 00:00:00 | |
| SQ6EMJ | 2026-09-03 11:31:18 | 51.09333 | 16.99196 | 104° | 38km/h | 5017m | 4.0m/s | 0°C | 0% | 0hPa | 0V | 00:00:00 | 00:00:00 | 00:00:00 | |
| SQ6EMJ | 2026-09-03 11:31:09 | 51.09341 | 16.99042 | 115° | 53km/h | 4963m | 7.7m/s | 0°C | 0% | 0hPa | 0V | 00:00:00 | 00:00:00 | 00:00:00 | |
| SQ6EMJ | 2026-09-03 11:31:00 | 51.09349 | 16.98902 | 99° | 60km/h | 4912m | 7.4m/s | 0°C | 0% | 0hPa | 0V | 00:00:00 | 00:00:00 | 00:00:00 | |
| SQ6EMJ | 2026-09-03 11:30:56 | 51.09347 | 16.98830 | 116° | 33km/h | 4886m | 4.2m/s | 0°C | 0% | 0hPa | 0V | 00:00:00 | 00:00:00 | 00:00:00 | |
| SQ6EMJ | 2026-09-03 11:30:50 | 51.09350 | 16.98738 | 89° | 49km/h | 4858m | 4.2m/s | 0°C | 0% | 0hPa | 0V | 00:00:00 | 00:00:00 | 00:00:00 | |
| SQ6EMJ | 2026-09-03 11:30:45 | 51.09365 | 16.98624 | 92° | 51km/h | 4822m | 5.2m/s | 0°C | 0% | 0hPa | 0V | 00:00:00 | 00:00:00 | 00:00:00 | |
| SQ6EMJ | 2026-09-03 11:30:39 | 51.09365 | 16.98542 | 104° | 27km/h | 4789m | 7.0m/s | 0°C | 0% | 0hPa | 0V | 00:00:00 | 00:00:00 | 00:00:00 | |
| SQ6EMJ | 2026-09-03 11:30:33 | 51.09373 | 16.98463 | 93° | 42km/h | 4751m | 7.6m/s | 0°C | 0% | 0hPa | 0V | 00:00:00 | 00:00:00 | 00:00:00 | |
| SQ6EMJ | 2026-09-03 11:30:25 | 51.09380 | 16.98326 | 92° | 27km/h | 4705m | 5.0m/s | 0°C | 0% | 0hPa | 0V | 00:00:00 | 00:00:00 | 00:00:00 | |
| SQ6EMJ | 2026-09-03 11:30:19 | 51.09392 | 16.98203 | 92° | 33km/h | 4666m | 7.3m/s | 0°C | 0% | 0hPa | 0V | 00:00:00 | 00:00:00 | 00:00:00 | |
| SQ6EMJ | 2026-09-03 11:30:09 | 51.09411 | 16.98087 | 82° | 51km/h | 4614m | 4.1m/s | 0°C | 0% | 0hPa | 0V | 00:00:00 | 00:00:00 | 00:00:00 | |
| SQ6EMJ | 2026-09-03 11:29:58 | 51.09449 | 16.97904 | 124° | 57km/h | 4541m | 4.3m/s | 0°C | 0% | 0hPa | 0V | 00:00:00 | 00:00:00 | 00:00:00 | |
| SQ6EMJ | 2026-09-03 11:29:49 | 51.09508 | 16.97781 | 127° | 55km/h | 4484m | 6.3m/s | 0°C | 0% | 0hPa | 0V | 00:00:00 | 00:00:00 | 00:00:00 | |
| SQ6EMJ | 2026-09-03 11:29:41 | 51.09566 | 16.97688 | 147° | 47km/h | 4432m | 7.2m/s | 0°C | 0% | 0hPa | 0V | 00:00:00 | 00:00:00 | 00:00:00 | |
| SQ6EMJ | 2026-09-03 11:28:25 | 51.09960 | 16.96566 | 118° | 47km/h | 3973m | 4.9m/s | 0°C | 0% | 0hPa | 0V | 00:00:00 | 00:00:00 | 00:00:00 | |
| SQ6EMJ | 2026-09-03 11:28:11 | 51.10024 | 16.96364 | 104° | 57km/h | 3896m | 6.3m/s | 0°C | 0% | 0hPa | 0V | 00:00:00 | 00:00:00 | 00:00:00 |